PWSweather.com
Personal Weather Stations
Station Observations
KC4YGB
E3801 Rock Cave -, French Creek, WV 26218

E3801 Rock Cave -French Creek, WV 26218

Lat: 38.842212, Lon: -80.272288

Elevation: 1900

Station Type: Davis Vantage Vue

https://www.facebook.com/OhioValleyWeatherPlus

Latest ConditionsUpdated 10:57:00 PM EDT Tuesday, Jul 29, 2014
Currently Today's Max Today's Min Today's Average
Temperature 53.3°F11.8°C 66.4°F19.1°C 53.2°F11.8°C 59.2°F15.1°C
Dew Point 51.6°F10.9°C 57.5°F14.2°C 51.3°F10.7°C 54.7°F12.6°C
Winds Calm Calm 6.0 mph SW9.7 kmh SW - 0.9 mph 1.4 kmh
Wind Gusts 2.0 mph3.2 kmh 12.0 mph19.3 kmh - -
Humidity 94% 100% 64% 86%
Pressure 30.08 in1018.6 mb 30.09 in1019.0 mb 29.95 in1014.2 mb -
Precipitation - 0.05 in1.3 mm - -
Hour Temp Dew Point Humidity Winds Wind Gusts Pressure Precip Precip Rate Daily Precip Total
10:57 PM 53.3°F11.8°C 51.6°F10.9°C 94% Calm Calm 2.0 mph3.2 kmh 30.08 in1018.6 mb 0.00 in0.0 mm 0.00 in/hr0.0 mm/hr 0.05 in1.3 mm
10:56 PM 53.4°F11.9°C 51.4°F10.8°C 93% Calm Calm 2.0 mph3.2 kmh 30.08 in1018.6 mb 0.00 in0.0 mm 0.00 in/hr0.0 mm/hr 0.05 in1.3 mm
10:55 PM 53.6°F12.0°C 51.6°F10.9°C 93% Calm Calm 2.0 mph3.2 kmh 30.09 in1019.0 mb 0.00 in0.0 mm 0.00 in/hr0.0 mm/hr 0.05 in1.3 mm
10:54 PM 53.7°F12.1°C 51.7°F10.9°C 93% Calm Calm 2.0 mph3.2 kmh 30.09 in1019.0 mb 0.00 in0.0 mm 0.00 in/hr0.0 mm/hr 0.05 in1.3 mm
10:53 PM 53.8°F12.1°C 51.8°F11.0°C 93% 1.0 mph N1.6 kmh N 2.0 mph3.2 kmh 30.09 in1019.0 mb 0.00 in0.0 mm 0.00 in/hr0.0 mm/hr 0.05 in1.3 mm
10:52 PM 53.9°F12.2°C 52.2°F11.2°C 94% 1.0 mph N1.6 kmh N 2.0 mph3.2 kmh 30.08 in1018.6 mb 0.00 in0.0 mm 0.00 in/hr0.0 mm/hr 0.05 in1.3 mm
10:51 PM 54.0°F12.2°C 52.3°F11.3°C 94% 1.0 mph N1.6 kmh N 2.0 mph3.2 kmh 30.09 in1019.0 mb 0.00 in0.0 mm 0.00 in/hr0.0 mm/hr 0.05 in1.3 mm
10:50 PM 54.1°F12.3°C 52.4°F11.3°C 94% 1.0 mph N1.6 kmh N 2.0 mph3.2 kmh 30.09 in1019.0 mb 0.00 in0.0 mm 0.00 in/hr0.0 mm/hr 0.05 in1.3 mm
10:49 PM 54.0°F12.2°C 52.6°F11.4°C 95% 1.0 mph N1.6 kmh N 2.0 mph3.2 kmh 30.08 in1018.6 mb 0.00 in0.0 mm 0.00 in/hr0.0 mm/hr 0.05 in1.3 mm
10:48 PM 54.0°F12.2°C 52.6°F11.4°C 95% 1.0 mph N1.6 kmh N 2.0 mph3.2 kmh 30.08 in1018.6 mb 0.00 in0.0 mm 0.00 in/hr0.0 mm/hr 0.05 in1.3 mm
10:47 PM 53.9°F12.2°C 52.2°F11.2°C 94% 1.0 mph N1.6 kmh N 2.0 mph3.2 kmh 30.08 in1018.6 mb 0.00 in0.0 mm 0.00 in/hr0.0 mm/hr 0.05 in1.3 mm
10:46 PM 53.9°F12.2°C 52.2°F11.2°C 94% 1.0 mph N1.6 kmh N 2.0 mph3.2 kmh 30.08 in1018.6 mb 0.00 in0.0 mm 0.00 in/hr0.0 mm/hr 0.05 in1.3 mm
10:45 PM 54.0°F12.2°C 52.6°F11.4°C 95% 2.0 mph N3.2 kmh N 2.0 mph3.2 kmh 30.08 in1018.6 mb 0.00 in0.0 mm 0.00 in/hr0.0 mm/hr 0.05 in1.3 mm
10:44 PM 53.9°F12.2°C 52.2°F11.2°C 94% 2.0 mph N3.2 kmh N 3.0 mph4.8 kmh 30.08 in1018.6 mb 0.00 in0.0 mm 0.00 in/hr0.0 mm/hr 0.05 in1.3 mm
10:43 PM 53.9°F12.2°C 52.2°F11.2°C 94% 2.0 mph N3.2 kmh N 3.0 mph4.8 kmh 30.08 in1018.6 mb 0.00 in0.0 mm 0.00 in/hr0.0 mm/hr 0.05 in1.3 mm
10:42 PM 54.0°F12.2°C 52.0°F11.1°C 93% 2.0 mph NNE3.2 kmh NNE 4.0 mph6.4 kmh 30.08 in1018.6 mb 0.00 in0.0 mm 0.00 in/hr0.0 mm/hr 0.05 in1.3 mm
10:41 PM 54.1°F12.3°C 52.1°F11.2°C 93% 2.0 mph NNE3.2 kmh NNE 4.0 mph6.4 kmh 30.08 in1018.6 mb 0.00 in0.0 mm 0.00 in/hr0.0 mm/hr 0.05 in1.3 mm
10:40 PM 54.2°F12.3°C 52.2°F11.2°C 93% 2.0 mph NNE3.2 kmh NNE 4.0 mph6.4 kmh 30.08 in1018.6 mb 0.00 in0.0 mm 0.00 in/hr0.0 mm/hr 0.05 in1.3 mm
10:39 PM 54.3°F12.4°C 52.6°F11.4°C 94% 2.0 mph NNE3.2 kmh NNE 4.0 mph6.4 kmh 30.08 in1018.6 mb 0.00 in0.0 mm 0.00 in/hr0.0 mm/hr 0.05 in1.3 mm
10:38 PM 54.4°F12.4°C 52.7°F11.5°C 94% 2.0 mph NNE3.2 kmh NNE 4.0 mph6.4 kmh 30.08 in1018.6 mb 0.00 in0.0 mm 0.00 in/hr0.0 mm/hr 0.05 in1.3 mm
10:37 PM 54.4°F12.4°C 52.4°F11.3°C 93% 2.0 mph NNE3.2 kmh NNE 4.0 mph6.4 kmh 30.08 in1018.6 mb 0.00 in0.0 mm 0.00 in/hr0.0 mm/hr 0.05 in1.3 mm
10:36 PM 54.5°F12.5°C 52.5°F11.4°C 93% 2.0 mph NNE3.2 kmh NNE 4.0 mph6.4 kmh 30.08 in1018.6 mb 0.00 in0.0 mm 0.00 in/hr0.0 mm/hr 0.05 in1.3 mm
10:35 PM 54.5°F12.5°C 52.8°F11.6°C 94% 2.0 mph NNE3.2 kmh NNE 4.0 mph6.4 kmh 30.08 in1018.6 mb 0.00 in0.0 mm 0.00 in/hr0.0 mm/hr 0.05 in1.3 mm
10:34 PM 54.6°F12.6°C 52.9°F11.6°C 94% 2.0 mph NNE3.2 kmh NNE 4.0 mph6.4 kmh 30.08 in1018.6 mb 0.00 in0.0 mm 0.00 in/hr0.0 mm/hr 0.05 in1.3 mm
10:33 PM 54.6°F12.6°C 52.9°F11.6°C 94% 2.0 mph NNE3.2 kmh NNE 4.0 mph6.4 kmh 30.08 in1018.6 mb 0.00 in0.0 mm 0.00 in/hr0.0 mm/hr 0.05 in1.3 mm
10:32 PM 54.5°F12.5°C 52.8°F11.6°C 94% 2.0 mph NNE3.2 kmh NNE 4.0 mph6.4 kmh 30.08 in1018.6 mb 0.00 in0.0 mm 0.00 in/hr0.0 mm/hr 0.05 in1.3 mm
10:31 PM 54.5°F12.5°C 52.8°F11.6°C 94% 2.0 mph N3.2 kmh N 4.0 mph6.4 kmh 30.08 in1018.6 mb 0.00 in0.0 mm 0.00 in/hr0.0 mm/hr 0.05 in1.3 mm
10:30 PM 54.5°F12.5°C 52.8°F11.6°C 94% 2.0 mph N3.2 kmh N 4.0 mph6.4 kmh 30.08 in1018.6 mb 0.00 in0.0 mm 0.00 in/hr0.0 mm/hr 0.05 in1.3 mm
10:29 PM 54.5°F12.5°C 53.1°F11.7°C 95% 1.0 mph N1.6 kmh N 4.0 mph6.4 kmh 30.08 in1018.6 mb 0.00 in0.0 mm 0.00 in/hr0.0 mm/hr 0.05 in1.3 mm
10:28 PM 54.5°F12.5°C 53.1°F11.7°C 95% 1.0 mph N1.6 kmh N 4.0 mph6.4 kmh 30.08 in1018.6 mb 0.00 in0.0 mm 0.00 in/hr0.0 mm/hr 0.05 in1.3 mm
10:27 PM 54.4°F12.4°C 53.0°F11.7°C 95% 1.0 mph N1.6 kmh N 4.0 mph6.4 kmh 30.08 in1018.6 mb 0.00 in0.0 mm 0.00 in/hr0.0 mm/hr 0.05 in1.3 mm
10:26 PM 54.4°F12.4°C 53.0°F11.7°C 95% 1.0 mph N1.6 kmh N 4.0 mph6.4 kmh 30.09 in1019.0 mb 0.00 in0.0 mm 0.00 in/hr0.0 mm/hr 0.05 in1.3 mm
10:25 PM 54.3°F12.4°C 53.2°F11.8°C 96% 1.0 mph N1.6 kmh N 4.0 mph6.4 kmh 30.09 in1019.0 mb 0.00 in0.0 mm 0.00 in/hr0.0 mm/hr 0.05 in1.3 mm
10:24 PM 54.2°F12.3°C 53.1°F11.7°C 96% Calm Calm 4.0 mph6.4 kmh 30.08 in1018.6 mb 0.00 in0.0 mm 0.00 in/hr0.0 mm/hr 0.05 in1.3 mm
10:23 PM 54.1°F12.3°C 53.3°F11.8°C 97% Calm Calm 4.0 mph6.4 kmh 30.08 in1018.6 mb 0.00 in0.0 mm 0.00 in/hr0.0 mm/hr 0.05 in1.3 mm
10:22 PM 53.9°F12.2°C 53.1°F11.7°C 97% Calm Calm 4.0 mph6.4 kmh 30.09 in1019.0 mb 0.00 in0.0 mm 0.00 in/hr0.0 mm/hr 0.05 in1.3 mm
10:21 PM 53.8°F12.1°C 53.0°F11.7°C 97% Calm Calm 4.0 mph6.4 kmh 30.09 in1019.0 mb 0.00 in0.0 mm 0.00 in/hr0.0 mm/hr 0.05 in1.3 mm
10:20 PM 53.7°F12.1°C 52.9°F11.6°C 97% Calm Calm 4.0 mph6.4 kmh 30.08 in1018.6 mb 0.00 in0.0 mm 0.00 in/hr0.0 mm/hr 0.05 in1.3 mm
10:19 PM 53.6°F12.0°C 52.8°F11.6°C 97% Calm Calm 3.0 mph4.8 kmh 30.08 in1018.6 mb 0.00 in0.0 mm 0.00 in/hr0.0 mm/hr 0.05 in1.3 mm
10:18 PM 53.5°F11.9°C 52.7°F11.5°C 97% Calm Calm 3.0 mph4.8 kmh 30.08 in1018.6 mb 0.00 in0.0 mm 0.00 in/hr0.0 mm/hr 0.05 in1.3 mm
10:17 PM 53.3°F11.8°C 52.5°F11.4°C 97% Calm Calm 2.0 mph3.2 kmh 30.08 in1018.6 mb 0.00 in0.0 mm 0.00 in/hr0.0 mm/hr 0.05 in1.3 mm
10:16 PM 53.2°F11.8°C 52.1°F11.2°C 96% Calm Calm 1.0 mph1.6 kmh 30.08 in1018.6 mb 0.00 in0.0 mm 0.00 in/hr0.0 mm/hr 0.05 in1.3 mm
10:15 PM 53.2°F11.8°C 52.4°F11.3°C 97% Calm Calm -- 30.09 in1019.0 mb 0.00 in0.0 mm 0.00 in/hr0.0 mm/hr 0.05 in1.3 mm
10:14 PM 53.2°F11.8°C 52.1°F11.2°C 96% Calm Calm -- 30.09 in1019.0 mb 0.00 in0.0 mm 0.00 in/hr0.0 mm/hr 0.05 in1.3 mm
10:13 PM 53.2°F11.8°C 52.1°F11.2°C 96% Calm Calm -- 30.08 in1018.6 mb 0.00 in0.0 mm 0.00 in/hr0.0 mm/hr 0.05 in1.3 mm
10:12 PM 53.2°F11.8°C 52.1°F11.2°C 96% Calm Calm -- 30.09 in1019.0 mb 0.00 in0.0 mm 0.00 in/hr0.0 mm/hr 0.05 in1.3 mm
10:11 PM 53.3°F11.8°C 52.2°F11.2°C 96% Calm Calm -- 30.08 in1018.6 mb 0.00 in0.0 mm 0.00 in/hr0.0 mm/hr 0.05 in1.3 mm
10:10 PM 53.3°F11.8°C 52.2°F11.2°C 96% Calm Calm -- 30.08 in1018.6 mb 0.00 in0.0 mm 0.00 in/hr0.0 mm/hr 0.05 in1.3 mm
10:09 PM 53.3°F11.8°C 52.2°F11.2°C 96% Calm Calm 1.0 mph1.6 kmh 30.08 in1018.6 mb 0.00 in0.0 mm 0.00 in/hr0.0 mm/hr 0.05 in1.3 mm
10:08 PM 53.2°F11.8°C 52.1°F11.2°C 96% Calm Calm 1.0 mph1.6 kmh 30.08 in1018.6 mb 0.00 in0.0 mm 0.00 in/hr0.0 mm/hr 0.05 in1.3 mm
10:07 PM 53.3°F11.8°C 52.2°F11.2°C 96% Calm Calm 1.0 mph1.6 kmh 30.08 in1018.6 mb 0.00 in0.0 mm 0.00 in/hr0.0 mm/hr 0.05 in1.3 mm
10:06 PM 53.3°F11.8°C 52.2°F11.2°C 96% Calm Calm 1.0 mph1.6 kmh 30.08 in1018.6 mb 0.00 in0.0 mm 0.00 in/hr0.0 mm/hr 0.05 in1.3 mm
10:05 PM 53.3°F11.8°C 52.2°F11.2°C 96% Calm Calm 1.0 mph1.6 kmh 30.08 in1018.6 mb 0.00 in0.0 mm 0.00 in/hr0.0 mm/hr 0.05 in1.3 mm
10:04 PM 53.3°F11.8°C 52.2°F11.2°C 96% Calm Calm 1.0 mph1.6 kmh 30.08 in1018.6 mb 0.00 in0.0 mm 0.00 in/hr0.0 mm/hr 0.05 in1.3 mm
10:03 PM 53.3°F11.8°C 52.2°F11.2°C 96% Calm Calm 1.0 mph1.6 kmh 30.08 in1018.6 mb 0.00 in0.0 mm 0.00 in/hr0.0 mm/hr 0.05 in1.3 mm
10:02 PM 53.4°F11.9°C 52.3°F11.3°C 96% Calm Calm 1.0 mph1.6 kmh 30.08 in1018.6 mb 0.00 in0.0 mm 0.00 in/hr0.0 mm/hr 0.05 in1.3 mm
10:01 PM 53.4°F11.9°C 52.3°F11.3°C 96% Calm Calm 1.0 mph1.6 kmh 30.08 in1018.6 mb 0.00 in0.0 mm 0.00 in/hr0.0 mm/hr 0.05 in1.3 mm
10:00 PM 53.5°F11.9°C 52.4°F11.3°C 96% Calm Calm 1.0 mph1.6 kmh 30.08 in1018.6 mb 0.00 in0.0 mm 0.00 in/hr0.0 mm/hr 0.05 in1.3 mm
09:59 PM 53.5°F11.9°C 52.4°F11.3°C 96% Calm Calm 1.0 mph1.6 kmh 30.08 in1018.6 mb 0.00 in0.0 mm 0.00 in/hr0.0 mm/hr 0.05 in1.3 mm
09:58 PM 53.6°F12.0°C 52.5°F11.4°C 96% Calm Calm 1.0 mph1.6 kmh 30.08 in1018.6 mb 0.00 in0.0 mm 0.00 in/hr0.0 mm/hr 0.05 in1.3 mm
09:57 PM 53.6°F12.0°C 52.5°F11.4°C 96% Calm Calm 1.0 mph1.6 kmh 30.08 in1018.6 mb 0.00 in0.0 mm 0.00 in/hr0.0 mm/hr 0.05 in1.3 mm
09:56 PM 53.6°F12.0°C 52.5°F11.4°C 96% Calm Calm 1.0 mph1.6 kmh 30.08 in1018.6 mb 0.00 in0.0 mm 0.00 in/hr0.0 mm/hr 0.05 in1.3 mm
09:55 PM 53.7°F12.1°C 52.6°F11.4°C 96% Calm Calm 1.0 mph1.6 kmh 30.08 in1018.6 mb 0.00 in0.0 mm 0.00 in/hr0.0 mm/hr 0.05 in1.3 mm
09:54 PM 53.7°F12.1°C 52.6°F11.4°C 96% Calm Calm -- 30.08 in1018.6 mb 0.00 in0.0 mm 0.00 in/hr0.0 mm/hr 0.05 in1.3 mm
09:53 PM 53.8°F12.1°C 52.7°F11.5°C 96% Calm Calm -- 30.08 in1018.6 mb 0.00 in0.0 mm 0.00 in/hr0.0 mm/hr 0.05 in1.3 mm
09:52 PM 53.8°F12.1°C 52.7°F11.5°C 96% Calm Calm -- 30.08 in1018.6 mb 0.00 in0.0 mm 0.00 in/hr0.0 mm/hr 0.05 in1.3 mm
09:51 PM 53.9°F12.2°C 52.8°F11.6°C 96% Calm Calm 1.0 mph1.6 kmh 30.08 in1018.6 mb 0.00 in0.0 mm 0.00 in/hr0.0 mm/hr 0.05 in1.3 mm
09:50 PM 53.9°F12.2°C 52.8°F11.6°C 96% Calm Calm 1.0 mph1.6 kmh 30.08 in1018.6 mb 0.00 in0.0 mm 0.00 in/hr0.0 mm/hr 0.05 in1.3 mm
09:49 PM 53.9°F12.2°C 52.8°F11.6°C 96% Calm Calm 1.0 mph1.6 kmh 30.08 in1018.6 mb 0.00 in0.0 mm 0.00 in/hr0.0 mm/hr 0.05 in1.3 mm
09:48 PM 53.9°F12.2°C 52.8°F11.6°C 96% Calm Calm 1.0 mph1.6 kmh 30.08 in1018.6 mb 0.00 in0.0 mm 0.00 in/hr0.0 mm/hr 0.05 in1.3 mm
09:47 PM 54.0°F12.2°C 52.9°F11.6°C 96% Calm Calm 1.0 mph1.6 kmh 30.08 in1018.6 mb 0.00 in0.0 mm 0.00 in/hr0.0 mm/hr 0.05 in1.3 mm
09:46 PM 54.0°F12.2°C 52.9°F11.6°C 96% Calm Calm 1.0 mph1.6 kmh 30.08 in1018.6 mb 0.00 in0.0 mm 0.00 in/hr0.0 mm/hr 0.05 in1.3 mm
09:45 PM 54.1°F12.3°C 53.0°F11.7°C 96% Calm Calm 1.0 mph1.6 kmh 30.08 in1018.6 mb 0.00 in0.0 mm 0.00 in/hr0.0 mm/hr 0.05 in1.3 mm
09:44 PM 54.1°F12.3°C 53.0°F11.7°C 96% Calm Calm 1.0 mph1.6 kmh 30.07 in1018.3 mb 0.00 in0.0 mm 0.00 in/hr0.0 mm/hr 0.05 in1.3 mm
09:43 PM 54.1°F12.3°C 53.0°F11.7°C 96% Calm Calm 1.0 mph1.6 kmh 30.07 in1018.3 mb 0.00 in0.0 mm 0.00 in/hr0.0 mm/hr 0.05 in1.3 mm
09:42 PM 54.2°F12.3°C 53.1°F11.7°C 96% Calm Calm 1.0 mph1.6 kmh 30.07 in1018.3 mb 0.00 in0.0 mm 0.00 in/hr0.0 mm/hr 0.05 in1.3 mm
09:41 PM 54.2°F12.3°C 53.1°F11.7°C 96% Calm Calm 1.0 mph1.6 kmh 30.07 in1018.3 mb 0.00 in0.0 mm 0.00 in/hr0.0 mm/hr 0.05 in1.3 mm
09:40 PM 54.2°F12.3°C 53.1°F11.7°C 96% Calm Calm 1.0 mph1.6 kmh 30.07 in1018.3 mb 0.00 in0.0 mm 0.00 in/hr0.0 mm/hr 0.05 in1.3 mm
09:39 PM 54.2°F12.3°C 53.1°F11.7°C 96% Calm Calm 1.0 mph1.6 kmh 30.07 in1018.3 mb 0.00 in0.0 mm 0.00 in/hr0.0 mm/hr 0.05 in1.3 mm
09:38 PM 54.2°F12.3°C 53.1°F11.7°C 96% Calm Calm 1.0 mph1.6 kmh 30.07 in1018.3 mb 0.00 in0.0 mm 0.00 in/hr0.0 mm/hr 0.05 in1.3 mm
09:37 PM 54.2°F12.3°C 52.8°F11.6°C 95% Calm Calm 1.0 mph1.6 kmh 30.07 in1018.3 mb 0.00 in0.0 mm 0.00 in/hr0.0 mm/hr 0.05 in1.3 mm
09:36 PM 54.2°F12.3°C 52.8°F11.6°C 95% Calm Calm -- 30.07 in1018.3 mb 0.00 in0.0 mm 0.00 in/hr0.0 mm/hr 0.05 in1.3 mm
09:35 PM 54.3°F12.4°C 52.9°F11.6°C 95% Calm Calm -- 30.07 in1018.3 mb 0.00 in0.0 mm 0.00 in/hr0.0 mm/hr 0.05 in1.3 mm
09:34 PM 54.3°F12.4°C 52.9°F11.6°C 95% Calm Calm -- 30.07 in1018.3 mb 0.00 in0.0 mm 0.00 in/hr0.0 mm/hr 0.05 in1.3 mm
09:33 PM 54.4°F12.4°C 53.0°F11.7°C 95% Calm Calm -- 30.07 in1018.3 mb 0.00 in0.0 mm 0.00 in/hr0.0 mm/hr 0.05 in1.3 mm
09:32 PM 54.4°F12.4°C 53.0°F11.7°C 95% Calm Calm -- 30.07 in1018.3 mb 0.00 in0.0 mm 0.00 in/hr0.0 mm/hr 0.05 in1.3 mm
09:31 PM 54.4°F12.4°C 53.0°F11.7°C 95% Calm Calm -- 30.07 in1018.3 mb 0.00 in0.0 mm 0.00 in/hr0.0 mm/hr 0.05 in1.3 mm
09:30 PM 54.5°F12.5°C 53.1°F11.7°C 95% Calm Calm -- 30.07 in1018.3 mb 0.00 in0.0 mm 0.00 in/hr0.0 mm/hr 0.05 in1.3 mm
09:29 PM 54.5°F12.5°C 53.1°F11.7°C 95% Calm Calm -- 30.07 in1018.3 mb 0.00 in0.0 mm 0.00 in/hr0.0 mm/hr 0.05 in1.3 mm
09:28 PM 54.5°F12.5°C 53.1°F11.7°C 95% Calm Calm -- 30.07 in1018.3 mb 0.00 in0.0 mm 0.00 in/hr0.0 mm/hr 0.05 in1.3 mm
09:27 PM 54.6°F12.6°C 53.2°F11.8°C 95% Calm Calm -- 30.07 in1018.3 mb 0.00 in0.0 mm 0.00 in/hr0.0 mm/hr 0.05 in1.3 mm
09:26 PM 54.6°F12.6°C 53.2°F11.8°C 95% Calm Calm -- 30.07 in1018.3 mb 0.00 in0.0 mm 0.00 in/hr0.0 mm/hr 0.05 in1.3 mm
09:25 PM 54.7°F12.6°C 53.3°F11.8°C 95% Calm Calm -- 30.07 in1018.3 mb 0.00 in0.0 mm 0.00 in/hr0.0 mm/hr 0.05 in1.3 mm
09:24 PM 54.7°F12.6°C 53.3°F11.8°C 95% Calm Calm -- 30.07 in1018.3 mb 0.00 in0.0 mm 0.00 in/hr0.0 mm/hr 0.05 in1.3 mm
09:23 PM 54.7°F12.6°C 53.3°F11.8°C 95% Calm Calm -- 30.07 in1018.3 mb 0.00 in0.0 mm 0.00 in/hr0.0 mm/hr 0.05 in1.3 mm
09:22 PM 54.7°F12.6°C 53.3°F11.8°C 95% Calm Calm -- 30.07 in1018.3 mb 0.00 in0.0 mm 0.00 in/hr0.0 mm/hr 0.05 in1.3 mm
09:21 PM 54.8°F12.7°C 53.4°F11.9°C 95% Calm Calm -- 30.07 in1018.3 mb 0.00 in0.0 mm 0.00 in/hr0.0 mm/hr 0.05 in1.3 mm
09:20 PM 54.8°F12.7°C 53.4°F11.9°C 95% Calm Calm -- 30.07 in1018.3 mb 0.00 in0.0 mm 0.00 in/hr0.0 mm/hr 0.05 in1.3 mm
09:19 PM 54.8°F12.7°C 53.4°F11.9°C 95% Calm Calm -- 30.07 in1018.3 mb 0.00 in0.0 mm 0.00 in/hr0.0 mm/hr 0.05 in1.3 mm
09:18 PM 54.9°F12.7°C 53.5°F11.9°C 95% Calm Calm -- 30.07 in1018.3 mb 0.00 in0.0 mm 0.00 in/hr0.0 mm/hr 0.05 in1.3 mm
09:17 PM 54.9°F12.7°C 53.5°F11.9°C 95% Calm Calm -- 30.07 in1018.3 mb 0.00 in0.0 mm 0.00 in/hr0.0 mm/hr 0.05 in1.3 mm
09:16 PM 54.9°F12.7°C 53.2°F11.8°C 94% Calm Calm -- 30.07 in1018.3 mb 0.00 in0.0 mm 0.00 in/hr0.0 mm/hr 0.05 in1.3 mm
09:15 PM 55.0°F12.8°C 53.3°F11.8°C 94% Calm Calm -- 30.07 in1018.3 mb 0.00 in0.0 mm 0.00 in/hr0.0 mm/hr 0.05 in1.3 mm
09:14 PM 55.1°F12.8°C 53.4°F11.9°C 94% Calm Calm -- 30.07 in1018.3 mb 0.00 in0.0 mm 0.00 in/hr0.0 mm/hr 0.05 in1.3 mm
09:13 PM 55.1°F12.8°C 53.4°F11.9°C 94% Calm Calm -- 30.07 in1018.3 mb 0.00 in0.0 mm 0.00 in/hr0.0 mm/hr 0.05 in1.3 mm
09:12 PM 55.2°F12.9°C 53.5°F11.9°C 94% Calm Calm -- 30.07 in1018.3 mb 0.00 in0.0 mm 0.00 in/hr0.0 mm/hr 0.05 in1.3 mm
09:11 PM 55.2°F12.9°C 53.5°F11.9°C 94% Calm Calm -- 30.07 in1018.3 mb 0.00 in0.0 mm 0.00 in/hr0.0 mm/hr 0.05 in1.3 mm
09:10 PM 55.3°F12.9°C 53.6°F12.0°C 94% Calm Calm -- 30.07 in1018.3 mb 0.00 in0.0 mm 0.00 in/hr0.0 mm/hr 0.05 in1.3 mm
09:09 PM 55.3°F12.9°C 53.6°F12.0°C 94% Calm Calm -- 30.07 in1018.3 mb 0.00 in0.0 mm 0.00 in/hr0.0 mm/hr 0.05 in1.3 mm
09:08 PM 55.4°F13.0°C 53.7°F12.1°C 94% Calm Calm -- 30.07 in1018.3 mb 0.00 in0.0 mm 0.00 in/hr0.0 mm/hr 0.05 in1.3 mm
09:07 PM 55.4°F13.0°C 53.7°F12.1°C 94% Calm Calm -- 30.07 in1018.3 mb 0.00 in0.0 mm 0.00 in/hr0.0 mm/hr 0.05 in1.3 mm
09:06 PM 55.5°F13.1°C 53.8°F12.1°C 94% Calm Calm -- 30.06 in1017.9 mb 0.00 in0.0 mm 0.00 in/hr0.0 mm/hr 0.05 in1.3 mm
09:05 PM 55.5°F13.1°C 53.8°F12.1°C 94% Calm Calm -- 30.06 in1017.9 mb 0.00 in0.0 mm 0.00 in/hr0.0 mm/hr 0.05 in1.3 mm
09:04 PM 55.6°F13.1°C 53.9°F12.2°C 94% Calm Calm -- 30.07 in1018.3 mb 0.00 in0.0 mm 0.00 in/hr0.0 mm/hr 0.05 in1.3 mm
09:03 PM 55.7°F13.2°C 54.0°F12.2°C 94% Calm Calm -- 30.06 in1017.9 mb 0.00 in0.0 mm 0.00 in/hr0.0 mm/hr 0.05 in1.3 mm
09:02 PM 55.8°F13.2°C 54.1°F12.3°C 94% Calm Calm -- 30.06 in1017.9 mb 0.00 in0.0 mm 0.00 in/hr0.0 mm/hr 0.05 in1.3 mm
09:01 PM 55.8°F13.2°C 54.1°F12.3°C 94% Calm Calm -- 30.07 in1018.3 mb 0.00 in0.0 mm 0.00 in/hr0.0 mm/hr 0.05 in1.3 mm
09:00 PM 55.9°F13.3°C 53.9°F12.2°C 93% Calm Calm -- 30.07 in1018.3 mb 0.00 in0.0 mm 0.00 in/hr0.0 mm/hr 0.05 in1.3 mm
08:59 PM 55.9°F13.3°C 53.9°F12.2°C 93% Calm Calm -- 30.07 in1018.3 mb 0.00 in0.0 mm 0.00 in/hr0.0 mm/hr 0.05 in1.3 mm
08:58 PM 56.0°F13.3°C 54.0°F12.2°C 93% Calm Calm -- 30.06 in1017.9 mb 0.00 in0.0 mm 0.00 in/hr0.0 mm/hr 0.05 in1.3 mm
08:57 PM 56.1°F13.4°C 54.1°F12.3°C 93% Calm Calm -- 30.06 in1017.9 mb 0.00 in0.0 mm 0.00 in/hr0.0 mm/hr 0.05 in1.3 mm
08:56 PM 56.2°F13.4°C 54.2°F12.3°C 93% Calm Calm -- 30.07 in1018.3 mb 0.00 in0.0 mm 0.00 in/hr0.0 mm/hr 0.05 in1.3 mm
08:55 PM 56.2°F13.4°C 54.2°F12.3°C 93% Calm Calm -- 30.07 in1018.3 mb 0.00 in0.0 mm 0.00 in/hr0.0 mm/hr 0.05 in1.3 mm
08:54 PM 56.3°F13.5°C 54.0°F12.2°C 92% Calm Calm -- 30.07 in1018.3 mb 0.00 in0.0 mm 0.00 in/hr0.0 mm/hr 0.05 in1.3 mm
08:53 PM 56.4°F13.6°C 54.1°F12.3°C 92% Calm Calm -- 30.07 in1018.3 mb 0.00 in0.0 mm 0.00 in/hr0.0 mm/hr 0.05 in1.3 mm
08:52 PM 56.4°F13.6°C 54.1°F12.3°C 92% Calm Calm -- 30.06 in1017.9 mb 0.00 in0.0 mm 0.00 in/hr0.0 mm/hr 0.05 in1.3 mm
08:51 PM 56.5°F13.6°C 54.2°F12.3°C 92% Calm Calm -- 30.07 in1018.3 mb 0.00 in0.0 mm 0.00 in/hr0.0 mm/hr 0.05 in1.3 mm
08:50 PM 56.6°F13.7°C 54.0°F12.2°C 91% Calm Calm -- 30.06 in1017.9 mb 0.00 in0.0 mm 0.00 in/hr0.0 mm/hr 0.05 in1.3 mm
08:49 PM 56.7°F13.7°C 54.1°F12.3°C 91% Calm Calm -- 30.06 in1017.9 mb 0.00 in0.0 mm 0.00 in/hr0.0 mm/hr 0.05 in1.3 mm
08:48 PM 56.8°F13.8°C 54.2°F12.3°C 91% Calm Calm -- 30.06 in1017.9 mb 0.00 in0.0 mm 0.00 in/hr0.0 mm/hr 0.05 in1.3 mm
08:47 PM 56.9°F13.8°C 54.3°F12.4°C 91% Calm Calm -- 30.06 in1017.9 mb 0.00 in0.0 mm 0.00 in/hr0.0 mm/hr 0.05 in1.3 mm
08:46 PM 57.0°F13.9°C 54.1°F12.3°C 90% Calm Calm -- 30.06 in1017.9 mb 0.00 in0.0 mm 0.00 in/hr0.0 mm/hr 0.05 in1.3 mm
08:45 PM 57.1°F13.9°C 54.2°F12.3°C 90% Calm Calm -- 30.06 in1017.9 mb 0.00 in0.0 mm 0.00 in/hr0.0 mm/hr 0.05 in1.3 mm
08:44 PM 57.3°F14.1°C 54.4°F12.4°C 90% Calm Calm -- 30.06 in1017.9 mb 0.00 in0.0 mm 0.00 in/hr0.0 mm/hr 0.05 in1.3 mm
08:43 PM 57.4°F14.1°C 54.5°F12.5°C 90% Calm Calm -- 30.06 in1017.9 mb 0.00 in0.0 mm 0.00 in/hr0.0 mm/hr 0.05 in1.3 mm
08:42 PM 57.5°F14.2°C 54.3°F12.4°C 89% Calm Calm -- 30.06 in1017.9 mb 0.00 in0.0 mm 0.00 in/hr0.0 mm/hr 0.05 in1.3 mm
08:41 PM 57.6°F14.2°C 54.4°F12.4°C 89% Calm Calm -- 30.06 in1017.9 mb 0.00 in0.0 mm 0.00 in/hr0.0 mm/hr 0.05 in1.3 mm
08:40 PM 57.7°F14.3°C 54.5°F12.5°C 89% Calm Calm -- 30.06 in1017.9 mb 0.00 in0.0 mm 0.00 in/hr0.0 mm/hr 0.05 in1.3 mm
08:39 PM 57.8°F14.3°C 54.6°F12.6°C 89% Calm Calm -- 30.06 in1017.9 mb 0.00 in0.0 mm 0.00 in/hr0.0 mm/hr 0.05 in1.3 mm
08:38 PM 57.9°F14.4°C 54.7°F12.6°C 89% Calm Calm -- 30.06 in1017.9 mb 0.00 in0.0 mm 0.00 in/hr0.0 mm/hr 0.05 in1.3 mm
08:37 PM 57.9°F14.4°C 54.7°F12.6°C 89% Calm Calm -- 30.06 in1017.9 mb 0.00 in0.0 mm 0.00 in/hr0.0 mm/hr 0.05 in1.3 mm
08:36 PM 58.0°F14.4°C 54.8°F12.7°C 89% Calm Calm -- 30.06 in1017.9 mb 0.00 in0.0 mm 0.00 in/hr0.0 mm/hr 0.05 in1.3 mm
08:35 PM 58.0°F14.4°C 54.5°F12.5°C 88% Calm Calm -- 30.06 in1017.9 mb 0.00 in0.0 mm 0.00 in/hr0.0 mm/hr 0.05 in1.3 mm
08:34 PM 58.1°F14.5°C 54.6°F12.6°C 88% Calm Calm -- 30.06 in1017.9 mb 0.00 in0.0 mm 0.00 in/hr0.0 mm/hr 0.05 in1.3 mm
08:33 PM 58.2°F14.6°C 54.3°F12.4°C 87% Calm Calm -- 30.06 in1017.9 mb 0.00 in0.0 mm 0.00 in/hr0.0 mm/hr 0.05 in1.3 mm
08:32 PM 58.3°F14.6°C 54.4°F12.4°C 87% Calm Calm -- 30.06 in1017.9 mb 0.00 in0.0 mm 0.00 in/hr0.0 mm/hr 0.05 in1.3 mm
08:31 PM 58.4°F14.7°C 54.2°F12.3°C 86% Calm Calm -- 30.06 in1017.9 mb 0.00 in0.0 mm 0.00 in/hr0.0 mm/hr 0.05 in1.3 mm
08:30 PM 58.6°F14.8°C 54.4°F12.4°C 86% Calm Calm -- 30.06 in1017.9 mb 0.00 in0.0 mm 0.00 in/hr0.0 mm/hr 0.05 in1.3 mm
08:29 PM 58.8°F14.9°C 54.6°F12.6°C 86% Calm Calm -- 30.06 in1017.9 mb 0.00 in0.0 mm 0.00 in/hr0.0 mm/hr 0.05 in1.3 mm
08:28 PM 59.0°F15.0°C 54.5°F12.5°C 85% Calm Calm -- 30.06 in1017.9 mb 0.00 in0.0 mm 0.00 in/hr0.0 mm/hr 0.05 in1.3 mm
08:27 PM 59.1°F15.1°C 54.6°F12.6°C 85% Calm Calm -- 30.06 in1017.9 mb 0.00 in0.0 mm 0.00 in/hr0.0 mm/hr 0.05 in1.3 mm
08:26 PM 59.3°F15.2°C 54.8°F12.7°C 85% Calm Calm -- 30.06 in1017.9 mb 0.00 in0.0 mm 0.00 in/hr0.0 mm/hr 0.05 in1.3 mm
08:25 PM 59.3°F15.2°C 54.5°F12.5°C 84% Calm Calm -- 30.06 in1017.9 mb 0.00 in0.0 mm 0.00 in/hr0.0 mm/hr 0.05 in1.3 mm
08:24 PM 59.4°F15.2°C 54.6°F12.6°C 84% Calm Calm -- 30.06 in1017.9 mb 0.00 in0.0 mm 0.00 in/hr0.0 mm/hr 0.05 in1.3 mm
08:23 PM 59.6°F15.3°C 54.8°F12.7°C 84% Calm Calm -- 30.06 in1017.9 mb 0.00 in0.0 mm 0.00 in/hr0.0 mm/hr 0.05 in1.3 mm
08:22 PM 59.7°F15.4°C 54.5°F12.5°C 83% Calm Calm -- 30.06 in1017.9 mb 0.00 in0.0 mm 0.00 in/hr0.0 mm/hr 0.05 in1.3 mm
08:21 PM 59.8°F15.4°C 54.6°F12.6°C 83% Calm Calm -- 30.06 in1017.9 mb 0.00 in0.0 mm 0.00 in/hr0.0 mm/hr 0.05 in1.3 mm
08:20 PM 59.9°F15.5°C 54.7°F12.6°C 83% Calm Calm -- 30.06 in1017.9 mb 0.00 in0.0 mm 0.00 in/hr0.0 mm/hr 0.05 in1.3 mm
08:19 PM 60.1°F15.6°C 54.9°F12.7°C 83% Calm Calm -- 30.06 in1017.9 mb 0.00 in0.0 mm 0.00 in/hr0.0 mm/hr 0.05 in1.3 mm
08:18 PM 60.2°F15.7°C 54.7°F12.6°C 82% Calm Calm -- 30.06 in1017.9 mb 0.00 in0.0 mm 0.00 in/hr0.0 mm/hr 0.05 in1.3 mm
08:17 PM 60.3°F15.7°C 54.8°F12.7°C 82% Calm Calm -- 30.05 in1017.6 mb 0.00 in0.0 mm 0.00 in/hr0.0 mm/hr 0.05 in1.3 mm
08:16 PM 60.4°F15.8°C 54.5°F12.5°C 81% Calm Calm -- 30.06 in1017.9 mb 0.00 in0.0 mm 0.00 in/hr0.0 mm/hr 0.05 in1.3 mm
08:15 PM 60.6°F15.9°C 54.7°F12.6°C 81% Calm Calm -- 30.05 in1017.6 mb 0.00 in0.0 mm 0.00 in/hr0.0 mm/hr 0.05 in1.3 mm
08:14 PM 60.7°F15.9°C 54.8°F12.7°C 81% Calm Calm -- 30.05 in1017.6 mb 0.00 in0.0 mm 0.00 in/hr0.0 mm/hr 0.05 in1.3 mm
08:13 PM 60.9°F16.1°C 55.0°F12.8°C 81% Calm Calm -- 30.06 in1017.9 mb 0.00 in0.0 mm 0.00 in/hr0.0 mm/hr 0.05 in1.3 mm
08:12 PM 61.0°F16.1°C 54.8°F12.7°C 80% Calm Calm -- 30.05 in1017.6 mb 0.00 in0.0 mm 0.00 in/hr0.0 mm/hr 0.05 in1.3 mm
08:11 PM 61.2°F16.2°C 54.6°F12.6°C 79% Calm Calm -- 30.05 in1017.6 mb 0.00 in0.0 mm 0.00 in/hr0.0 mm/hr 0.05 in1.3 mm
08:10 PM 61.3°F16.3°C 54.7°F12.6°C 79% Calm Calm -- 30.05 in1017.6 mb 0.00 in0.0 mm 0.00 in/hr0.0 mm/hr 0.05 in1.3 mm
08:09 PM 61.5°F16.4°C 54.9°F12.7°C 79% Calm Calm -- 30.05 in1017.6 mb 0.00 in0.0 mm 0.00 in/hr0.0 mm/hr 0.05 in1.3 mm
08:08 PM 61.6°F16.4°C 55.0°F12.8°C 79% Calm Calm -- 30.05 in1017.6 mb 0.00 in0.0 mm 0.00 in/hr0.0 mm/hr 0.05 in1.3 mm
08:07 PM 61.8°F16.6°C 54.9°F12.7°C 78% Calm Calm -- 30.05 in1017.6 mb 0.00 in0.0 mm 0.00 in/hr0.0 mm/hr 0.05 in1.3 mm
08:06 PM 61.9°F16.6°C 55.3°F12.9°C 79% Calm Calm -- 30.06 in1017.9 mb 0.00 in0.0 mm 0.00 in/hr0.0 mm/hr 0.05 in1.3 mm
08:05 PM 62.0°F16.7°C 55.4°F13.0°C 79% Calm Calm -- 30.06 in1017.9 mb 0.00 in0.0 mm 0.00 in/hr0.0 mm/hr 0.05 in1.3 mm
08:04 PM 62.1°F16.7°C 55.5°F13.1°C 79% Calm Calm -- 30.05 in1017.6 mb 0.00 in0.0 mm 0.00 in/hr0.0 mm/hr 0.05 in1.3 mm
08:03 PM 62.2°F16.8°C 55.6°F13.1°C 79% Calm Calm -- 30.05 in1017.6 mb 0.00 in0.0 mm 0.00 in/hr0.0 mm/hr 0.05 in1.3 mm
08:02 PM 62.2°F16.8°C 55.3°F12.9°C 78% Calm Calm -- 30.05 in1017.6 mb 0.00 in0.0 mm 0.00 in/hr0.0 mm/hr 0.05 in1.3 mm
08:01 PM 62.2°F16.8°C 55.6°F13.1°C 79% Calm Calm -- 30.05 in1017.6 mb 0.00 in0.0 mm 0.00 in/hr0.0 mm/hr 0.05 in1.3 mm
08:00 PM 62.3°F16.8°C 55.4°F13.0°C 78% Calm Calm -- 30.06 in1017.9 mb 0.00 in0.0 mm 0.00 in/hr0.0 mm/hr 0.05 in1.3 mm
07:59 PM 62.4°F16.9°C 55.4°F13.0°C 78% Calm Calm -- 30.05 in1017.6 mb 0.00 in0.0 mm 0.00 in/hr0.0 mm/hr 0.05 in1.3 mm
07:58 PM 62.5°F16.9°C 55.2°F12.9°C 77% Calm Calm -- 30.06 in1017.9 mb 0.00 in0.0 mm 0.00 in/hr0.0 mm/hr 0.05 in1.3 mm
07:57 PM 62.5°F16.9°C 55.2°F12.9°C 77% Calm Calm -- 30.05 in1017.6 mb 0.00 in0.0 mm 0.00 in/hr0.0 mm/hr 0.05 in1.3 mm
07:56 PM 62.6°F17.0°C 54.9°F12.7°C 76% Calm Calm -- 30.05 in1017.6 mb 0.00 in0.0 mm 0.00 in/hr0.0 mm/hr 0.05 in1.3 mm
07:55 PM 62.7°F17.1°C 55.0°F12.8°C 76% Calm Calm -- 30.05 in1017.6 mb 0.00 in0.0 mm 0.00 in/hr0.0 mm/hr 0.05 in1.3 mm
07:54 PM 62.8°F17.1°C 55.1°F12.8°C 76% Calm Calm -- 30.05 in1017.6 mb 0.00 in0.0 mm 0.00 in/hr0.0 mm/hr 0.05 in1.3 mm
07:53 PM 63.0°F17.2°C 55.3°F12.9°C 76% Calm Calm -- 30.05 in1017.6 mb 0.00 in0.0 mm 0.00 in/hr0.0 mm/hr 0.05 in1.3 mm
07:52 PM 63.2°F17.3°C 54.8°F12.7°C 74% Calm Calm -- 30.05 in1017.6 mb 0.00 in0.0 mm 0.00 in/hr0.0 mm/hr 0.05 in1.3 mm
07:51 PM 63.3°F17.4°C 54.9°F12.7°C 74% Calm Calm -- 30.05 in1017.6 mb 0.00 in0.0 mm 0.00 in/hr0.0 mm/hr 0.05 in1.3 mm
07:50 PM 63.5°F17.5°C 55.1°F12.8°C 74% Calm Calm -- 30.05 in1017.6 mb 0.00 in0.0 mm 0.00 in/hr0.0 mm/hr 0.05 in1.3 mm
07:49 PM 63.7°F17.6°C 54.9°F12.7°C 73% Calm Calm -- 30.05 in1017.6 mb 0.00 in0.0 mm 0.00 in/hr0.0 mm/hr 0.05 in1.3 mm
07:48 PM 63.8°F17.7°C 55.0°F12.8°C 73% Calm Calm -- 30.05 in1017.6 mb 0.00 in0.0 mm 0.00 in/hr0.0 mm/hr 0.05 in1.3 mm
07:47 PM 63.9°F17.7°C 55.1°F12.8°C 73% 1.0 mph 1.6 kmh -- 30.05 in1017.6 mb 0.00 in0.0 mm 0.00 in/hr0.0 mm/hr 0.05 in1.3 mm
07:46 PM 64.0°F17.8°C 55.5°F13.1°C 74% 1.0 mph 1.6 kmh -- 30.05 in1017.6 mb 0.00 in0.0 mm 0.00 in/hr0.0 mm/hr 0.05 in1.3 mm
07:45 PM 64.0°F17.8°C 55.5°F13.1°C 74% 1.0 mph WSW1.6 kmh WSW 1.0 mph1.6 kmh 30.05 in1017.6 mb 0.00 in0.0 mm 0.00 in/hr0.0 mm/hr 0.05 in1.3 mm
07:44 PM 64.0°F17.8°C 55.9°F13.3°C 75% 1.0 mph SW1.6 kmh SW 2.0 mph3.2 kmh 30.05 in1017.6 mb 0.00 in0.0 mm 0.00 in/hr0.0 mm/hr 0.05 in1.3 mm
07:43 PM 63.9°F17.7°C 56.2°F13.4°C 76% 1.0 mph SW1.6 kmh SW 2.0 mph3.2 kmh 30.05 in1017.6 mb 0.00 in0.0 mm 0.00 in/hr0.0 mm/hr 0.05 in1.3 mm
07:42 PM 63.8°F17.7°C 56.1°F13.4°C 76% 1.0 mph SW1.6 kmh SW 4.0 mph6.4 kmh 30.05 in1017.6 mb 0.00 in0.0 mm 0.00 in/hr0.0 mm/hr 0.05 in1.3 mm
07:41 PM 63.8°F17.7°C 55.4°F13.0°C 74% 1.0 mph SW1.6 kmh SW 4.0 mph6.4 kmh 30.05 in1017.6 mb 0.00 in0.0 mm 0.00 in/hr0.0 mm/hr 0.05 in1.3 mm
07:40 PM 63.7°F17.6°C 55.3°F12.9°C 74% 1.0 mph SW1.6 kmh SW 4.0 mph6.4 kmh 30.05 in1017.6 mb 0.00 in0.0 mm 0.00 in/hr0.0 mm/hr 0.05 in1.3 mm
07:39 PM 63.7°F17.6°C 55.3°F12.9°C 74% 1.0 mph SW1.6 kmh SW 4.0 mph6.4 kmh 30.05 in1017.6 mb 0.00 in0.0 mm 0.00 in/hr0.0 mm/hr 0.05 in1.3 mm
07:38 PM 63.7°F17.6°C 54.5°F12.5°C 72% 1.0 mph SW1.6 kmh SW 4.0 mph6.4 kmh 30.05 in1017.6 mb 0.00 in0.0 mm 0.00 in/hr0.0 mm/hr 0.05 in1.3 mm
07:37 PM 63.7°F17.6°C 54.1°F12.3°C 71% 1.0 mph SW1.6 kmh SW 4.0 mph6.4 kmh 30.05 in1017.6 mb 0.00 in0.0 mm 0.00 in/hr0.0 mm/hr 0.05 in1.3 mm
07:36 PM 63.8°F17.7°C 55.0°F12.8°C 73% Calm Calm 4.0 mph6.4 kmh 30.05 in1017.6 mb 0.00 in0.0 mm 0.00 in/hr0.0 mm/hr 0.05 in1.3 mm
07:35 PM 63.9°F17.7°C 53.9°F12.2°C 70% Calm Calm 4.0 mph6.4 kmh 30.05 in1017.6 mb 0.00 in0.0 mm 0.00 in/hr0.0 mm/hr 0.05 in1.3 mm
07:34 PM 64.0°F17.8°C 53.6°F12.0°C 69% Calm Calm 4.0 mph6.4 kmh 30.05 in1017.6 mb 0.00 in0.0 mm 0.00 in/hr0.0 mm/hr 0.05 in1.3 mm
07:33 PM 64.0°F17.8°C 54.0°F12.2°C 70% Calm Calm 4.0 mph6.4 kmh 30.05 in1017.6 mb 0.00 in0.0 mm 0.00 in/hr0.0 mm/hr 0.05 in1.3 mm
07:32 PM 64.2°F17.9°C 54.6°F12.6°C 71% Calm Calm 2.0 mph3.2 kmh 30.05 in1017.6 mb 0.00 in0.0 mm 0.00 in/hr0.0 mm/hr 0.05 in1.3 mm
07:31 PM 64.2°F17.9°C 54.6°F12.6°C 71% Calm Calm 2.0 mph3.2 kmh 30.05 in1017.6 mb 0.00 in0.0 mm 0.00 in/hr0.0 mm/hr 0.05 in1.3 mm
07:30 PM 64.2°F17.9°C 55.0°F12.8°C 72% Calm Calm 1.0 mph1.6 kmh 30.05 in1017.6 mb 0.00 in0.0 mm 0.00 in/hr0.0 mm/hr 0.05 in1.3 mm
07:29 PM 64.2°F17.9°C 54.2°F12.3°C 70% Calm Calm 1.0 mph1.6 kmh 30.05 in1017.6 mb 0.00 in0.0 mm 0.00 in/hr0.0 mm/hr 0.05 in1.3 mm
07:28 PM 64.2°F17.9°C 55.0°F12.8°C 72% Calm Calm 1.0 mph1.6 kmh 30.05 in1017.6 mb 0.00 in0.0 mm 0.00 in/hr0.0 mm/hr 0.05 in1.3 mm
07:27 PM 64.3°F17.9°C 55.5°F13.1°C 73% Calm Calm 1.0 mph1.6 kmh 30.05 in1017.6 mb 0.00 in0.0 mm 0.00 in/hr0.0 mm/hr 0.05 in1.3 mm
07:26 PM 64.3°F17.9°C 54.7°F12.6°C 71% Calm Calm 1.0 mph1.6 kmh 30.05 in1017.6 mb 0.00 in0.0 mm 0.00 in/hr0.0 mm/hr 0.05 in1.3 mm
07:25 PM 64.4°F18.0°C 54.8°F12.7°C 71% Calm Calm 1.0 mph1.6 kmh 30.05 in1017.6 mb 0.00 in0.0 mm 0.00 in/hr0.0 mm/hr 0.05 in1.3 mm
07:24 PM 64.5°F18.1°C 54.9°F12.7°C 71% Calm Calm -- 30.05 in1017.6 mb 0.00 in0.0 mm 0.00 in/hr0.0 mm/hr 0.05 in1.3 mm
07:23 PM 64.5°F18.1°C 54.9°F12.7°C 71% Calm Calm -- 30.05 in1017.6 mb 0.00 in0.0 mm 0.00 in/hr0.0 mm/hr 0.05 in1.3 mm
07:22 PM 64.6°F18.1°C 56.5°F13.6°C 75% Calm Calm -- 30.05 in1017.6 mb 0.00 in0.0 mm 0.00 in/hr0.0 mm/hr 0.05 in1.3 mm
07:21 PM 64.7°F18.2°C 56.6°F13.7°C 75% Calm Calm -- 30.05 in1017.6 mb 0.00 in0.0 mm 0.00 in/hr0.0 mm/hr 0.05 in1.3 mm
07:20 PM 64.8°F18.2°C 57.1°F13.9°C 76% Calm Calm -- 30.05 in1017.6 mb 0.00 in0.0 mm 0.00 in/hr0.0 mm/hr 0.05 in1.3 mm
07:19 PM 64.7°F18.2°C 56.2°F13.4°C 74% Calm Calm -- 30.05 in1017.6 mb 0.00 in0.0 mm 0.00 in/hr0.0 mm/hr 0.05 in1.3 mm
07:18 PM 64.5°F18.1°C 55.7°F13.2°C 73% Calm Calm -- 30.05 in1017.6 mb 0.00 in0.0 mm 0.00 in/hr0.0 mm/hr 0.05 in1.3 mm
07:17 PM 64.3°F17.9°C 55.5°F13.1°C 73% Calm Calm -- 30.05 in1017.6 mb 0.00 in0.0 mm 0.00 in/hr0.0 mm/hr 0.05 in1.3 mm
07:16 PM 64.1°F17.8°C 56.0°F13.3°C 75% Calm Calm -- 30.05 in1017.6 mb 0.00 in0.0 mm 0.00 in/hr0.0 mm/hr 0.05 in1.3 mm
07:15 PM 64.0°F17.8°C 56.3°F13.5°C 76% Calm Calm -- 30.05 in1017.6 mb 0.00 in0.0 mm 0.00 in/hr0.0 mm/hr 0.05 in1.3 mm
07:14 PM 63.8°F17.7°C 56.1°F13.4°C 76% Calm Calm -- 30.05 in1017.6 mb 0.00 in0.0 mm 0.00 in/hr0.0 mm/hr 0.05 in1.3 mm
07:13 PM 63.7°F17.6°C 56.7°F13.7°C 78% Calm Calm -- 30.05 in1017.6 mb 0.00 in0.0 mm 0.00 in/hr0.0 mm/hr 0.05 in1.3 mm
07:12 PM 63.6°F17.6°C 56.6°F13.7°C 78% Calm Calm -- 30.05 in1017.6 mb 0.00 in0.0 mm 0.00 in/hr0.0 mm/hr 0.05 in1.3 mm
07:11 PM 63.5°F17.5°C 56.5°F13.6°C 78% Calm Calm -- 30.05 in1017.6 mb 0.00 in0.0 mm 0.00 in/hr0.0 mm/hr 0.05 in1.3 mm
07:10 PM 63.5°F17.5°C 55.8°F13.2°C 76% Calm Calm 1.0 mph1.6 kmh 30.05 in1017.6 mb 0.00 in0.0 mm 0.00 in/hr0.0 mm/hr 0.05 in1.3 mm
07:09 PM 63.5°F17.5°C 55.8°F13.2°C 76% Calm Calm 1.0 mph1.6 kmh 30.05 in1017.6 mb 0.00 in0.0 mm 0.00 in/hr0.0 mm/hr 0.05 in1.3 mm
07:08 PM 63.5°F17.5°C 55.4°F13.0°C 75% Calm Calm 1.0 mph1.6 kmh 30.05 in1017.6 mb 0.00 in0.0 mm 0.00 in/hr0.0 mm/hr 0.05 in1.3 mm
07:07 PM 63.5°F17.5°C 55.4°F13.0°C 75% Calm Calm 1.0 mph1.6 kmh 30.05 in1017.6 mb 0.00 in0.0 mm 0.00 in/hr0.0 mm/hr 0.05 in1.3 mm
07:06 PM 63.5°F17.5°C 55.1°F12.8°C 74% Calm Calm 1.0 mph1.6 kmh 30.05 in1017.6 mb 0.00 in0.0 mm 0.00 in/hr0.0 mm/hr 0.05 in1.3 mm
07:05 PM 63.5°F17.5°C 54.7°F12.6°C 73% Calm Calm 1.0 mph1.6 kmh 30.05 in1017.6 mb 0.00 in0.0 mm 0.00 in/hr0.0 mm/hr 0.05 in1.3 mm
07:04 PM 63.7°F17.6°C 55.3°F12.9°C 74% Calm Calm 1.0 mph1.6 kmh 30.05 in1017.6 mb 0.00 in0.0 mm 0.00 in/hr0.0 mm/hr 0.05 in1.3 mm
07:03 PM 63.8°F17.7°C 55.4°F13.0°C 74% 1.0 mph SW1.6 kmh SW 1.0 mph1.6 kmh 30.05 in1017.6 mb 0.00 in0.0 mm 0.00 in/hr0.0 mm/hr 0.05 in1.3 mm
07:02 PM 63.9°F17.7°C 55.4°F13.0°C 74% 1.0 mph SW1.6 kmh SW 1.0 mph1.6 kmh 30.05 in1017.6 mb 0.00 in0.0 mm 0.00 in/hr0.0 mm/hr 0.05 in1.3 mm
07:01 PM 64.0°F17.8°C 55.5°F13.1°C 74% 1.0 mph SW1.6 kmh SW 2.0 mph3.2 kmh 30.05 in1017.6 mb 0.00 in0.0 mm 0.00 in/hr0.0 mm/hr 0.05 in1.3 mm
07:00 PM 64.1°F17.8°C 55.6°F13.1°C 74% 1.0 mph SW1.6 kmh SW 3.0 mph4.8 kmh 30.05 in1017.6 mb 0.00 in0.0 mm 0.00 in/hr0.0 mm/hr 0.05 in1.3 mm
06:59 PM 64.1°F17.8°C 55.3°F12.9°C 73% 1.0 mph SW1.6 kmh SW 3.0 mph4.8 kmh 30.05 in1017.6 mb 0.00 in0.0 mm 0.00 in/hr0.0 mm/hr 0.05 in1.3 mm
06:58 PM 64.2°F17.9°C 55.0°F12.8°C 72% 1.0 mph WSW1.6 kmh WSW 3.0 mph4.8 kmh 30.05 in1017.6 mb 0.00 in0.0 mm 0.00 in/hr0.0 mm/hr 0.05 in1.3 mm
06:57 PM 64.2°F17.9°C 55.4°F13.0°C 73% 2.0 mph SW3.2 kmh SW 3.0 mph4.8 kmh 30.05 in1017.6 mb 0.00 in0.0 mm 0.00 in/hr0.0 mm/hr 0.05 in1.3 mm
06:56 PM 64.2°F17.9°C 54.2°F12.3°C 70% 2.0 mph SW3.2 kmh SW 3.0 mph4.8 kmh 30.05 in1017.6 mb 0.00 in0.0 mm 0.00 in/hr0.0 mm/hr 0.05 in1.3 mm
06:55 PM 64.2°F17.9°C 55.4°F13.0°C 73% 2.0 mph SW3.2 kmh SW 3.0 mph4.8 kmh 30.05 in1017.6 mb 0.00 in0.0 mm 0.00 in/hr0.0 mm/hr 0.05 in1.3 mm
06:54 PM 64.2°F17.9°C 55.0°F12.8°C 72% 2.0 mph SW3.2 kmh SW 3.0 mph4.8 kmh 30.05 in1017.6 mb 0.00 in0.0 mm 0.00 in/hr0.0 mm/hr 0.05 in1.3 mm
06:53 PM 64.2°F17.9°C 53.4°F11.9°C 68% 2.0 mph SW3.2 kmh SW 3.0 mph4.8 kmh 30.05 in1017.6 mb 0.00 in0.0 mm 0.00 in/hr0.0 mm/hr 0.05 in1.3 mm
06:52 PM 64.3°F17.9°C 53.5°F11.9°C 68% 2.0 mph SW3.2 kmh SW 3.0 mph4.8 kmh 30.05 in1017.6 mb 0.00 in0.0 mm 0.00 in/hr0.0 mm/hr 0.05 in1.3 mm
06:51 PM 64.3°F17.9°C 53.5°F11.9°C 68% 2.0 mph SW3.2 kmh SW 4.0 mph6.4 kmh 30.05 in1017.6 mb 0.00 in0.0 mm 0.00 in/hr0.0 mm/hr 0.05 in1.3 mm
06:50 PM 64.4°F18.0°C 54.8°F12.7°C 71% 2.0 mph SW3.2 kmh SW 4.0 mph6.4 kmh 30.05 in1017.6 mb 0.00 in0.0 mm 0.00 in/hr0.0 mm/hr 0.05 in1.3 mm
06:49 PM 64.5°F18.1°C 53.7°F12.1°C 68% 2.0 mph SW3.2 kmh SW 4.0 mph6.4 kmh 30.05 in1017.6 mb 0.00 in0.0 mm 0.00 in/hr0.0 mm/hr 0.05 in1.3 mm
06:48 PM 64.6°F18.1°C 54.2°F12.3°C 69% 2.0 mph SW3.2 kmh SW 4.0 mph6.4 kmh 30.05 in1017.6 mb 0.00 in0.0 mm 0.00 in/hr0.0 mm/hr 0.05 in1.3 mm
06:47 PM 64.6°F18.1°C 53.8°F12.1°C 68% 2.0 mph SW3.2 kmh SW 6.0 mph9.7 kmh 30.05 in1017.6 mb 0.00 in0.0 mm 0.00 in/hr0.0 mm/hr 0.05 in1.3 mm
06:46 PM 64.7°F18.2°C 54.3°F12.4°C 69% 2.0 mph SW3.2 kmh SW 6.0 mph9.7 kmh 30.05 in1017.6 mb 0.00 in0.0 mm 0.00 in/hr0.0 mm/hr 0.05 in1.3 mm
06:45 PM 64.6°F18.1°C 53.8°F12.1°C 68% 2.0 mph SW3.2 kmh SW 6.0 mph9.7 kmh 30.05 in1017.6 mb 0.00 in0.0 mm 0.00 in/hr0.0 mm/hr 0.05 in1.3 mm
06:44 PM 64.7°F18.2°C 53.9°F12.2°C 68% 3.0 mph SW4.8 kmh SW 6.0 mph9.7 kmh 30.05 in1017.6 mb 0.00 in0.0 mm 0.00 in/hr0.0 mm/hr 0.05 in1.3 mm
06:43 PM 64.6°F18.1°C 53.4°F11.9°C 67% 3.0 mph SW4.8 kmh SW 6.0 mph9.7 kmh 30.05 in1017.6 mb 0.00 in0.0 mm 0.00 in/hr0.0 mm/hr 0.05 in1.3 mm
06:42 PM 64.7°F18.2°C 53.5°F11.9°C 67% 3.0 mph SW4.8 kmh SW 6.0 mph9.7 kmh 30.05 in1017.6 mb 0.00 in0.0 mm 0.00 in/hr0.0 mm/hr 0.05 in1.3 mm
06:41 PM 64.7°F18.2°C 53.5°F11.9°C 67% 3.0 mph SW4.8 kmh SW 6.0 mph9.7 kmh 30.05 in1017.6 mb 0.00 in0.0 mm 0.00 in/hr0.0 mm/hr 0.05 in1.3 mm
06:40 PM 64.7°F18.2°C 53.5°F11.9°C 67% 3.0 mph SW4.8 kmh SW 6.0 mph9.7 kmh 30.05 in1017.6 mb 0.00 in0.0 mm 0.00 in/hr0.0 mm/hr 0.05 in1.3 mm
06:39 PM 64.8°F18.2°C 53.6°F12.0°C 67% 3.0 mph SW4.8 kmh SW 6.0 mph9.7 kmh 30.05 in1017.6 mb 0.00 in0.0 mm 0.00 in/hr0.0 mm/hr 0.05 in1.3 mm
06:38 PM 64.8°F18.2°C 53.2°F11.8°C 66% 3.0 mph SW4.8 kmh SW 6.0 mph9.7 kmh 30.05 in1017.6 mb 0.00 in0.0 mm 0.00 in/hr0.0 mm/hr 0.05 in1.3 mm
06:37 PM 64.8°F18.2°C 54.4°F12.4°C 69% 4.0 mph SW6.4 kmh SW 6.0 mph9.7 kmh 30.05 in1017.6 mb 0.00 in0.0 mm 0.00 in/hr0.0 mm/hr 0.05 in1.3 mm
06:34 PM 64.7°F18.2°C 54.3°F12.4°C 69% 4.0 mph SW6.4 kmh SW 6.0 mph9.7 kmh 30.05 in1017.6 mb 0.00 in0.0 mm 0.00 in/hr0.0 mm/hr 0.05 in1.3 mm
06:33 PM 64.7°F18.2°C 53.9°F12.2°C 68% 4.0 mph SW6.4 kmh SW 6.0 mph9.7 kmh 30.05 in1017.6 mb 0.00 in0.0 mm 0.00 in/hr0.0 mm/hr 0.05 in1.3 mm
06:32 PM 64.6°F18.1°C 53.4°F11.9°C 67% 4.0 mph SW6.4 kmh SW 8.0 mph12.9 kmh 30.05 in1017.6 mb 0.00 in0.0 mm 0.00 in/hr0.0 mm/hr 0.05 in1.3 mm
06:31 PM 64.6°F18.1°C 53.8°F12.1°C 68% 4.0 mph SW6.4 kmh SW 8.0 mph12.9 kmh 30.05 in1017.6 mb 0.00 in0.0 mm 0.00 in/hr0.0 mm/hr 0.05 in1.3 mm
06:30 PM 64.6°F18.1°C 53.0°F11.7°C 66% 4.0 mph SW6.4 kmh SW 8.0 mph12.9 kmh 30.05 in1017.6 mb 0.00 in0.0 mm 0.00 in/hr0.0 mm/hr 0.05 in1.3 mm
06:29 PM 64.7°F18.2°C 53.5°F11.9°C 67% 3.0 mph SW4.8 kmh SW 8.0 mph12.9 kmh 30.05 in1017.6 mb 0.00 in0.0 mm 0.00 in/hr0.0 mm/hr 0.05 in1.3 mm
06:28 PM 64.7°F18.2°C 53.5°F11.9°C 67% 3.0 mph SW4.8 kmh SW 8.0 mph12.9 kmh 30.05 in1017.6 mb 0.00 in0.0 mm 0.00 in/hr0.0 mm/hr 0.05 in1.3 mm
06:27 PM 64.7°F18.2°C 53.5°F11.9°C 67% 3.0 mph SW4.8 kmh SW 8.0 mph12.9 kmh 30.05 in1017.6 mb 0.00 in0.0 mm 0.00 in/hr0.0 mm/hr 0.05 in1.3 mm
06:26 PM 64.7°F18.2°C 53.1°F11.7°C 66% 3.0 mph SW4.8 kmh SW 8.0 mph12.9 kmh 30.05 in1017.6 mb 0.00 in0.0 mm 0.00 in/hr0.0 mm/hr 0.05 in1.3 mm
06:25 PM 64.7°F18.2°C 53.5°F11.9°C 67% 2.0 mph SW3.2 kmh SW 8.0 mph12.9 kmh 30.05 in1017.6 mb 0.00 in0.0 mm 0.00 in/hr0.0 mm/hr 0.05 in1.3 mm
06:24 PM 64.7°F18.2°C 53.9°F12.2°C 68% 2.0 mph SW3.2 kmh SW 8.0 mph12.9 kmh 30.05 in1017.6 mb 0.00 in0.0 mm 0.00 in/hr0.0 mm/hr 0.05 in1.3 mm
06:23 PM 64.7°F18.2°C 53.1°F11.7°C 66% 2.0 mph SW3.2 kmh SW 8.0 mph12.9 kmh 30.05 in1017.6 mb 0.00 in0.0 mm 0.00 in/hr0.0 mm/hr 0.05 in1.3 mm
06:22 PM 64.7°F18.2°C 53.5°F11.9°C 67% 1.0 mph SW1.6 kmh SW 8.0 mph12.9 kmh 30.05 in1017.6 mb 0.00 in0.0 mm 0.00 in/hr0.0 mm/hr 0.05 in1.3 mm
06:21 PM 64.8°F18.2°C 53.2°F11.8°C 66% 1.0 mph SW1.6 kmh SW 8.0 mph12.9 kmh 30.05 in1017.6 mb 0.00 in0.0 mm 0.00 in/hr0.0 mm/hr 0.05 in1.3 mm
06:20 PM 64.9°F18.3°C 53.3°F11.8°C 66% 1.0 mph SW1.6 kmh SW 8.0 mph12.9 kmh 30.05 in1017.6 mb 0.00 in0.0 mm 0.00 in/hr0.0 mm/hr 0.05 in1.3 mm
06:19 PM 65.0°F18.3°C 52.9°F11.6°C 65% 1.0 mph SW1.6 kmh SW 5.0 mph8.0 kmh 30.05 in1017.6 mb 0.00 in0.0 mm 0.00 in/hr0.0 mm/hr 0.05 in1.3 mm
06:18 PM 65.1°F18.4°C 54.7°F12.6°C 69% 1.0 mph SW1.6 kmh SW 4.0 mph6.4 kmh 30.04 in1017.3 mb 0.00 in0.0 mm 0.00 in/hr0.0 mm/hr 0.05 in1.3 mm
06:17 PM 65.1°F18.4°C 53.9°F12.2°C 67% 1.0 mph SW1.6 kmh SW 4.0 mph6.4 kmh 30.04 in1017.3 mb 0.00 in0.0 mm 0.00 in/hr0.0 mm/hr 0.05 in1.3 mm
06:16 PM 65.1°F18.4°C 53.9°F12.2°C 67% 1.0 mph SW1.6 kmh SW 4.0 mph6.4 kmh 30.05 in1017.6 mb 0.00 in0.0 mm 0.00 in/hr0.0 mm/hr 0.05 in1.3 mm
06:15 PM 65.2°F18.4°C 53.6°F12.0°C 66% 1.0 mph SW1.6 kmh SW 4.0 mph6.4 kmh 30.05 in1017.6 mb 0.00 in0.0 mm 0.00 in/hr0.0 mm/hr 0.05 in1.3 mm
06:14 PM 65.2°F18.4°C 54.0°F12.2°C 67% 1.0 mph SW1.6 kmh SW 4.0 mph6.4 kmh 30.05 in1017.6 mb 0.00 in0.0 mm 0.00 in/hr0.0 mm/hr 0.05 in1.3 mm
06:13 PM 65.2°F18.4°C 54.4°F12.4°C 68% 2.0 mph SW3.2 kmh SW 4.0 mph6.4 kmh 30.05 in1017.6 mb 0.00 in0.0 mm 0.00 in/hr0.0 mm/hr 0.05 in1.3 mm
06:12 PM 65.2°F18.4°C 54.0°F12.2°C 67% 2.0 mph SW3.2 kmh SW 4.0 mph6.4 kmh 30.05 in1017.6 mb 0.00 in0.0 mm 0.00 in/hr0.0 mm/hr 0.05 in1.3 mm
06:11 PM 65.2°F18.4°C 54.4°F12.4°C 68% 2.0 mph SW3.2 kmh SW 4.0 mph6.4 kmh 30.05 in1017.6 mb 0.00 in0.0 mm 0.00 in/hr0.0 mm/hr 0.05 in1.3 mm
06:10 PM 65.2°F18.4°C 54.8°F12.7°C 69% 2.0 mph SW3.2 kmh SW 5.0 mph8.0 kmh 30.05 in1017.6 mb 0.00 in0.0 mm 0.00 in/hr0.0 mm/hr 0.05 in1.3 mm
06:09 PM 65.1°F18.4°C 54.7°F12.6°C 69% 2.0 mph SW3.2 kmh SW 6.0 mph9.7 kmh 30.05 in1017.6 mb 0.00 in0.0 mm 0.00 in/hr0.0 mm/hr 0.05 in1.3 mm
06:08 PM 64.9°F18.3°C 54.9°F12.7°C 70% 2.0 mph SW3.2 kmh SW 8.0 mph12.9 kmh 30.05 in1017.6 mb 0.00 in0.0 mm 0.00 in/hr0.0 mm/hr 0.05 in1.3 mm
06:07 PM 64.8°F18.2°C 54.0°F12.2°C 68% 2.0 mph SW3.2 kmh SW 8.0 mph12.9 kmh 30.05 in1017.6 mb 0.00 in0.0 mm 0.00 in/hr0.0 mm/hr 0.05 in1.3 mm
06:06 PM 64.7°F18.2°C 53.9°F12.2°C 68% 2.0 mph SW3.2 kmh SW 8.0 mph12.9 kmh 30.05 in1017.6 mb 0.00 in0.0 mm 0.00 in/hr0.0 mm/hr 0.05 in1.3 mm
06:05 PM 64.7°F18.2°C 53.9°F12.2°C 68% 2.0 mph SW3.2 kmh SW 8.0 mph12.9 kmh 30.05 in1017.6 mb 0.00 in0.0 mm 0.00 in/hr0.0 mm/hr 0.05 in1.3 mm
06:04 PM 64.6°F18.1°C 53.8°F12.1°C 68% 2.0 mph SW3.2 kmh SW 8.0 mph12.9 kmh 30.05 in1017.6 mb 0.00 in0.0 mm 0.00 in/hr0.0 mm/hr 0.05 in1.3 mm
06:03 PM 64.6°F18.1°C 53.8°F12.1°C 68% 2.0 mph SW3.2 kmh SW 8.0 mph12.9 kmh 30.05 in1017.6 mb 0.00 in0.0 mm 0.00 in/hr0.0 mm/hr 0.05 in1.3 mm
06:02 PM 64.7°F18.2°C 53.9°F12.2°C 68% 2.0 mph SW3.2 kmh SW 8.0 mph12.9 kmh 30.05 in1017.6 mb 0.00 in0.0 mm 0.00 in/hr0.0 mm/hr 0.05 in1.3 mm
06:01 PM 64.8°F18.2°C 54.0°F12.2°C 68% 2.0 mph SW3.2 kmh SW 8.0 mph12.9 kmh 30.05 in1017.6 mb 0.00 in0.0 mm 0.00 in/hr0.0 mm/hr 0.05 in1.3 mm
06:00 PM 65.0°F18.3°C 53.8°F12.1°C 67% 2.0 mph SW3.2 kmh SW 8.0 mph12.9 kmh 30.05 in1017.6 mb 0.00 in0.0 mm 0.00 in/hr0.0 mm/hr 0.05 in1.3 mm
05:59 PM 65.2°F18.4°C 53.6°F12.0°C 66% 1.0 mph SW1.6 kmh SW 8.0 mph12.9 kmh 30.05 in1017.6 mb 0.00 in0.0 mm 0.00 in/hr0.0 mm/hr 0.05 in1.3 mm
05:58 PM 65.3°F18.5°C 54.1°F12.3°C 67% 1.0 mph SW1.6 kmh SW 8.0 mph12.9 kmh 30.05 in1017.6 mb 0.00 in0.0 mm 0.00 in/hr0.0 mm/hr 0.05 in1.3 mm
05:57 PM 65.5°F18.6°C 54.2°F12.3°C 67% 1.0 mph SW1.6 kmh SW 6.0 mph9.7 kmh 30.05 in1017.6 mb 0.00 in0.0 mm 0.00 in/hr0.0 mm/hr 0.05 in1.3 mm
05:56 PM 65.6°F18.7°C 54.3°F12.4°C 67% 1.0 mph SW1.6 kmh SW 6.0 mph9.7 kmh 30.05 in1017.6 mb 0.00 in0.0 mm 0.00 in/hr0.0 mm/hr 0.05 in1.3 mm
05:55 PM 65.7°F18.7°C 54.4°F12.4°C 67% 1.0 mph SW1.6 kmh SW 6.0 mph9.7 kmh 30.05 in1017.6 mb 0.00 in0.0 mm 0.00 in/hr0.0 mm/hr 0.05 in1.3 mm
05:54 PM 65.6°F18.7°C 55.5°F13.1°C 70% 1.0 mph SW1.6 kmh SW 6.0 mph9.7 kmh 30.05 in1017.6 mb 0.00 in0.0 mm 0.00 in/hr0.0 mm/hr 0.05 in1.3 mm
05:53 PM 65.5°F18.6°C 54.2°F12.3°C 67% 1.0 mph SW1.6 kmh SW 6.0 mph9.7 kmh 30.05 in1017.6 mb 0.00 in0.0 mm 0.00 in/hr0.0 mm/hr 0.05 in1.3 mm
05:52 PM 65.5°F18.6°C 54.7°F12.6°C 68% 2.0 mph SW3.2 kmh SW 6.0 mph9.7 kmh 30.05 in1017.6 mb 0.00 in0.0 mm 0.00 in/hr0.0 mm/hr 0.05 in1.3 mm
05:51 PM 65.4°F18.6°C 55.0°F12.8°C 69% 2.0 mph SW3.2 kmh SW 6.0 mph9.7 kmh 30.05 in1017.6 mb 0.00 in0.0 mm 0.00 in/hr0.0 mm/hr 0.05 in1.3 mm
05:50 PM 65.4°F18.6°C 54.2°F12.3°C 67% 2.0 mph SW3.2 kmh SW 6.0 mph9.7 kmh 30.05 in1017.6 mb 0.00 in0.0 mm 0.00 in/hr0.0 mm/hr 0.05 in1.3 mm
05:49 PM 65.5°F18.6°C 55.8°F13.2°C 71% 2.0 mph SW3.2 kmh SW 6.0 mph9.7 kmh 30.05 in1017.6 mb 0.00 in0.0 mm 0.00 in/hr0.0 mm/hr 0.05 in1.3 mm
05:48 PM 65.6°F18.7°C 55.2°F12.9°C 69% 2.0 mph SW3.2 kmh SW 5.0 mph8.0 kmh 30.05 in1017.6 mb 0.00 in0.0 mm 0.00 in/hr0.0 mm/hr 0.05 in1.3 mm
05:47 PM 65.6°F18.7°C 54.8°F12.7°C 68% 2.0 mph SW3.2 kmh SW 5.0 mph8.0 kmh 30.05 in1017.6 mb 0.00 in0.0 mm 0.00 in/hr0.0 mm/hr 0.05 in1.3 mm
05:46 PM 65.5°F18.6°C 54.2°F12.3°C 67% 3.0 mph SW4.8 kmh SW 5.0 mph8.0 kmh 30.05 in1017.6 mb 0.00 in0.0 mm 0.00 in/hr0.0 mm/hr 0.05 in1.3 mm
05:45 PM 65.5°F18.6°C 54.2°F12.3°C 67% 3.0 mph SW4.8 kmh SW 6.0 mph9.7 kmh 30.05 in1017.6 mb 0.00 in0.0 mm 0.00 in/hr0.0 mm/hr 0.05 in1.3 mm
05:44 PM 65.5°F18.6°C 54.7°F12.6°C 68% 3.0 mph SW4.8 kmh SW 6.0 mph9.7 kmh 30.05 in1017.6 mb 0.00 in0.0 mm 0.00 in/hr0.0 mm/hr 0.05 in1.3 mm
05:43 PM 65.5°F18.6°C 55.5°F13.1°C 70% 3.0 mph SW4.8 kmh SW 6.0 mph9.7 kmh 30.05 in1017.6 mb 0.00 in0.0 mm 0.00 in/hr0.0 mm/hr 0.05 in1.3 mm
05:42 PM 65.4°F18.6°C 55.0°F12.8°C 69% 3.0 mph SW4.8 kmh SW 6.0 mph9.7 kmh 30.04 in1017.3 mb 0.00 in0.0 mm 0.00 in/hr0.0 mm/hr 0.05 in1.3 mm
05:41 PM 65.4°F18.6°C 55.7°F13.2°C 71% 3.0 mph SW4.8 kmh SW 6.0 mph9.7 kmh 30.04 in1017.3 mb 0.00 in0.0 mm 0.00 in/hr0.0 mm/hr 0.05 in1.3 mm
05:40 PM 65.4°F18.6°C 55.0°F12.8°C 69% 3.0 mph SW4.8 kmh SW 7.0 mph11.3 kmh 30.04 in1017.3 mb 0.00 in0.0 mm 0.00 in/hr0.0 mm/hr 0.05 in1.3 mm
05:39 PM 65.4°F18.6°C 54.2°F12.3°C 67% 3.0 mph SW4.8 kmh SW 7.0 mph11.3 kmh 30.04 in1017.3 mb 0.00 in0.0 mm 0.00 in/hr0.0 mm/hr 0.05 in1.3 mm
05:38 PM 65.5°F18.6°C 54.7°F12.6°C 68% 3.0 mph SW4.8 kmh SW 7.0 mph11.3 kmh 30.04 in1017.3 mb 0.00 in0.0 mm 0.00 in/hr0.0 mm/hr 0.05 in1.3 mm
05:37 PM 65.6°F18.7°C 55.2°F12.9°C 69% 3.0 mph SW4.8 kmh SW 7.0 mph11.3 kmh 30.04 in1017.3 mb 0.00 in0.0 mm 0.00 in/hr0.0 mm/hr 0.05 in1.3 mm
05:36 PM 65.6°F18.7°C 55.2°F12.9°C 69% 3.0 mph SW4.8 kmh SW 7.0 mph11.3 kmh 30.04 in1017.3 mb 0.00 in0.0 mm 0.00 in/hr0.0 mm/hr 0.05 in1.3 mm
05:35 PM 65.6°F18.7°C 54.8°F12.7°C 68% 3.0 mph SW4.8 kmh SW 7.0 mph11.3 kmh 30.04 in1017.3 mb 0.00 in0.0 mm 0.00 in/hr0.0 mm/hr 0.05 in1.3 mm
05:34 PM 65.5°F18.6°C 55.5°F13.1°C 70% 3.0 mph SW4.8 kmh SW 7.0 mph11.3 kmh 30.04 in1017.3 mb 0.00 in0.0 mm 0.00 in/hr0.0 mm/hr 0.05 in1.3 mm
05:33 PM 65.4°F18.6°C 54.6°F12.6°C 68% 3.0 mph SW4.8 kmh SW 10.0 mph16.1 kmh 30.04 in1017.3 mb 0.00 in0.0 mm 0.00 in/hr0.0 mm/hr 0.05 in1.3 mm
05:32 PM 65.3°F18.5°C 54.5°F12.5°C 68% 3.0 mph SW4.8 kmh SW 10.0 mph16.1 kmh 30.04 in1017.3 mb 0.00 in0.0 mm 0.00 in/hr0.0 mm/hr 0.05 in1.3 mm
05:31 PM 65.3°F18.5°C 54.5°F12.5°C 68% 3.0 mph SW4.8 kmh SW 10.0 mph16.1 kmh 30.04 in1017.3 mb 0.00 in0.0 mm 0.00 in/hr0.0 mm/hr 0.05 in1.3 mm
05:30 PM 65.3°F18.5°C 53.6°F12.0°C 66% 3.0 mph SW4.8 kmh SW 10.0 mph16.1 kmh 30.04 in1017.3 mb 0.00 in0.0 mm 0.00 in/hr0.0 mm/hr 0.05 in1.3 mm
05:29 PM 65.3°F18.5°C 53.2°F11.8°C 65% 2.0 mph SW3.2 kmh SW 10.0 mph16.1 kmh 30.04 in1017.3 mb 0.00 in0.0 mm 0.00 in/hr0.0 mm/hr 0.05 in1.3 mm
05:28 PM 65.5°F18.6°C 53.4°F11.9°C 65% 2.0 mph SW3.2 kmh SW 10.0 mph16.1 kmh 30.04 in1017.3 mb 0.00 in0.0 mm 0.00 in/hr0.0 mm/hr 0.05 in1.3 mm
05:27 PM 65.7°F18.7°C 53.6°F12.0°C 65% 2.0 mph SW3.2 kmh SW 10.0 mph16.1 kmh 30.04 in1017.3 mb 0.00 in0.0 mm 0.00 in/hr0.0 mm/hr 0.05 in1.3 mm
05:26 PM 65.9°F18.8°C 53.8°F12.1°C 65% 2.0 mph SW3.2 kmh SW 10.0 mph16.1 kmh 30.04 in1017.3 mb 0.00 in0.0 mm 0.00 in/hr0.0 mm/hr 0.05 in1.3 mm
05:25 PM 66.1°F18.9°C 54.0°F12.2°C 65% 2.0 mph SW3.2 kmh SW 10.0 mph16.1 kmh 30.04 in1017.3 mb 0.00 in0.0 mm 0.00 in/hr0.0 mm/hr 0.05 in1.3 mm
05:24 PM 66.3°F19.1°C 54.6°F12.6°C 66% 2.0 mph SW3.2 kmh SW 10.0 mph16.1 kmh 30.04 in1017.3 mb 0.00 in0.0 mm 0.00 in/hr0.0 mm/hr 0.05 in1.3 mm
05:23 PM 66.4°F19.1°C 54.3°F12.4°C 65% 2.0 mph SW3.2 kmh SW 6.0 mph9.7 kmh 30.04 in1017.3 mb 0.00 in0.0 mm 0.00 in/hr0.0 mm/hr 0.05 in1.3 mm
05:22 PM 66.4°F19.1°C 56.3°F13.5°C 70% 2.0 mph SW3.2 kmh SW 6.0 mph9.7 kmh 30.04 in1017.3 mb 0.00 in0.0 mm 0.00 in/hr0.0 mm/hr 0.05 in1.3 mm
05:21 PM 66.4°F19.1°C 56.3°F13.5°C 70% 3.0 mph SW4.8 kmh SW 6.0 mph9.7 kmh 30.04 in1017.3 mb 0.00 in0.0 mm 0.00 in/hr0.0 mm/hr 0.05 in1.3 mm
05:20 PM 66.2°F19.0°C 55.7°F13.2°C 69% 3.0 mph SW4.8 kmh SW 6.0 mph9.7 kmh 30.04 in1017.3 mb 0.00 in0.0 mm 0.00 in/hr0.0 mm/hr 0.05 in1.3 mm
05:19 PM 66.2°F19.0°C 53.7°F12.1°C 64% 3.0 mph SW4.8 kmh SW 7.0 mph11.3 kmh 30.04 in1017.3 mb 0.00 in0.0 mm 0.00 in/hr0.0 mm/hr 0.05 in1.3 mm
05:18 PM 66.3°F19.1°C 54.6°F12.6°C 66% 3.0 mph SW4.8 kmh SW 7.0 mph11.3 kmh 30.04 in1017.3 mb 0.00 in0.0 mm 0.00 in/hr0.0 mm/hr 0.05 in1.3 mm
05:17 PM 66.2°F19.0°C 54.5°F12.5°C 66% 3.0 mph SW4.8 kmh SW 7.0 mph11.3 kmh 30.04 in1017.3 mb 0.00 in0.0 mm 0.00 in/hr0.0 mm/hr 0.05 in1.3 mm
05:16 PM 66.2°F19.0°C 54.5°F12.5°C 66% 2.0 mph SW3.2 kmh SW 7.0 mph11.3 kmh 30.04 in1017.3 mb 0.00 in0.0 mm 0.00 in/hr0.0 mm/hr 0.05 in1.3 mm
05:15 PM 66.0°F18.9°C 53.5°F11.9°C 64% 2.0 mph SW3.2 kmh SW 7.0 mph11.3 kmh 30.04 in1017.3 mb 0.00 in0.0 mm 0.00 in/hr0.0 mm/hr 0.05 in1.3 mm
05:14 PM 65.9°F18.8°C 55.0°F12.8°C 68% 2.0 mph SW3.2 kmh SW 7.0 mph11.3 kmh 30.04 in1017.3 mb 0.00 in0.0 mm 0.00 in/hr0.0 mm/hr 0.05 in1.3 mm
05:13 PM 65.8°F18.8°C 54.1°F12.3°C 66% 2.0 mph SW3.2 kmh SW 7.0 mph11.3 kmh 30.03 in1016.9 mb 0.00 in0.0 mm 0.00 in/hr0.0 mm/hr 0.05 in1.3 mm
05:12 PM 65.7°F18.7°C 53.2°F11.8°C 64% 2.0 mph SW3.2 kmh SW 7.0 mph11.3 kmh 30.04 in1017.3 mb 0.00 in0.0 mm 0.00 in/hr0.0 mm/hr 0.05 in1.3 mm
05:11 PM 65.8°F18.8°C 53.7°F12.1°C 65% 2.0 mph SW3.2 kmh SW 7.0 mph11.3 kmh 30.03 in1016.9 mb 0.00 in0.0 mm 0.00 in/hr0.0 mm/hr 0.05 in1.3 mm
05:10 PM 65.8°F18.8°C 54.1°F12.3°C 66% 2.0 mph SW3.2 kmh SW 7.0 mph11.3 kmh 30.04 in1017.3 mb 0.00 in0.0 mm 0.00 in/hr0.0 mm/hr 0.05 in1.3 mm
05:09 PM 65.8°F18.8°C 55.7°F13.2°C 70% 2.0 mph SW3.2 kmh SW 7.0 mph11.3 kmh 30.04 in1017.3 mb 0.00 in0.0 mm 0.00 in/hr0.0 mm/hr 0.05 in1.3 mm
05:08 PM 65.7°F18.7°C 54.4°F12.4°C 67% 2.0 mph SW3.2 kmh SW 6.0 mph9.7 kmh 30.04 in1017.3 mb 0.00 in0.0 mm 0.00 in/hr0.0 mm/hr 0.05 in1.3 mm
05:07 PM 65.6°F18.7°C 54.3°F12.4°C 67% 2.0 mph SW3.2 kmh SW 6.0 mph9.7 kmh 30.04 in1017.3 mb 0.00 in0.0 mm 0.00 in/hr0.0 mm/hr 0.05 in1.3 mm
05:06 PM 65.6°F18.7°C 54.3°F12.4°C 67% 2.0 mph SW3.2 kmh SW 6.0 mph9.7 kmh 30.04 in1017.3 mb 0.00 in0.0 mm 0.00 in/hr0.0 mm/hr 0.05 in1.3 mm
05:05 PM 65.5°F18.6°C 54.7°F12.6°C 68% 2.0 mph SW3.2 kmh SW 3.0 mph4.8 kmh 30.04 in1017.3 mb 0.00 in0.0 mm 0.00 in/hr0.0 mm/hr 0.05 in1.3 mm
05:04 PM 65.3°F18.5°C 54.5°F12.5°C 68% 2.0 mph SW3.2 kmh SW 4.0 mph6.4 kmh 30.04 in1017.3 mb 0.00 in0.0 mm 0.00 in/hr0.0 mm/hr 0.05 in1.3 mm
05:03 PM 65.2°F18.4°C 55.6°F13.1°C 71% 2.0 mph SW3.2 kmh SW 8.0 mph12.9 kmh 30.04 in1017.3 mb 0.00 in0.0 mm 0.00 in/hr0.0 mm/hr 0.05 in1.3 mm
05:02 PM 65.1°F18.4°C 55.1°F12.8°C 70% 2.0 mph SW3.2 kmh SW 8.0 mph12.9 kmh 30.04 in1017.3 mb 0.00 in0.0 mm 0.00 in/hr0.0 mm/hr 0.05 in1.3 mm
05:01 PM 65.1°F18.4°C 54.7°F12.6°C 69% 2.0 mph SW3.2 kmh SW 8.0 mph12.9 kmh 30.04 in1017.3 mb 0.00 in0.0 mm 0.00 in/hr0.0 mm/hr 0.05 in1.3 mm
05:00 PM 65.1°F18.4°C 54.3°F12.4°C 68% 2.0 mph SW3.2 kmh SW 8.0 mph12.9 kmh 30.04 in1017.3 mb 0.00 in0.0 mm 0.00 in/hr0.0 mm/hr 0.05 in1.3 mm
04:59 PM 65.2°F18.4°C 54.8°F12.7°C 69% 2.0 mph SW3.2 kmh SW 8.0 mph12.9 kmh 30.04 in1017.3 mb 0.00 in0.0 mm 0.00 in/hr0.0 mm/hr 0.05 in1.3 mm
04:58 PM 65.3°F18.5°C 55.3°F12.9°C 70% 2.0 mph SW3.2 kmh SW 8.0 mph12.9 kmh 30.03 in1016.9 mb 0.00 in0.0 mm 0.00 in/hr0.0 mm/hr 0.05 in1.3 mm
04:57 PM 65.4°F18.6°C 54.6°F12.6°C 68% 2.0 mph SW3.2 kmh SW 8.0 mph12.9 kmh 30.04 in1017.3 mb 0.00 in0.0 mm 0.00 in/hr0.0 mm/hr 0.05 in1.3 mm
04:56 PM 65.5°F18.6°C 53.4°F11.9°C 65% 2.0 mph SW3.2 kmh SW 8.0 mph12.9 kmh 30.04 in1017.3 mb 0.00 in0.0 mm 0.00 in/hr0.0 mm/hr 0.05 in1.3 mm
04:55 PM 65.7°F18.7°C 54.0°F12.2°C 66% 2.0 mph SW3.2 kmh SW 8.0 mph12.9 kmh 30.04 in1017.3 mb 0.00 in0.0 mm 0.00 in/hr0.0 mm/hr 0.05 in1.3 mm
04:54 PM 65.9°F18.8°C 54.6°F12.6°C 67% 2.0 mph SW3.2 kmh SW 8.0 mph12.9 kmh 30.03 in1016.9 mb 0.00 in0.0 mm 0.00 in/hr0.0 mm/hr 0.05 in1.3 mm
04:53 PM 66.2°F19.0°C 54.1°F12.3°C 65% 2.0 mph SW3.2 kmh SW 6.0 mph9.7 kmh 30.03 in1016.9 mb 0.00 in0.0 mm 0.00 in/hr0.0 mm/hr 0.05 in1.3 mm
04:52 PM 66.3°F19.1°C 53.8°F12.1°C 64% 2.0 mph SW3.2 kmh SW 5.0 mph8.0 kmh 30.03 in1016.9 mb 0.00 in0.0 mm 0.00 in/hr0.0 mm/hr 0.05 in1.3 mm
04:51 PM 66.3°F19.1°C 53.8°F12.1°C 64% 2.0 mph SW3.2 kmh SW 5.0 mph8.0 kmh 30.03 in1016.9 mb 0.00 in0.0 mm 0.00 in/hr0.0 mm/hr 0.05 in1.3 mm
04:50 PM 66.3°F19.1°C 56.6°F13.7°C 71% 2.0 mph SW3.2 kmh SW 6.0 mph9.7 kmh 30.03 in1016.9 mb 0.00 in0.0 mm 0.00 in/hr0.0 mm/hr 0.05 in1.3 mm
04:49 PM 66.2°F19.0°C 56.5°F13.6°C 71% 2.0 mph SW3.2 kmh SW 7.0 mph11.3 kmh 30.03 in1016.9 mb 0.00 in0.0 mm 0.00 in/hr0.0 mm/hr 0.05 in1.3 mm
04:48 PM 65.9°F18.8°C 55.4°F13.0°C 69% 2.0 mph SW3.2 kmh SW 7.0 mph11.3 kmh 30.03 in1016.9 mb 0.00 in0.0 mm 0.00 in/hr0.0 mm/hr 0.05 in1.3 mm
04:47 PM 65.7°F18.7°C 55.6°F13.1°C 70% 2.0 mph SW3.2 kmh SW 7.0 mph11.3 kmh 30.03 in1016.9 mb 0.00 in0.0 mm 0.00 in/hr0.0 mm/hr 0.05 in1.3 mm
04:46 PM 65.4°F18.6°C 54.6°F12.6°C 68% 2.0 mph SW3.2 kmh SW 7.0 mph11.3 kmh 30.03 in1016.9 mb 0.00 in0.0 mm 0.00 in/hr0.0 mm/hr 0.05 in1.3 mm
04:45 PM 65.2°F18.4°C 54.8°F12.7°C 69% 2.0 mph SW3.2 kmh SW 7.0 mph11.3 kmh 30.03 in1016.9 mb 0.00 in0.0 mm 0.00 in/hr0.0 mm/hr 0.05 in1.3 mm
04:44 PM 65.1°F18.4°C 53.5°F11.9°C 66% 2.0 mph SW3.2 kmh SW 7.0 mph11.3 kmh 30.03 in1016.9 mb 0.00 in0.0 mm 0.00 in/hr0.0 mm/hr 0.05 in1.3 mm
04:43 PM 65.0°F18.3°C 53.4°F11.9°C 66% 2.0 mph SW3.2 kmh SW 7.0 mph11.3 kmh 30.03 in1016.9 mb 0.00 in0.0 mm 0.00 in/hr0.0 mm/hr 0.05 in1.3 mm
04:42 PM 64.9°F18.3°C 53.3°F11.8°C 66% 2.0 mph SW3.2 kmh SW 7.0 mph11.3 kmh 30.03 in1016.9 mb 0.00 in0.0 mm 0.00 in/hr0.0 mm/hr 0.05 in1.3 mm
04:41 PM 64.9°F18.3°C 53.7°F12.1°C 67% 2.0 mph SW3.2 kmh SW 7.0 mph11.3 kmh 30.03 in1016.9 mb 0.00 in0.0 mm 0.00 in/hr0.0 mm/hr 0.05 in1.3 mm
04:40 PM 65.0°F18.3°C 52.9°F11.6°C 65% 2.0 mph SW3.2 kmh SW 7.0 mph11.3 kmh 30.03 in1016.9 mb 0.00 in0.0 mm 0.00 in/hr0.0 mm/hr 0.05 in1.3 mm
04:39 PM 64.9°F18.3°C 54.1°F12.3°C 68% 2.0 mph SW3.2 kmh SW 6.0 mph9.7 kmh 30.03 in1016.9 mb 0.00 in0.0 mm 0.00 in/hr0.0 mm/hr 0.05 in1.3 mm
04:38 PM 64.8°F18.2°C 54.4°F12.4°C 69% 2.0 mph SW3.2 kmh SW 6.0 mph9.7 kmh 30.03 in1016.9 mb 0.00 in0.0 mm 0.00 in/hr0.0 mm/hr 0.05 in1.3 mm
04:37 PM 64.7°F18.2°C 54.7°F12.6°C 70% 2.0 mph SW3.2 kmh SW 6.0 mph9.7 kmh 30.03 in1016.9 mb 0.00 in0.0 mm 0.00 in/hr0.0 mm/hr 0.05 in1.3 mm
04:36 PM 64.7°F18.2°C 53.9°F12.2°C 68% 2.0 mph SW3.2 kmh SW 6.0 mph9.7 kmh 30.03 in1016.9 mb 0.00 in0.0 mm 0.00 in/hr0.0 mm/hr 0.05 in1.3 mm
04:35 PM 64.7°F18.2°C 53.9°F12.2°C 68% 1.0 mph SW1.6 kmh SW 6.0 mph9.7 kmh 30.03 in1016.9 mb 0.00 in0.0 mm 0.00 in/hr0.0 mm/hr 0.05 in1.3 mm
04:34 PM 64.7°F18.2°C 54.3°F12.4°C 69% 1.0 mph SW1.6 kmh SW 6.0 mph9.7 kmh 30.03 in1016.9 mb 0.00 in0.0 mm 0.00 in/hr0.0 mm/hr 0.05 in1.3 mm
04:33 PM 64.7°F18.2°C 54.7°F12.6°C 70% 1.0 mph SW1.6 kmh SW 5.0 mph8.0 kmh 30.03 in1016.9 mb 0.00 in0.0 mm 0.00 in/hr0.0 mm/hr 0.05 in1.3 mm
04:32 PM 64.8°F18.2°C 54.0°F12.2°C 68% 1.0 mph SW1.6 kmh SW 5.0 mph8.0 kmh 30.03 in1016.9 mb 0.00 in0.0 mm 0.00 in/hr0.0 mm/hr 0.05 in1.3 mm
04:31 PM 64.9°F18.3°C 54.1°F12.3°C 68% 1.0 mph SW1.6 kmh SW 5.0 mph8.0 kmh 30.03 in1016.9 mb 0.00 in0.0 mm 0.00 in/hr0.0 mm/hr 0.05 in1.3 mm
04:30 PM 65.0°F18.3°C 53.8°F12.1°C 67% 1.0 mph SW1.6 kmh SW 5.0 mph8.0 kmh 30.03 in1016.9 mb 0.00 in0.0 mm 0.00 in/hr0.0 mm/hr 0.05 in1.3 mm
04:29 PM 65.1°F18.4°C 54.7°F12.6°C 69% 1.0 mph SW1.6 kmh SW 5.0 mph8.0 kmh 30.03 in1016.9 mb 0.00 in0.0 mm 0.00 in/hr0.0 mm/hr 0.05 in1.3 mm
04:28 PM 65.1°F18.4°C 54.7°F12.6°C 69% 1.0 mph SW1.6 kmh SW 5.0 mph8.0 kmh 30.03 in1016.9 mb 0.00 in0.0 mm 0.00 in/hr0.0 mm/hr 0.05 in1.3 mm
04:27 PM 65.1°F18.4°C 54.7°F12.6°C 69% 2.0 mph SW3.2 kmh SW 5.0 mph8.0 kmh 30.03 in1016.9 mb 0.00 in0.0 mm 0.00 in/hr0.0 mm/hr 0.05 in1.3 mm
04:26 PM 65.0°F18.3°C 55.0°F12.8°C 70% 2.0 mph SW3.2 kmh SW 5.0 mph8.0 kmh 30.03 in1016.9 mb 0.00 in0.0 mm 0.00 in/hr0.0 mm/hr 0.05 in1.3 mm
04:25 PM 65.0°F18.3°C 54.6°F12.6°C 69% 2.0 mph SW3.2 kmh SW 5.0 mph8.0 kmh 30.03 in1016.9 mb 0.00 in0.0 mm 0.00 in/hr0.0 mm/hr 0.05 in1.3 mm
04:24 PM 64.9°F18.3°C 54.9°F12.7°C 70% 2.0 mph SW3.2 kmh SW 5.0 mph8.0 kmh 30.03 in1016.9 mb 0.00 in0.0 mm 0.00 in/hr0.0 mm/hr 0.05 in1.3 mm
04:23 PM 64.8°F18.2°C 54.8°F12.7°C 70% 3.0 mph SW4.8 kmh SW 8.0 mph12.9 kmh 30.03 in1016.9 mb 0.00 in0.0 mm 0.00 in/hr0.0 mm/hr 0.05 in1.3 mm
04:22 PM 64.6°F18.1°C 55.7°F13.2°C 73% 3.0 mph SW4.8 kmh SW 8.0 mph12.9 kmh 30.03 in1016.9 mb 0.00 in0.0 mm 0.00 in/hr0.0 mm/hr 0.05 in1.3 mm
04:21 PM 64.3°F17.9°C 55.8°F13.2°C 74% 3.0 mph SW4.8 kmh SW 8.0 mph12.9 kmh 30.03 in1016.9 mb 0.00 in0.0 mm 0.00 in/hr0.0 mm/hr 0.05 in1.3 mm
04:20 PM 64.0°F17.8°C 55.2°F12.9°C 73% 3.0 mph SW4.8 kmh SW 8.0 mph12.9 kmh 30.03 in1016.9 mb 0.00 in0.0 mm 0.00 in/hr0.0 mm/hr 0.05 in1.3 mm
04:19 PM 63.8°F17.7°C 55.4°F13.0°C 74% 3.0 mph SW4.8 kmh SW 8.0 mph12.9 kmh 30.03 in1016.9 mb 0.00 in0.0 mm 0.00 in/hr0.0 mm/hr 0.05 in1.3 mm
04:18 PM 63.6°F17.6°C 54.4°F12.4°C 72% 3.0 mph SW4.8 kmh SW 8.0 mph12.9 kmh 30.03 in1016.9 mb 0.00 in0.0 mm 0.00 in/hr0.0 mm/hr 0.05 in1.3 mm
04:17 PM 63.6°F17.6°C 54.0°F12.2°C 71% 3.0 mph SW4.8 kmh SW 8.0 mph12.9 kmh 30.03 in1016.9 mb 0.00 in0.0 mm 0.00 in/hr0.0 mm/hr 0.05 in1.3 mm
04:16 PM 63.6°F17.6°C 53.6°F12.0°C 70% 3.0 mph SW4.8 kmh SW 8.0 mph12.9 kmh 30.03 in1016.9 mb 0.00 in0.0 mm 0.00 in/hr0.0 mm/hr 0.05 in1.3 mm
04:15 PM 63.6°F17.6°C 54.0°F12.2°C 71% 3.0 mph SW4.8 kmh SW 8.0 mph12.9 kmh 30.03 in1016.9 mb 0.00 in0.0 mm 0.00 in/hr0.0 mm/hr 0.05 in1.3 mm
04:14 PM 63.7°F17.6°C 53.3°F11.8°C 69% 3.0 mph SW4.8 kmh SW 8.0 mph12.9 kmh 30.03 in1016.9 mb 0.00 in0.0 mm 0.00 in/hr0.0 mm/hr 0.05 in1.3 mm
04:13 PM 63.7°F17.6°C 53.7°F12.1°C 70% 3.0 mph SW4.8 kmh SW 6.0 mph9.7 kmh 30.03 in1016.9 mb 0.00 in0.0 mm 0.00 in/hr0.0 mm/hr 0.05 in1.3 mm
04:12 PM 63.8°F17.7°C 53.8°F12.1°C 70% 3.0 mph SW4.8 kmh SW 6.0 mph9.7 kmh 30.03 in1016.9 mb 0.00 in0.0 mm 0.00 in/hr0.0 mm/hr 0.05 in1.3 mm
04:11 PM 63.9°F17.7°C 53.9°F12.2°C 70% 3.0 mph SW4.8 kmh SW 6.0 mph9.7 kmh 30.03 in1016.9 mb 0.00 in0.0 mm 0.00 in/hr0.0 mm/hr 0.05 in1.3 mm
04:10 PM 63.9°F17.7°C 53.5°F11.9°C 69% 3.0 mph SW4.8 kmh SW 6.0 mph9.7 kmh 30.03 in1016.9 mb 0.00 in0.0 mm 0.00 in/hr0.0 mm/hr 0.05 in1.3 mm
04:09 PM 64.0°F17.8°C 54.4°F12.4°C 71% 3.0 mph SW4.8 kmh SW 6.0 mph9.7 kmh 30.03 in1016.9 mb 0.00 in0.0 mm 0.00 in/hr0.0 mm/hr 0.05 in1.3 mm
04:08 PM 64.0°F17.8°C 54.0°F12.2°C 70% 3.0 mph SW4.8 kmh SW 6.0 mph9.7 kmh 30.03 in1016.9 mb 0.00 in0.0 mm 0.00 in/hr0.0 mm/hr 0.05 in1.3 mm
04:07 PM 64.1°F17.8°C 53.7°F12.1°C 69% 3.0 mph SW4.8 kmh SW 6.0 mph9.7 kmh 30.03 in1016.9 mb 0.00 in0.0 mm 0.00 in/hr0.0 mm/hr 0.05 in1.3 mm
04:06 PM 64.2°F17.9°C 53.0°F11.7°C 67% 3.0 mph SW4.8 kmh SW 7.0 mph11.3 kmh 30.03 in1016.9 mb 0.00 in0.0 mm 0.00 in/hr0.0 mm/hr 0.05 in1.3 mm
04:05 PM 64.3°F17.9°C 53.9°F12.2°C 69% 3.0 mph SW4.8 kmh SW 7.0 mph11.3 kmh 30.03 in1016.9 mb 0.00 in0.0 mm 0.00 in/hr0.0 mm/hr 0.05 in1.3 mm
04:04 PM 64.4°F18.0°C 54.8°F12.7°C 71% 2.0 mph SW3.2 kmh SW 7.0 mph11.3 kmh 30.03 in1016.9 mb 0.00 in0.0 mm 0.00 in/hr0.0 mm/hr 0.05 in1.3 mm
04:03 PM 64.4°F18.0°C 53.6°F12.0°C 68% 2.0 mph SW3.2 kmh SW 7.0 mph11.3 kmh 30.03 in1016.9 mb 0.00 in0.0 mm 0.00 in/hr0.0 mm/hr 0.05 in1.3 mm
04:02 PM 64.5°F18.1°C 54.5°F12.5°C 70% 2.0 mph SW3.2 kmh SW 7.0 mph11.3 kmh 30.03 in1016.9 mb 0.00 in0.0 mm 0.00 in/hr0.0 mm/hr 0.05 in1.3 mm
04:01 PM 64.6°F18.1°C 53.0°F11.7°C 66% 2.0 mph SW3.2 kmh SW 7.0 mph11.3 kmh 30.03 in1016.9 mb 0.00 in0.0 mm 0.00 in/hr0.0 mm/hr 0.05 in1.3 mm
04:00 PM 64.7°F18.2°C 54.3°F12.4°C 69% 1.0 mph SW1.6 kmh SW 7.0 mph11.3 kmh 30.03 in1016.9 mb 0.00 in0.0 mm 0.00 in/hr0.0 mm/hr 0.05 in1.3 mm
03:59 PM 64.8°F18.2°C 53.6°F12.0°C 67% 1.0 mph SW1.6 kmh SW 7.0 mph11.3 kmh 30.03 in1016.9 mb 0.00 in0.0 mm 0.00 in/hr0.0 mm/hr 0.05 in1.3 mm
03:58 PM 64.9°F18.3°C 54.9°F12.7°C 70% 1.0 mph SW1.6 kmh SW 7.0 mph11.3 kmh 30.03 in1016.9 mb 0.00 in0.0 mm 0.00 in/hr0.0 mm/hr 0.05 in1.3 mm
03:57 PM 65.0°F18.3°C 54.2°F12.3°C 68% 1.0 mph SW1.6 kmh SW 7.0 mph11.3 kmh 30.03 in1016.9 mb 0.00 in0.0 mm 0.00 in/hr0.0 mm/hr 0.05 in1.3 mm
03:56 PM 65.1°F18.4°C 55.1°F12.8°C 70% 1.0 mph SW1.6 kmh SW 7.0 mph11.3 kmh 30.03 in1016.9 mb 0.00 in0.0 mm 0.00 in/hr0.0 mm/hr 0.05 in1.3 mm
03:55 PM 64.9°F18.3°C 55.3°F12.9°C 71% 1.0 mph SW1.6 kmh SW 4.0 mph6.4 kmh 30.03 in1016.9 mb 0.00 in0.0 mm 0.00 in/hr0.0 mm/hr 0.05 in1.3 mm
03:54 PM 64.8°F18.2°C 55.2°F12.9°C 71% 1.0 mph SW1.6 kmh SW 4.0 mph6.4 kmh 30.03 in1016.9 mb 0.00 in0.0 mm 0.00 in/hr0.0 mm/hr 0.05 in1.3 mm
03:53 PM 64.6°F18.1°C 54.2°F12.3°C 69% 1.0 mph SW1.6 kmh SW 4.0 mph6.4 kmh 30.03 in1016.9 mb 0.00 in0.0 mm 0.00 in/hr0.0 mm/hr 0.05 in1.3 mm
03:52 PM 64.5°F18.1°C 54.5°F12.5°C 70% 2.0 mph SW3.2 kmh SW 4.0 mph6.4 kmh 30.03 in1016.9 mb 0.00 in0.0 mm 0.00 in/hr0.0 mm/hr 0.05 in1.3 mm
03:51 PM 64.4°F18.0°C 54.4°F12.4°C 70% 2.0 mph SW3.2 kmh SW 5.0 mph8.0 kmh 30.03 in1016.9 mb 0.00 in0.0 mm 0.00 in/hr0.0 mm/hr 0.05 in1.3 mm
03:50 PM 64.3°F17.9°C 53.9°F12.2°C 69% 2.0 mph SW3.2 kmh SW 5.0 mph8.0 kmh 30.03 in1016.9 mb 0.00 in0.0 mm 0.00 in/hr0.0 mm/hr 0.05 in1.3 mm
03:49 PM 64.2°F17.9°C 53.8°F12.1°C 69% 2.0 mph SW3.2 kmh SW 5.0 mph8.0 kmh 30.03 in1016.9 mb 0.00 in0.0 mm 0.00 in/hr0.0 mm/hr 0.05 in1.3 mm
03:48 PM 64.2°F17.9°C 53.4°F11.9°C 68% 2.0 mph SW3.2 kmh SW 7.0 mph11.3 kmh 30.03 in1016.9 mb 0.00 in0.0 mm 0.00 in/hr0.0 mm/hr 0.05 in1.3 mm
03:47 PM 64.2°F17.9°C 53.8°F12.1°C 69% 2.0 mph SW3.2 kmh SW 7.0 mph11.3 kmh 30.03 in1016.9 mb 0.00 in0.0 mm 0.00 in/hr0.0 mm/hr 0.05 in1.3 mm
03:46 PM 64.2°F17.9°C 53.8°F12.1°C 69% 2.0 mph SW3.2 kmh SW 7.0 mph11.3 kmh 30.03 in1016.9 mb 0.00 in0.0 mm 0.00 in/hr0.0 mm/hr 0.05 in1.3 mm
03:45 PM 64.2°F17.9°C 53.8°F12.1°C 69% 2.0 mph SW3.2 kmh SW 7.0 mph11.3 kmh 30.03 in1016.9 mb 0.00 in0.0 mm 0.00 in/hr0.0 mm/hr 0.05 in1.3 mm
03:44 PM 64.2°F17.9°C 53.8°F12.1°C 69% 2.0 mph SW3.2 kmh SW 7.0 mph11.3 kmh 30.03 in1016.9 mb 0.00 in0.0 mm 0.00 in/hr0.0 mm/hr 0.05 in1.3 mm
03:43 PM 64.2°F17.9°C 53.4°F11.9°C 68% 2.0 mph SW3.2 kmh SW 7.0 mph11.3 kmh 30.03 in1016.9 mb 0.00 in0.0 mm 0.00 in/hr0.0 mm/hr 0.05 in1.3 mm
03:42 PM 64.2°F17.9°C 54.2°F12.3°C 70% 2.0 mph SW3.2 kmh SW 7.0 mph11.3 kmh 30.03 in1016.9 mb 0.00 in0.0 mm 0.00 in/hr0.0 mm/hr 0.05 in1.3 mm
03:41 PM 64.2°F17.9°C 54.6°F12.6°C 71% 2.0 mph SW3.2 kmh SW 7.0 mph11.3 kmh 30.03 in1016.9 mb 0.00 in0.0 mm 0.00 in/hr0.0 mm/hr 0.05 in1.3 mm
03:40 PM 64.2°F17.9°C 54.2°F12.3°C 70% 2.0 mph SW3.2 kmh SW 7.0 mph11.3 kmh 30.03 in1016.9 mb 0.00 in0.0 mm 0.00 in/hr0.0 mm/hr 0.05 in1.3 mm
03:39 PM 64.2°F17.9°C 53.0°F11.7°C 67% 2.0 mph SW3.2 kmh SW 7.0 mph11.3 kmh 30.03 in1016.9 mb 0.00 in0.0 mm 0.00 in/hr0.0 mm/hr 0.05 in1.3 mm
03:38 PM 64.3°F17.9°C 54.7°F12.6°C 71% 2.0 mph SW3.2 kmh SW 7.0 mph11.3 kmh 30.03 in1016.9 mb 0.00 in0.0 mm 0.00 in/hr0.0 mm/hr 0.05 in1.3 mm
03:37 PM 64.2°F17.9°C 54.2°F12.3°C 70% 2.0 mph SW3.2 kmh SW 6.0 mph9.7 kmh 30.03 in1016.9 mb 0.00 in0.0 mm 0.00 in/hr0.0 mm/hr 0.05 in1.3 mm
03:36 PM 64.1°F17.8°C 54.5°F12.5°C 71% 2.0 mph SW3.2 kmh SW 6.0 mph9.7 kmh 30.03 in1016.9 mb 0.00 in0.0 mm 0.00 in/hr0.0 mm/hr 0.05 in1.3 mm
03:35 PM 64.0°F17.8°C 54.4°F12.4°C 71% 2.0 mph SW3.2 kmh SW 6.0 mph9.7 kmh 30.03 in1016.9 mb 0.00 in0.0 mm 0.00 in/hr0.0 mm/hr 0.05 in1.3 mm
03:34 PM 63.9°F17.7°C 54.3°F12.4°C 71% 2.0 mph SW3.2 kmh SW 6.0 mph9.7 kmh 30.03 in1016.9 mb 0.00 in0.0 mm 0.00 in/hr0.0 mm/hr 0.05 in1.3 mm
03:33 PM 63.9°F17.7°C 53.5°F11.9°C 69% 2.0 mph SW3.2 kmh SW 6.0 mph9.7 kmh 30.03 in1016.9 mb 0.00 in0.0 mm 0.00 in/hr0.0 mm/hr 0.05 in1.3 mm
03:32 PM 63.8°F17.7°C 53.0°F11.7°C 68% 2.0 mph SW3.2 kmh SW 6.0 mph9.7 kmh 30.03 in1016.9 mb 0.00 in0.0 mm 0.00 in/hr0.0 mm/hr 0.05 in1.3 mm
03:31 PM 63.9°F17.7°C 53.5°F11.9°C 69% 2.0 mph SW3.2 kmh SW 6.0 mph9.7 kmh 30.03 in1016.9 mb 0.00 in0.0 mm 0.00 in/hr0.0 mm/hr 0.05 in1.3 mm
03:30 PM 64.0°F17.8°C 53.2°F11.8°C 68% 2.0 mph SW3.2 kmh SW 6.0 mph9.7 kmh 30.03 in1016.9 mb 0.00 in0.0 mm 0.00 in/hr0.0 mm/hr 0.05 in1.3 mm
03:29 PM 64.1°F17.8°C 53.3°F11.8°C 68% 2.0 mph SW3.2 kmh SW 6.0 mph9.7 kmh 30.03 in1016.9 mb 0.00 in0.0 mm 0.00 in/hr0.0 mm/hr 0.05 in1.3 mm
03:28 PM 64.1°F17.8°C 53.3°F11.8°C 68% 2.0 mph SW3.2 kmh SW 5.0 mph8.0 kmh 30.03 in1016.9 mb 0.00 in0.0 mm 0.00 in/hr0.0 mm/hr 0.05 in1.3 mm
03:27 PM 64.3°F17.9°C 53.5°F11.9°C 68% 2.0 mph SW3.2 kmh SW 5.0 mph8.0 kmh 30.03 in1016.9 mb 0.00 in0.0 mm 0.00 in/hr0.0 mm/hr 0.05 in1.3 mm
03:26 PM 64.5°F18.1°C 53.7°F12.1°C 68% 2.0 mph SW3.2 kmh SW 5.0 mph8.0 kmh 30.03 in1016.9 mb 0.00 in0.0 mm 0.00 in/hr0.0 mm/hr 0.05 in1.3 mm
03:25 PM 64.6°F18.1°C 53.8°F12.1°C 68% 2.0 mph SW3.2 kmh SW 5.0 mph8.0 kmh 30.03 in1016.9 mb 0.00 in0.0 mm 0.00 in/hr0.0 mm/hr 0.05 in1.3 mm
03:24 PM 64.8°F18.2°C 54.0°F12.2°C 68% 2.0 mph SW3.2 kmh SW 4.0 mph6.4 kmh 30.03 in1016.9 mb 0.00 in0.0 mm 0.00 in/hr0.0 mm/hr 0.05 in1.3 mm
03:23 PM 64.8°F18.2°C 54.4°F12.4°C 69% 2.0 mph SW3.2 kmh SW 4.0 mph6.4 kmh 30.03 in1016.9 mb 0.00 in0.0 mm 0.00 in/hr0.0 mm/hr 0.05 in1.3 mm
03:22 PM 64.7°F18.2°C 54.3°F12.4°C 69% 2.0 mph SW3.2 kmh SW 4.0 mph6.4 kmh 30.03 in1016.9 mb 0.00 in0.0 mm 0.00 in/hr0.0 mm/hr 0.05 in1.3 mm
03:21 PM 64.6°F18.1°C 54.6°F12.6°C 70% 2.0 mph SW3.2 kmh SW 4.0 mph6.4 kmh 30.03 in1016.9 mb 0.00 in0.0 mm 0.00 in/hr0.0 mm/hr 0.05 in1.3 mm
03:20 PM 64.5°F18.1°C 54.5°F12.5°C 70% 2.0 mph SW3.2 kmh SW 6.0 mph9.7 kmh 30.03 in1016.9 mb 0.00 in0.0 mm 0.00 in/hr0.0 mm/hr 0.05 in1.3 mm
03:19 PM 64.4°F18.0°C 54.4°F12.4°C 70% 3.0 mph SW4.8 kmh SW 6.0 mph9.7 kmh 30.03 in1016.9 mb 0.00 in0.0 mm 0.00 in/hr0.0 mm/hr 0.05 in1.3 mm
03:18 PM 64.3°F17.9°C 54.7°F12.6°C 71% 3.0 mph SW4.8 kmh SW 6.0 mph9.7 kmh 30.03 in1016.9 mb 0.00 in0.0 mm 0.00 in/hr0.0 mm/hr 0.05 in1.3 mm
03:17 PM 64.2°F17.9°C 55.0°F12.8°C 72% 3.0 mph SW4.8 kmh SW 6.0 mph9.7 kmh 30.03 in1016.9 mb 0.00 in0.0 mm 0.00 in/hr0.0 mm/hr 0.05 in1.3 mm
03:16 PM 64.1°F17.8°C 53.7°F12.1°C 69% 3.0 mph SW4.8 kmh SW 6.0 mph9.7 kmh 30.03 in1016.9 mb 0.00 in0.0 mm 0.00 in/hr0.0 mm/hr 0.05 in1.3 mm
03:15 PM 64.1°F17.8°C 54.5°F12.5°C 71% 3.0 mph SW4.8 kmh SW 6.0 mph9.7 kmh 30.03 in1016.9 mb 0.00 in0.0 mm 0.00 in/hr0.0 mm/hr 0.05 in1.3 mm
03:14 PM 64.1°F17.8°C 54.9°F12.7°C 72% 3.0 mph SW4.8 kmh SW 6.0 mph9.7 kmh 30.03 in1016.9 mb 0.00 in0.0 mm 0.00 in/hr0.0 mm/hr 0.05 in1.3 mm
03:13 PM 64.0°F17.8°C 54.4°F12.4°C 71% 3.0 mph SW4.8 kmh SW 6.0 mph9.7 kmh 30.03 in1016.9 mb 0.00 in0.0 mm 0.00 in/hr0.0 mm/hr 0.05 in1.3 mm
03:12 PM 64.0°F17.8°C 53.6°F12.0°C 69% 2.0 mph SW3.2 kmh SW 6.0 mph9.7 kmh 30.03 in1016.9 mb 0.00 in0.0 mm 0.00 in/hr0.0 mm/hr 0.05 in1.3 mm
03:11 PM 64.1°F17.8°C 53.7°F12.1°C 69% 2.0 mph SW3.2 kmh SW 6.0 mph9.7 kmh 30.03 in1016.9 mb 0.00 in0.0 mm 0.00 in/hr0.0 mm/hr 0.05 in1.3 mm
03:10 PM 64.1°F17.8°C 54.5°F12.5°C 71% 2.0 mph SW3.2 kmh SW 6.0 mph9.7 kmh 30.03 in1016.9 mb 0.00 in0.0 mm 0.00 in/hr0.0 mm/hr 0.05 in1.3 mm
03:09 PM 64.1°F17.8°C 54.1°F12.3°C 70% 2.0 mph SW3.2 kmh SW 6.0 mph9.7 kmh 30.03 in1016.9 mb 0.00 in0.0 mm 0.00 in/hr0.0 mm/hr 0.05 in1.3 mm
03:08 PM 64.1°F17.8°C 53.7°F12.1°C 69% 2.0 mph SW3.2 kmh SW 6.0 mph9.7 kmh 30.03 in1016.9 mb 0.00 in0.0 mm 0.00 in/hr0.0 mm/hr 0.05 in1.3 mm
03:07 PM 64.2°F17.9°C 54.2°F12.3°C 70% 2.0 mph SW3.2 kmh SW 6.0 mph9.7 kmh 30.03 in1016.9 mb 0.00 in0.0 mm 0.00 in/hr0.0 mm/hr 0.05 in1.3 mm
03:06 PM 64.1°F17.8°C 54.1°F12.3°C 70% 2.0 mph SW3.2 kmh SW 5.0 mph8.0 kmh 30.03 in1016.9 mb 0.00 in0.0 mm 0.00 in/hr0.0 mm/hr 0.05 in1.3 mm
03:05 PM 64.0°F17.8°C 55.2°F12.9°C 73% 2.0 mph SW3.2 kmh SW 5.0 mph8.0 kmh 30.03 in1016.9 mb 0.00 in0.0 mm 0.00 in/hr0.0 mm/hr 0.05 in1.3 mm
03:04 PM 63.9°F17.7°C 53.1°F11.7°C 68% 2.0 mph SW3.2 kmh SW 5.0 mph8.0 kmh 30.03 in1016.9 mb 0.00 in0.0 mm 0.00 in/hr0.0 mm/hr 0.05 in1.3 mm
03:03 PM 63.9°F17.7°C 53.1°F11.7°C 68% 2.0 mph SW3.2 kmh SW 5.0 mph8.0 kmh 30.03 in1016.9 mb 0.00 in0.0 mm 0.00 in/hr0.0 mm/hr 0.05 in1.3 mm
03:02 PM 63.9°F17.7°C 53.1°F11.7°C 68% 2.0 mph SW3.2 kmh SW 5.0 mph8.0 kmh 30.03 in1016.9 mb 0.00 in0.0 mm 0.00 in/hr0.0 mm/hr 0.05 in1.3 mm
03:01 PM 63.8°F17.7°C 53.8°F12.1°C 70% 2.0 mph SW3.2 kmh SW 5.0 mph8.0 kmh 30.03 in1016.9 mb 0.00 in0.0 mm 0.00 in/hr0.0 mm/hr 0.05 in1.3 mm
03:00 PM 63.8°F17.7°C 54.2°F12.3°C 71% 2.0 mph SW3.2 kmh SW 5.0 mph8.0 kmh 30.03 in1016.9 mb 0.00 in0.0 mm 0.00 in/hr0.0 mm/hr 0.05 in1.3 mm
02:59 PM 63.6°F17.6°C 54.0°F12.2°C 71% 2.0 mph SW3.2 kmh SW 5.0 mph8.0 kmh 30.03 in1016.9 mb 0.00 in0.0 mm 0.00 in/hr0.0 mm/hr 0.05 in1.3 mm
02:58 PM 63.5°F17.5°C 53.1°F11.7°C 69% 2.0 mph SW3.2 kmh SW 5.0 mph8.0 kmh 30.02 in1016.6 mb 0.00 in0.0 mm 0.00 in/hr0.0 mm/hr 0.05 in1.3 mm
02:57 PM 63.5°F17.5°C 53.5°F11.9°C 70% 2.0 mph SW3.2 kmh SW 5.0 mph8.0 kmh 30.02 in1016.6 mb 0.00 in0.0 mm 0.00 in/hr0.0 mm/hr 0.05 in1.3 mm
02:56 PM 63.4°F17.4°C 52.7°F11.5°C 68% 2.0 mph SW3.2 kmh SW 5.0 mph8.0 kmh 30.03 in1016.9 mb 0.00 in0.0 mm 0.00 in/hr0.0 mm/hr 0.05 in1.3 mm
02:55 PM 63.4°F17.4°C 53.0°F11.7°C 69% 2.0 mph SW3.2 kmh SW 5.0 mph8.0 kmh 30.03 in1016.9 mb 0.00 in0.0 mm 0.00 in/hr0.0 mm/hr 0.05 in1.3 mm
02:54 PM 63.4°F17.4°C 53.0°F11.7°C 69% 2.0 mph SW3.2 kmh SW 5.0 mph8.0 kmh 30.03 in1016.9 mb 0.00 in0.0 mm 0.00 in/hr0.0 mm/hr 0.05 in1.3 mm
02:53 PM 63.3°F17.4°C 52.6°F11.4°C 68% 2.0 mph SW3.2 kmh SW 5.0 mph8.0 kmh 30.03 in1016.9 mb 0.00 in0.0 mm 0.00 in/hr0.0 mm/hr 0.05 in1.3 mm
02:52 PM 63.3°F17.4°C 53.3°F11.8°C 70% 2.0 mph SW3.2 kmh SW 5.0 mph8.0 kmh 30.03 in1016.9 mb 0.00 in0.0 mm 0.00 in/hr0.0 mm/hr 0.05 in1.3 mm
02:51 PM 63.3°F17.4°C 54.5°F12.5°C 73% 2.0 mph SW3.2 kmh SW 5.0 mph8.0 kmh 30.03 in1016.9 mb 0.00 in0.0 mm 0.00 in/hr0.0 mm/hr 0.05 in1.3 mm
02:50 PM 63.2°F17.3°C 55.1°F12.8°C 75% 2.0 mph SW3.2 kmh SW 4.0 mph6.4 kmh 30.03 in1016.9 mb 0.00 in0.0 mm 0.00 in/hr0.0 mm/hr 0.05 in1.3 mm
02:49 PM 63.2°F17.3°C 54.4°F12.4°C 73% 2.0 mph SW3.2 kmh SW 4.0 mph6.4 kmh 30.03 in1016.9 mb 0.00 in0.0 mm 0.00 in/hr0.0 mm/hr 0.05 in1.3 mm
02:48 PM 63.2°F17.3°C 53.6°F12.0°C 71% 2.0 mph SW3.2 kmh SW 4.0 mph6.4 kmh 30.03 in1016.9 mb 0.00 in0.0 mm 0.00 in/hr0.0 mm/hr 0.05 in1.3 mm
02:47 PM 63.1°F17.3°C 53.9°F12.2°C 72% 2.0 mph SW3.2 kmh SW 5.0 mph8.0 kmh 30.03 in1016.9 mb 0.00 in0.0 mm 0.00 in/hr0.0 mm/hr 0.05 in1.3 mm
02:46 PM 63.1°F17.3°C 53.5°F11.9°C 71% 2.0 mph SW3.2 kmh SW 5.0 mph8.0 kmh 30.03 in1016.9 mb 0.00 in0.0 mm 0.00 in/hr0.0 mm/hr 0.05 in1.3 mm
02:45 PM 63.1°F17.3°C 53.9°F12.2°C 72% 2.0 mph SW3.2 kmh SW 5.0 mph8.0 kmh 30.02 in1016.6 mb 0.00 in0.0 mm 0.00 in/hr0.0 mm/hr 0.05 in1.3 mm
02:44 PM 63.1°F17.3°C 53.9°F12.2°C 72% 2.0 mph SW3.2 kmh SW 5.0 mph8.0 kmh 30.02 in1016.6 mb 0.00 in0.0 mm 0.00 in/hr0.0 mm/hr 0.05 in1.3 mm
02:43 PM 63.1°F17.3°C 53.9°F12.2°C 72% 2.0 mph SW3.2 kmh SW 7.0 mph11.3 kmh 30.02 in1016.6 mb 0.00 in0.0 mm 0.00 in/hr0.0 mm/hr 0.05 in1.3 mm
02:42 PM 63.1°F17.3°C 54.3°F12.4°C 73% 2.0 mph SW3.2 kmh SW 7.0 mph11.3 kmh 30.03 in1016.9 mb 0.00 in0.0 mm 0.00 in/hr0.0 mm/hr 0.05 in1.3 mm
02:41 PM 63.1°F17.3°C 53.9°F12.2°C 72% 2.0 mph SW3.2 kmh SW 7.0 mph11.3 kmh 30.03 in1016.9 mb 0.00 in0.0 mm 0.00 in/hr0.0 mm/hr 0.05 in1.3 mm
02:40 PM 63.0°F17.2°C 53.8°F12.1°C 72% 2.0 mph SW3.2 kmh SW 7.0 mph11.3 kmh 30.03 in1016.9 mb 0.00 in0.0 mm 0.00 in/hr0.0 mm/hr 0.05 in1.3 mm
02:39 PM 63.1°F17.3°C 53.5°F11.9°C 71% 2.0 mph SW3.2 kmh SW 7.0 mph11.3 kmh 30.03 in1016.9 mb 0.00 in0.0 mm 0.00 in/hr0.0 mm/hr 0.05 in1.3 mm
02:38 PM 63.1°F17.3°C 53.9°F12.2°C 72% 2.0 mph SW3.2 kmh SW 7.0 mph11.3 kmh 30.02 in1016.6 mb 0.00 in0.0 mm 0.00 in/hr0.0 mm/hr 0.05 in1.3 mm
02:37 PM 63.1°F17.3°C 53.9°F12.2°C 72% 2.0 mph SW3.2 kmh SW 7.0 mph11.3 kmh 30.03 in1016.9 mb 0.00 in0.0 mm 0.00 in/hr0.0 mm/hr 0.05 in1.3 mm
02:36 PM 63.1°F17.3°C 53.9°F12.2°C 72% 3.0 mph SW4.8 kmh SW 7.0 mph11.3 kmh 30.03 in1016.9 mb 0.00 in0.0 mm 0.00 in/hr0.0 mm/hr 0.05 in1.3 mm
02:35 PM 63.1°F17.3°C 54.3°F12.4°C 73% 3.0 mph SW4.8 kmh SW 7.0 mph11.3 kmh 30.03 in1016.9 mb 0.00 in0.0 mm 0.00 in/hr0.0 mm/hr 0.05 in1.3 mm
02:34 PM 63.1°F17.3°C 54.3°F12.4°C 73% 3.0 mph SW4.8 kmh SW 7.0 mph11.3 kmh 30.03 in1016.9 mb 0.00 in0.0 mm 0.00 in/hr0.0 mm/hr 0.05 in1.3 mm
02:33 PM 63.1°F17.3°C 53.5°F11.9°C 71% 3.0 mph SW4.8 kmh SW 6.0 mph9.7 kmh 30.03 in1016.9 mb 0.00 in0.0 mm 0.00 in/hr0.0 mm/hr 0.05 in1.3 mm
02:32 PM 63.2°F17.3°C 54.0°F12.2°C 72% 3.0 mph SW4.8 kmh SW 6.0 mph9.7 kmh 30.03 in1016.9 mb 0.00 in0.0 mm 0.00 in/hr0.0 mm/hr 0.05 in1.3 mm
02:31 PM 63.3°F17.4°C 53.7°F12.1°C 71% 3.0 mph SW4.8 kmh SW 6.0 mph9.7 kmh 30.03 in1016.9 mb 0.00 in0.0 mm 0.00 in/hr0.0 mm/hr 0.05 in1.3 mm
02:30 PM 63.3°F17.4°C 54.1°F12.3°C 72% 3.0 mph SW4.8 kmh SW 6.0 mph9.7 kmh 30.03 in1016.9 mb 0.00 in0.0 mm 0.00 in/hr0.0 mm/hr 0.05 in1.3 mm
02:29 PM 63.2°F17.3°C 53.6°F12.0°C 71% 3.0 mph SW4.8 kmh SW 9.0 mph14.5 kmh 30.03 in1016.9 mb 0.00 in0.0 mm 0.00 in/hr0.0 mm/hr 0.05 in1.3 mm
02:28 PM 63.2°F17.3°C 53.3°F11.8°C 70% 3.0 mph SW4.8 kmh SW 9.0 mph14.5 kmh 30.03 in1016.9 mb 0.00 in0.0 mm 0.00 in/hr0.0 mm/hr 0.05 in1.3 mm
02:27 PM 63.3°F17.4°C 53.7°F12.1°C 71% 3.0 mph SW4.8 kmh SW 9.0 mph14.5 kmh 30.03 in1016.9 mb 0.00 in0.0 mm 0.00 in/hr0.0 mm/hr 0.05 in1.3 mm
02:26 PM 63.3°F17.4°C 53.0°F11.7°C 69% 3.0 mph SW4.8 kmh SW 9.0 mph14.5 kmh 30.03 in1016.9 mb 0.00 in0.0 mm 0.00 in/hr0.0 mm/hr 0.05 in1.3 mm
02:25 PM 63.3°F17.4°C 53.7°F12.1°C 71% 2.0 mph SW3.2 kmh SW 9.0 mph14.5 kmh 30.03 in1016.9 mb 0.00 in0.0 mm 0.00 in/hr0.0 mm/hr 0.05 in1.3 mm
02:24 PM 63.3°F17.4°C 53.3°F11.8°C 70% 2.0 mph SW3.2 kmh SW 9.0 mph14.5 kmh 30.03 in1016.9 mb 0.00 in0.0 mm 0.00 in/hr0.0 mm/hr 0.05 in1.3 mm
02:23 PM 63.3°F17.4°C 53.3°F11.8°C 70% 2.0 mph SW3.2 kmh SW 9.0 mph14.5 kmh 30.03 in1016.9 mb 0.00 in0.0 mm 0.00 in/hr0.0 mm/hr 0.05 in1.3 mm
02:22 PM 63.3°F17.4°C 53.3°F11.8°C 70% 2.0 mph SW3.2 kmh SW 9.0 mph14.5 kmh 30.03 in1016.9 mb 0.00 in0.0 mm 0.00 in/hr0.0 mm/hr 0.05 in1.3 mm
02:21 PM 63.4°F17.4°C 53.0°F11.7°C 69% 2.0 mph SW3.2 kmh SW 9.0 mph14.5 kmh 30.03 in1016.9 mb 0.00 in0.0 mm 0.00 in/hr0.0 mm/hr 0.05 in1.3 mm
02:20 PM 63.6°F17.6°C 52.8°F11.6°C 68% 2.0 mph SW3.2 kmh SW 9.0 mph14.5 kmh 30.03 in1016.9 mb 0.00 in0.0 mm 0.00 in/hr0.0 mm/hr 0.05 in1.3 mm
02:19 PM 63.7°F17.6°C 54.1°F12.3°C 71% 2.0 mph SW3.2 kmh SW 6.0 mph9.7 kmh 30.03 in1016.9 mb 0.00 in0.0 mm 0.00 in/hr0.0 mm/hr 0.05 in1.3 mm
02:18 PM 63.7°F17.6°C 54.1°F12.3°C 71% 3.0 mph SW4.8 kmh SW 6.0 mph9.7 kmh 30.03 in1016.9 mb 0.00 in0.0 mm 0.00 in/hr0.0 mm/hr 0.05 in1.3 mm
02:17 PM 63.6°F17.6°C 53.6°F12.0°C 70% 3.0 mph SW4.8 kmh SW 5.0 mph8.0 kmh 30.03 in1016.9 mb 0.00 in0.0 mm 0.00 in/hr0.0 mm/hr 0.05 in1.3 mm
02:16 PM 63.5°F17.5°C 54.3°F12.4°C 72% 3.0 mph SW4.8 kmh SW 5.0 mph8.0 kmh 30.03 in1016.9 mb 0.00 in0.0 mm 0.00 in/hr0.0 mm/hr 0.05 in1.3 mm
02:15 PM 63.5°F17.5°C 54.3°F12.4°C 72% 3.0 mph SW4.8 kmh SW 6.0 mph9.7 kmh 30.03 in1016.9 mb 0.00 in0.0 mm 0.00 in/hr0.0 mm/hr 0.05 in1.3 mm
02:14 PM 63.4°F17.4°C 53.4°F11.9°C 70% 3.0 mph SW4.8 kmh SW 6.0 mph9.7 kmh 30.03 in1016.9 mb 0.00 in0.0 mm 0.00 in/hr0.0 mm/hr 0.05 in1.3 mm
02:13 PM 63.5°F17.5°C 53.1°F11.7°C 69% 3.0 mph SW4.8 kmh SW 6.0 mph9.7 kmh 30.03 in1016.9 mb 0.00 in0.0 mm 0.00 in/hr0.0 mm/hr 0.05 in1.3 mm
02:12 PM 63.5°F17.5°C 52.7°F11.5°C 68% 3.0 mph SW4.8 kmh SW 9.0 mph14.5 kmh 30.03 in1016.9 mb 0.00 in0.0 mm 0.00 in/hr0.0 mm/hr 0.05 in1.3 mm
02:11 PM 63.5°F17.5°C 53.5°F11.9°C 70% 3.0 mph SW4.8 kmh SW 9.0 mph14.5 kmh 30.03 in1016.9 mb 0.00 in0.0 mm 0.00 in/hr0.0 mm/hr 0.05 in1.3 mm
02:10 PM 63.5°F17.5°C 53.5°F11.9°C 70% 3.0 mph SW4.8 kmh SW 9.0 mph14.5 kmh 30.03 in1016.9 mb 0.00 in0.0 mm 0.00 in/hr0.0 mm/hr 0.05 in1.3 mm
02:09 PM 63.5°F17.5°C 53.5°F11.9°C 70% 3.0 mph SW4.8 kmh SW 9.0 mph14.5 kmh 30.03 in1016.9 mb 0.00 in0.0 mm 0.00 in/hr0.0 mm/hr 0.05 in1.3 mm
02:08 PM 63.5°F17.5°C 54.3°F12.4°C 72% 3.0 mph SW4.8 kmh SW 9.0 mph14.5 kmh 30.03 in1016.9 mb 0.00 in0.0 mm 0.00 in/hr0.0 mm/hr 0.05 in1.3 mm
02:07 PM 63.6°F17.6°C 53.6°F12.0°C 70% 3.0 mph SW4.8 kmh SW 9.0 mph14.5 kmh 30.03 in1016.9 mb 0.00 in0.0 mm 0.00 in/hr0.0 mm/hr 0.05 in1.3 mm
02:06 PM 63.6°F17.6°C 53.6°F12.0°C 70% 3.0 mph SW4.8 kmh SW 9.0 mph14.5 kmh 30.03 in1016.9 mb 0.00 in0.0 mm 0.00 in/hr0.0 mm/hr 0.05 in1.3 mm
02:05 PM 63.7°F17.6°C 54.1°F12.3°C 71% 3.0 mph SW4.8 kmh SW 9.0 mph14.5 kmh 30.03 in1016.9 mb 0.00 in0.0 mm 0.00 in/hr0.0 mm/hr 0.05 in1.3 mm
02:04 PM 63.9°F17.7°C 53.5°F11.9°C 69% 3.0 mph SW4.8 kmh SW 9.0 mph14.5 kmh 30.03 in1016.9 mb 0.00 in0.0 mm 0.00 in/hr0.0 mm/hr 0.05 in1.3 mm
02:03 PM 64.1°F17.8°C 55.6°F13.1°C 74% 3.0 mph SW4.8 kmh SW 9.0 mph14.5 kmh 30.02 in1016.6 mb 0.00 in0.0 mm 0.00 in/hr0.0 mm/hr 0.05 in1.3 mm
02:02 PM 64.2°F17.9°C 55.7°F13.2°C 74% 3.0 mph SW4.8 kmh SW 8.0 mph12.9 kmh 30.03 in1016.9 mb 0.00 in0.0 mm 0.00 in/hr0.0 mm/hr 0.05 in1.3 mm
02:01 PM 64.2°F17.9°C 55.7°F13.2°C 74% 4.0 mph SW6.4 kmh SW 8.0 mph12.9 kmh 30.03 in1016.9 mb 0.00 in0.0 mm 0.00 in/hr0.0 mm/hr 0.05 in1.3 mm
02:00 PM 64.1°F17.8°C 54.9°F12.7°C 72% 4.0 mph SW6.4 kmh SW 9.0 mph14.5 kmh 30.02 in1016.6 mb 0.00 in0.0 mm 0.00 in/hr0.0 mm/hr 0.05 in1.3 mm
01:59 PM 64.1°F17.8°C 54.9°F12.7°C 72% 4.0 mph SW6.4 kmh SW 9.0 mph14.5 kmh 30.02 in1016.6 mb 0.00 in0.0 mm 0.00 in/hr0.0 mm/hr 0.05 in1.3 mm
01:58 PM 64.0°F17.8°C 54.4°F12.4°C 71% 4.0 mph SW6.4 kmh SW 9.0 mph14.5 kmh 30.02 in1016.6 mb 0.00 in0.0 mm 0.00 in/hr0.0 mm/hr 0.05 in1.3 mm
01:57 PM 63.9°F17.7°C 54.7°F12.6°C 72% 4.0 mph SW6.4 kmh SW 10.0 mph16.1 kmh 30.02 in1016.6 mb 0.00 in0.0 mm 0.00 in/hr0.0 mm/hr 0.05 in1.3 mm
01:56 PM 63.8°F17.7°C 54.2°F12.3°C 71% 5.0 mph SW8.0 kmh SW 10.0 mph16.1 kmh 30.02 in1016.6 mb 0.00 in0.0 mm 0.00 in/hr0.0 mm/hr 0.05 in1.3 mm
01:55 PM 63.7°F17.6°C 54.5°F12.5°C 72% 5.0 mph SW8.0 kmh SW 10.0 mph16.1 kmh 30.02 in1016.6 mb 0.00 in0.0 mm 0.00 in/hr0.0 mm/hr 0.05 in1.3 mm
01:54 PM 63.7°F17.6°C 53.7°F12.1°C 70% 5.0 mph SW8.0 kmh SW 10.0 mph16.1 kmh 30.02 in1016.6 mb 0.00 in0.0 mm 0.00 in/hr0.0 mm/hr 0.05 in1.3 mm
01:53 PM 63.8°F17.7°C 54.6°F12.6°C 72% 5.0 mph SW8.0 kmh SW 10.0 mph16.1 kmh 30.02 in1016.6 mb 0.00 in0.0 mm 0.00 in/hr0.0 mm/hr 0.05 in1.3 mm
01:52 PM 63.8°F17.7°C 53.8°F12.1°C 70% 5.0 mph SW8.0 kmh SW 10.0 mph16.1 kmh 30.02 in1016.6 mb 0.00 in0.0 mm 0.00 in/hr0.0 mm/hr 0.05 in1.3 mm
01:51 PM 63.9°F17.7°C 54.3°F12.4°C 71% 5.0 mph SW8.0 kmh SW 10.0 mph16.1 kmh 30.02 in1016.6 mb 0.00 in0.0 mm 0.00 in/hr0.0 mm/hr 0.05 in1.3 mm
01:50 PM 63.9°F17.7°C 53.5°F11.9°C 69% 5.0 mph SW8.0 kmh SW 10.0 mph16.1 kmh 30.02 in1016.6 mb 0.00 in0.0 mm 0.00 in/hr0.0 mm/hr 0.05 in1.3 mm
01:49 PM 64.0°F17.8°C 54.0°F12.2°C 70% 5.0 mph SW8.0 kmh SW 10.0 mph16.1 kmh 30.02 in1016.6 mb 0.00 in0.0 mm 0.00 in/hr0.0 mm/hr 0.05 in1.3 mm
01:48 PM 64.0°F17.8°C 54.0°F12.2°C 70% 6.0 mph SW9.7 kmh SW 10.0 mph16.1 kmh 30.02 in1016.6 mb 0.00 in0.0 mm 0.00 in/hr0.0 mm/hr 0.05 in1.3 mm
01:47 PM 64.1°F17.8°C 55.3°F12.9°C 73% 6.0 mph SW9.7 kmh SW 10.0 mph16.1 kmh 30.02 in1016.6 mb 0.00 in0.0 mm 0.00 in/hr0.0 mm/hr 0.05 in1.3 mm
01:46 PM 64.0°F17.8°C 54.0°F12.2°C 70% 6.0 mph SW9.7 kmh SW 10.0 mph16.1 kmh 30.02 in1016.6 mb 0.00 in0.0 mm 0.00 in/hr0.0 mm/hr 0.05 in1.3 mm
01:45 PM 64.0°F17.8°C 54.4°F12.4°C 71% 6.0 mph SW9.7 kmh SW 10.0 mph16.1 kmh 30.02 in1016.6 mb 0.00 in0.0 mm 0.00 in/hr0.0 mm/hr 0.05 in1.3 mm
01:44 PM 63.8°F17.7°C 54.6°F12.6°C 72% 6.0 mph SW9.7 kmh SW 10.0 mph16.1 kmh 30.02 in1016.6 mb 0.00 in0.0 mm 0.00 in/hr0.0 mm/hr 0.05 in1.3 mm
01:43 PM 63.7°F17.6°C 53.7°F12.1°C 70% 6.0 mph SW9.7 kmh SW 12.0 mph19.3 kmh 30.02 in1016.6 mb 0.00 in0.0 mm 0.00 in/hr0.0 mm/hr 0.05 in1.3 mm
01:42 PM 63.9°F17.7°C 53.5°F11.9°C 69% 6.0 mph SW9.7 kmh SW 12.0 mph19.3 kmh 30.02 in1016.6 mb 0.00 in0.0 mm 0.00 in/hr0.0 mm/hr 0.05 in1.3 mm
01:41 PM 64.0°F17.8°C 54.4°F12.4°C 71% 6.0 mph SW9.7 kmh SW 12.0 mph19.3 kmh 30.02 in1016.6 mb 0.00 in0.0 mm 0.00 in/hr0.0 mm/hr 0.05 in1.3 mm
01:40 PM 63.9°F17.7°C 54.7°F12.6°C 72% 5.0 mph SW8.0 kmh SW 12.0 mph19.3 kmh 30.02 in1016.6 mb 0.00 in0.0 mm 0.00 in/hr0.0 mm/hr 0.05 in1.3 mm
01:39 PM 63.8°F17.7°C 54.2°F12.3°C 71% 5.0 mph SW8.0 kmh SW 12.0 mph19.3 kmh 30.02 in1016.6 mb 0.00 in0.0 mm 0.00 in/hr0.0 mm/hr 0.05 in1.3 mm
01:38 PM 63.7°F17.6°C 53.3°F11.8°C 69% 5.0 mph SW8.0 kmh SW 12.0 mph19.3 kmh 30.02 in1016.6 mb 0.00 in0.0 mm 0.00 in/hr0.0 mm/hr 0.05 in1.3 mm
01:37 PM 63.7°F17.6°C 54.1°F12.3°C 71% 4.0 mph SW6.4 kmh SW 12.0 mph19.3 kmh 30.02 in1016.6 mb 0.00 in0.0 mm 0.00 in/hr0.0 mm/hr 0.05 in1.3 mm
01:36 PM 63.7°F17.6°C 53.7°F12.1°C 70% 4.0 mph SW6.4 kmh SW 12.0 mph19.3 kmh 30.02 in1016.6 mb 0.00 in0.0 mm 0.00 in/hr0.0 mm/hr 0.05 in1.3 mm
01:35 PM 63.8°F17.7°C 53.4°F11.9°C 69% 4.0 mph SW6.4 kmh SW 12.0 mph19.3 kmh 30.02 in1016.6 mb 0.00 in0.0 mm 0.00 in/hr0.0 mm/hr 0.05 in1.3 mm
01:34 PM 64.0°F17.8°C 53.6°F12.0°C 69% 3.0 mph SW4.8 kmh SW 12.0 mph19.3 kmh 30.02 in1016.6 mb 0.00 in0.0 mm 0.00 in/hr0.0 mm/hr 0.05 in1.3 mm
01:33 PM 64.1°F17.8°C 54.5°F12.5°C 71% 3.0 mph SW4.8 kmh SW 12.0 mph19.3 kmh 30.02 in1016.6 mb 0.00 in0.0 mm 0.00 in/hr0.0 mm/hr 0.05 in1.3 mm
01:32 PM 64.1°F17.8°C 54.9°F12.7°C 72% 3.0 mph SW4.8 kmh SW 10.0 mph16.1 kmh 30.02 in1016.6 mb 0.00 in0.0 mm 0.00 in/hr0.0 mm/hr 0.05 in1.3 mm
01:31 PM 64.1°F17.8°C 53.7°F12.1°C 69% 2.0 mph SW3.2 kmh SW 10.0 mph16.1 kmh 30.02 in1016.6 mb 0.00 in0.0 mm 0.00 in/hr0.0 mm/hr 0.05 in1.3 mm
01:30 PM 64.2°F17.9°C 53.4°F11.9°C 68% 2.0 mph SW3.2 kmh SW 10.0 mph16.1 kmh 30.02 in1016.6 mb 0.00 in0.0 mm 0.00 in/hr0.0 mm/hr 0.05 in1.3 mm
01:29 PM 64.4°F18.0°C 53.2°F11.8°C 67% 2.0 mph SW3.2 kmh SW 10.0 mph16.1 kmh 30.02 in1016.6 mb 0.00 in0.0 mm 0.00 in/hr0.0 mm/hr 0.05 in1.3 mm
01:28 PM 64.6°F18.1°C 53.0°F11.7°C 66% 2.0 mph SW3.2 kmh SW 10.0 mph16.1 kmh 30.02 in1016.6 mb 0.00 in0.0 mm 0.00 in/hr0.0 mm/hr 0.05 in1.3 mm
01:27 PM 64.7°F18.2°C 54.3°F12.4°C 69% 2.0 mph SW3.2 kmh SW 10.0 mph16.1 kmh 30.02 in1016.6 mb 0.00 in0.0 mm 0.00 in/hr0.0 mm/hr 0.05 in1.3 mm
01:26 PM 64.9°F18.3°C 54.1°F12.3°C 68% 3.0 mph SW4.8 kmh SW 10.0 mph16.1 kmh 30.02 in1016.6 mb 0.00 in0.0 mm 0.00 in/hr0.0 mm/hr 0.05 in1.3 mm
01:25 PM 64.9°F18.3°C 55.3°F12.9°C 71% 3.0 mph SW4.8 kmh SW 6.0 mph9.7 kmh 30.02 in1016.6 mb 0.00 in0.0 mm 0.00 in/hr0.0 mm/hr 0.05 in1.3 mm
01:24 PM 64.8°F18.2°C 55.2°F12.9°C 71% 3.0 mph SW4.8 kmh SW 7.0 mph11.3 kmh 30.02 in1016.6 mb 0.00 in0.0 mm 0.00 in/hr0.0 mm/hr 0.05 in1.3 mm
01:23 PM 64.7°F18.2°C 54.7°F12.6°C 70% 3.0 mph SW4.8 kmh SW 7.0 mph11.3 kmh 30.02 in1016.6 mb 0.00 in0.0 mm 0.00 in/hr0.0 mm/hr 0.05 in1.3 mm
01:22 PM 64.7°F18.2°C 54.3°F12.4°C 69% 3.0 mph SW4.8 kmh SW 7.0 mph11.3 kmh 30.02 in1016.6 mb 0.00 in0.0 mm 0.00 in/hr0.0 mm/hr 0.05 in1.3 mm
01:21 PM 64.8°F18.2°C 54.4°F12.4°C 69% 4.0 mph SW6.4 kmh SW 7.0 mph11.3 kmh 30.02 in1016.6 mb 0.00 in0.0 mm 0.00 in/hr0.0 mm/hr 0.05 in1.3 mm
01:20 PM 64.8°F18.2°C 54.4°F12.4°C 69% 4.0 mph SW6.4 kmh SW 7.0 mph11.3 kmh 30.02 in1016.6 mb 0.00 in0.0 mm 0.00 in/hr0.0 mm/hr 0.05 in1.3 mm
01:19 PM 64.7°F18.2°C 54.3°F12.4°C 69% 4.0 mph SW6.4 kmh SW 7.0 mph11.3 kmh 30.02 in1016.6 mb 0.00 in0.0 mm 0.00 in/hr0.0 mm/hr 0.05 in1.3 mm
01:18 PM 64.6°F18.1°C 55.4°F13.0°C 72% 4.0 mph SW6.4 kmh SW 7.0 mph11.3 kmh 30.02 in1016.6 mb 0.00 in0.0 mm 0.00 in/hr0.0 mm/hr 0.05 in1.3 mm
01:17 PM 64.5°F18.1°C 54.5°F12.5°C 70% 4.0 mph SW6.4 kmh SW 7.0 mph11.3 kmh 30.02 in1016.6 mb 0.00 in0.0 mm 0.00 in/hr0.0 mm/hr 0.05 in1.3 mm
01:16 PM 64.4°F18.0°C 54.4°F12.4°C 70% 4.0 mph SW6.4 kmh SW 9.0 mph14.5 kmh 30.02 in1016.6 mb 0.00 in0.0 mm 0.00 in/hr0.0 mm/hr 0.05 in1.3 mm
01:15 PM 64.2°F17.9°C 54.2°F12.3°C 70% 4.0 mph SW6.4 kmh SW 9.0 mph14.5 kmh 30.02 in1016.6 mb 0.00 in0.0 mm 0.00 in/hr0.0 mm/hr 0.05 in1.3 mm
01:14 PM 64.1°F17.8°C 54.9°F12.7°C 72% 3.0 mph SW4.8 kmh SW 9.0 mph14.5 kmh 30.02 in1016.6 mb 0.00 in0.0 mm 0.00 in/hr0.0 mm/hr 0.05 in1.3 mm
01:13 PM 63.9°F17.7°C 53.1°F11.7°C 68% 3.0 mph SW4.8 kmh SW 9.0 mph14.5 kmh 30.02 in1016.6 mb 0.00 in0.0 mm 0.00 in/hr0.0 mm/hr 0.05 in1.3 mm
01:12 PM 63.7°F17.6°C 52.9°F11.6°C 68% 3.0 mph SW4.8 kmh SW 9.0 mph14.5 kmh 30.02 in1016.6 mb 0.00 in0.0 mm 0.00 in/hr0.0 mm/hr 0.05 in1.3 mm
01:11 PM 63.7°F17.6°C 52.9°F11.6°C 68% 3.0 mph SW4.8 kmh SW 9.0 mph14.5 kmh 30.02 in1016.6 mb 0.00 in0.0 mm 0.00 in/hr0.0 mm/hr 0.05 in1.3 mm
01:10 PM 63.7°F17.6°C 52.5°F11.4°C 67% 3.0 mph SW4.8 kmh SW 9.0 mph14.5 kmh 30.02 in1016.6 mb 0.00 in0.0 mm 0.00 in/hr0.0 mm/hr 0.05 in1.3 mm
01:09 PM 63.8°F17.7°C 53.0°F11.7°C 68% 3.0 mph SW4.8 kmh SW 9.0 mph14.5 kmh 30.02 in1016.6 mb 0.00 in0.0 mm 0.00 in/hr0.0 mm/hr 0.05 in1.3 mm
01:08 PM 63.8°F17.7°C 52.6°F11.4°C 67% 3.0 mph SW4.8 kmh SW 9.0 mph14.5 kmh 30.02 in1016.6 mb 0.00 in0.0 mm 0.00 in/hr0.0 mm/hr 0.05 in1.3 mm
01:07 PM 63.7°F17.6°C 54.1°F12.3°C 71% 3.0 mph SW4.8 kmh SW 9.0 mph14.5 kmh 30.03 in1016.9 mb 0.00 in0.0 mm 0.00 in/hr0.0 mm/hr 0.05 in1.3 mm
01:06 PM 63.6°F17.6°C 54.4°F12.4°C 72% 3.0 mph SW4.8 kmh SW 9.0 mph14.5 kmh 30.03 in1016.9 mb 0.00 in0.0 mm 0.00 in/hr0.0 mm/hr 0.05 in1.3 mm
01:05 PM 63.5°F17.5°C 55.4°F13.0°C 75% 3.0 mph SW4.8 kmh SW 9.0 mph14.5 kmh 30.02 in1016.6 mb 0.00 in0.0 mm 0.00 in/hr0.0 mm/hr 0.05 in1.3 mm
01:04 PM 63.3°F17.4°C 54.1°F12.3°C 72% 3.0 mph SW4.8 kmh SW 7.0 mph11.3 kmh 30.03 in1016.9 mb 0.00 in0.0 mm 0.00 in/hr0.0 mm/hr 0.05 in1.3 mm
01:03 PM 63.1°F17.3°C 53.9°F12.2°C 72% 4.0 mph SW6.4 kmh SW 7.0 mph11.3 kmh 30.03 in1016.9 mb 0.00 in0.0 mm 0.00 in/hr0.0 mm/hr 0.05 in1.3 mm
01:02 PM 63.0°F17.2°C 53.1°F11.7°C 70% 4.0 mph SW6.4 kmh SW 7.0 mph11.3 kmh 30.03 in1016.9 mb 0.00 in0.0 mm 0.00 in/hr0.0 mm/hr 0.05 in1.3 mm
01:01 PM 62.9°F17.2°C 53.7°F12.1°C 72% 4.0 mph SW6.4 kmh SW 8.0 mph12.9 kmh 30.03 in1016.9 mb 0.00 in0.0 mm 0.00 in/hr0.0 mm/hr 0.05 in1.3 mm
01:00 PM 62.9°F17.2°C 54.1°F12.3°C 73% 4.0 mph SW6.4 kmh SW 8.0 mph12.9 kmh 30.03 in1016.9 mb 0.00 in0.0 mm 0.00 in/hr0.0 mm/hr 0.05 in1.3 mm
12:59 PM 62.8°F17.1°C 54.0°F12.2°C 73% 4.0 mph SW6.4 kmh SW 8.0 mph12.9 kmh 30.03 in1016.9 mb 0.00 in0.0 mm 0.00 in/hr0.0 mm/hr 0.05 in1.3 mm
12:58 PM 62.7°F17.1°C 53.9°F12.2°C 73% 3.0 mph SW4.8 kmh SW 8.0 mph12.9 kmh 30.03 in1016.9 mb 0.00 in0.0 mm 0.00 in/hr0.0 mm/hr 0.05 in1.3 mm
12:57 PM 62.6°F17.0°C 53.8°F12.1°C 73% 3.0 mph SW4.8 kmh SW 8.0 mph12.9 kmh 30.03 in1016.9 mb 0.00 in0.0 mm 0.00 in/hr0.0 mm/hr 0.05 in1.3 mm
12:56 PM 62.7°F17.1°C 53.5°F11.9°C 72% 3.0 mph SW4.8 kmh SW 8.0 mph12.9 kmh 30.03 in1016.9 mb 0.00 in0.0 mm 0.00 in/hr0.0 mm/hr 0.05 in1.3 mm
12:55 PM 62.9°F17.2°C 52.6°F11.4°C 69% 3.0 mph SW4.8 kmh SW 8.0 mph12.9 kmh 30.03 in1016.9 mb 0.00 in0.0 mm 0.00 in/hr0.0 mm/hr 0.05 in1.3 mm
12:54 PM 63.1°F17.3°C 52.4°F11.3°C 68% 3.0 mph SW4.8 kmh SW 8.0 mph12.9 kmh 30.03 in1016.9 mb 0.00 in0.0 mm 0.00 in/hr0.0 mm/hr 0.05 in1.3 mm
12:53 PM 63.5°F17.5°C 53.1°F11.7°C 69% 2.0 mph SW3.2 kmh SW 8.0 mph12.9 kmh 30.03 in1016.9 mb 0.00 in0.0 mm 0.00 in/hr0.0 mm/hr 0.05 in1.3 mm
12:52 PM 63.8°F17.7°C 53.0°F11.7°C 68% 2.0 mph SW3.2 kmh SW 8.0 mph12.9 kmh 30.03 in1016.9 mb 0.00 in0.0 mm 0.00 in/hr0.0 mm/hr 0.05 in1.3 mm
12:51 PM 64.0°F17.8°C 54.0°F12.2°C 70% 2.0 mph SW3.2 kmh SW 8.0 mph12.9 kmh 30.03 in1016.9 mb 0.00 in0.0 mm 0.00 in/hr0.0 mm/hr 0.05 in1.3 mm
12:50 PM 64.2°F17.9°C 54.6°F12.6°C 71% 2.0 mph SW3.2 kmh SW 8.0 mph12.9 kmh 30.03 in1016.9 mb 0.00 in0.0 mm 0.00 in/hr0.0 mm/hr 0.05 in1.3 mm
12:49 PM 64.2°F17.9°C 55.4°F13.0°C 73% 2.0 mph SW3.2 kmh SW 8.0 mph12.9 kmh 30.03 in1016.9 mb 0.00 in0.0 mm 0.00 in/hr0.0 mm/hr 0.05 in1.3 mm
12:48 PM 64.0°F17.8°C 56.3°F13.5°C 76% 2.0 mph SW3.2 kmh SW 6.0 mph9.7 kmh 30.03 in1016.9 mb 0.00 in0.0 mm 0.00 in/hr0.0 mm/hr 0.05 in1.3 mm
12:47 PM 63.9°F17.7°C 55.8°F13.2°C 75% 2.0 mph SW3.2 kmh SW 6.0 mph9.7 kmh 30.03 in1016.9 mb 0.00 in0.0 mm 0.00 in/hr0.0 mm/hr 0.05 in1.3 mm
12:46 PM 63.8°F17.7°C 54.6°F12.6°C 72% 2.0 mph SW3.2 kmh SW 6.0 mph9.7 kmh 30.03 in1016.9 mb 0.00 in0.0 mm 0.00 in/hr0.0 mm/hr 0.05 in1.3 mm
12:45 PM 63.8°F17.7°C 55.4°F13.0°C 74% 2.0 mph SW3.2 kmh SW 6.0 mph9.7 kmh 30.03 in1016.9 mb 0.00 in0.0 mm 0.00 in/hr0.0 mm/hr 0.05 in1.3 mm
12:44 PM 63.7°F17.6°C 53.3°F11.8°C 69% 2.0 mph SW3.2 kmh SW 5.0 mph8.0 kmh 30.03 in1016.9 mb 0.00 in0.0 mm 0.00 in/hr0.0 mm/hr 0.05 in1.3 mm
12:43 PM 63.6°F17.6°C 54.0°F12.2°C 71% 3.0 mph SW4.8 kmh SW 5.0 mph8.0 kmh 30.03 in1016.9 mb 0.00 in0.0 mm 0.00 in/hr0.0 mm/hr 0.05 in1.3 mm
12:42 PM 63.5°F17.5°C 54.7°F12.6°C 73% 3.0 mph SW4.8 kmh SW 5.0 mph8.0 kmh 30.03 in1016.9 mb 0.00 in0.0 mm 0.00 in/hr0.0 mm/hr 0.05 in1.3 mm
12:41 PM 63.3°F17.4°C 54.1°F12.3°C 72% 3.0 mph SW4.8 kmh SW 5.0 mph8.0 kmh 30.03 in1016.9 mb 0.00 in0.0 mm 0.00 in/hr0.0 mm/hr 0.05 in1.3 mm
12:40 PM 63.2°F17.3°C 53.6°F12.0°C 71% 3.0 mph SW4.8 kmh SW 5.0 mph8.0 kmh 30.03 in1016.9 mb 0.00 in0.0 mm 0.00 in/hr0.0 mm/hr 0.05 in1.3 mm
12:39 PM 63.1°F17.3°C 53.5°F11.9°C 71% 3.0 mph SW4.8 kmh SW 5.0 mph8.0 kmh 30.03 in1016.9 mb 0.00 in0.0 mm 0.00 in/hr0.0 mm/hr 0.05 in1.3 mm
12:38 PM 63.0°F17.2°C 54.9°F12.7°C 75% 3.0 mph SW4.8 kmh SW 5.0 mph8.0 kmh 30.03 in1016.9 mb 0.00 in0.0 mm 0.00 in/hr0.0 mm/hr 0.05 in1.3 mm
12:37 PM 62.9°F17.2°C 54.9°F12.7°C 75% 2.0 mph SW3.2 kmh SW 5.0 mph8.0 kmh 30.03 in1016.9 mb 0.00 in0.0 mm 0.00 in/hr0.0 mm/hr 0.05 in1.3 mm
12:36 PM 62.8°F17.1°C 53.6°F12.0°C 72% 2.0 mph SW3.2 kmh SW 5.0 mph8.0 kmh 30.03 in1016.9 mb 0.00 in0.0 mm 0.00 in/hr0.0 mm/hr 0.05 in1.3 mm
12:35 PM 62.8°F17.1°C 52.9°F11.6°C 70% 2.0 mph SW3.2 kmh SW 5.0 mph8.0 kmh 30.03 in1016.9 mb 0.00 in0.0 mm 0.00 in/hr0.0 mm/hr 0.05 in1.3 mm
12:34 PM 62.8°F17.1°C 53.3°F11.8°C 71% 2.0 mph SW3.2 kmh SW 5.0 mph8.0 kmh 30.03 in1016.9 mb 0.00 in0.0 mm 0.00 in/hr0.0 mm/hr 0.05 in1.3 mm
12:33 PM 62.8°F17.1°C 53.6°F12.0°C 72% 2.0 mph SW3.2 kmh SW 5.0 mph8.0 kmh 30.03 in1016.9 mb 0.00 in0.0 mm 0.00 in/hr0.0 mm/hr 0.05 in1.3 mm
12:32 PM 62.8°F17.1°C 53.3°F11.8°C 71% 2.0 mph SW3.2 kmh SW 5.0 mph8.0 kmh 30.03 in1016.9 mb 0.00 in0.0 mm 0.00 in/hr0.0 mm/hr 0.05 in1.3 mm
12:31 PM 62.8°F17.1°C 53.3°F11.8°C 71% 2.0 mph SW3.2 kmh SW 5.0 mph8.0 kmh 30.03 in1016.9 mb 0.00 in0.0 mm 0.00 in/hr0.0 mm/hr 0.05 in1.3 mm
12:30 PM 62.8°F17.1°C 54.4°F12.4°C 74% 2.0 mph SW3.2 kmh SW 5.0 mph8.0 kmh 30.03 in1016.9 mb 0.00 in0.0 mm 0.00 in/hr0.0 mm/hr 0.05 in1.3 mm
12:29 PM 62.8°F17.1°C 53.6°F12.0°C 72% 2.0 mph SW3.2 kmh SW 5.0 mph8.0 kmh 30.03 in1016.9 mb 0.00 in0.0 mm 0.00 in/hr0.0 mm/hr 0.05 in1.3 mm
12:28 PM 62.8°F17.1°C 53.6°F12.0°C 72% 2.0 mph SW3.2 kmh SW 5.0 mph8.0 kmh 30.03 in1016.9 mb 0.00 in0.0 mm 0.00 in/hr0.0 mm/hr 0.05 in1.3 mm
12:27 PM 62.6°F17.0°C 53.4°F11.9°C 72% 2.0 mph SW3.2 kmh SW 5.0 mph8.0 kmh 30.03 in1016.9 mb 0.00 in0.0 mm 0.00 in/hr0.0 mm/hr 0.05 in1.3 mm
12:26 PM 62.6°F17.0°C 52.3°F11.3°C 69% 2.0 mph WSW3.2 kmh WSW 5.0 mph8.0 kmh 30.03 in1016.9 mb 0.00 in0.0 mm 0.00 in/hr0.0 mm/hr 0.05 in1.3 mm
12:25 PM 62.7°F17.1°C 52.4°F11.3°C 69% 2.0 mph WSW3.2 kmh WSW 5.0 mph8.0 kmh 30.03 in1016.9 mb 0.00 in0.0 mm 0.00 in/hr0.0 mm/hr 0.05 in1.3 mm
12:24 PM 62.8°F17.1°C 53.6°F12.0°C 72% 2.0 mph SW3.2 kmh SW 5.0 mph8.0 kmh 30.03 in1016.9 mb 0.00 in0.0 mm 0.00 in/hr0.0 mm/hr 0.05 in1.3 mm
12:23 PM 62.8°F17.1°C 54.0°F12.2°C 73% 2.0 mph SW3.2 kmh SW 5.0 mph8.0 kmh 30.03 in1016.9 mb 0.00 in0.0 mm 0.00 in/hr0.0 mm/hr 0.05 in1.3 mm
12:22 PM 62.9°F17.2°C 53.4°F11.9°C 71% 2.0 mph SW3.2 kmh SW 5.0 mph8.0 kmh 30.03 in1016.9 mb 0.00 in0.0 mm 0.00 in/hr0.0 mm/hr 0.05 in1.3 mm
12:21 PM 62.8°F17.1°C 54.0°F12.2°C 73% 2.0 mph SW3.2 kmh SW 5.0 mph8.0 kmh 30.03 in1016.9 mb 0.00 in0.0 mm 0.00 in/hr0.0 mm/hr 0.05 in1.3 mm
12:20 PM 62.7°F17.1°C 53.5°F11.9°C 72% 2.0 mph SW3.2 kmh SW 5.0 mph8.0 kmh 30.03 in1016.9 mb 0.00 in0.0 mm 0.00 in/hr0.0 mm/hr 0.05 in1.3 mm
12:19 PM 62.6°F17.0°C 54.6°F12.6°C 75% 2.0 mph SW3.2 kmh SW 5.0 mph8.0 kmh 30.03 in1016.9 mb 0.00 in0.0 mm 0.00 in/hr0.0 mm/hr 0.05 in1.3 mm
12:18 PM 62.4°F16.9°C 54.0°F12.2°C 74% 2.0 mph SW3.2 kmh SW 6.0 mph9.7 kmh 30.03 in1016.9 mb 0.00 in0.0 mm 0.00 in/hr0.0 mm/hr 0.05 in1.3 mm
12:17 PM 62.2°F16.8°C 53.8°F12.1°C 74% 2.0 mph SW3.2 kmh SW 7.0 mph11.3 kmh 30.03 in1016.9 mb 0.00 in0.0 mm 0.00 in/hr0.0 mm/hr 0.05 in1.3 mm
12:16 PM 62.0°F16.7°C 53.6°F12.0°C 74% 2.0 mph SW3.2 kmh SW 7.0 mph11.3 kmh 30.03 in1016.9 mb 0.00 in0.0 mm 0.00 in/hr0.0 mm/hr 0.05 in1.3 mm
12:15 PM 62.0°F16.7°C 52.5°F11.4°C 71% 2.0 mph SW3.2 kmh SW 7.0 mph11.3 kmh 30.03 in1016.9 mb 0.00 in0.0 mm 0.00 in/hr0.0 mm/hr 0.05 in1.3 mm
12:14 PM 62.0°F16.7°C 52.1°F11.2°C 70% 2.0 mph SW3.2 kmh SW 7.0 mph11.3 kmh 30.04 in1017.3 mb 0.00 in0.0 mm 0.00 in/hr0.0 mm/hr 0.05 in1.3 mm
12:13 PM 62.1°F16.7°C 53.3°F11.8°C 73% 2.0 mph SW3.2 kmh SW 7.0 mph11.3 kmh 30.04 in1017.3 mb 0.00 in0.0 mm 0.00 in/hr0.0 mm/hr 0.05 in1.3 mm
12:12 PM 62.2°F16.8°C 52.3°F11.3°C 70% 1.0 mph SW1.6 kmh SW 7.0 mph11.3 kmh 30.04 in1017.3 mb 0.00 in0.0 mm 0.00 in/hr0.0 mm/hr 0.05 in1.3 mm
12:11 PM 62.4°F16.9°C 52.9°F11.6°C 71% 1.0 mph SW1.6 kmh SW 7.0 mph11.3 kmh 30.04 in1017.3 mb 0.00 in0.0 mm 0.00 in/hr0.0 mm/hr 0.05 in1.3 mm
12:10 PM 62.6°F17.0°C 53.1°F11.7°C 71% 1.0 mph SW1.6 kmh SW 7.0 mph11.3 kmh 30.04 in1017.3 mb 0.00 in0.0 mm 0.00 in/hr0.0 mm/hr 0.05 in1.3 mm
12:09 PM 62.7°F17.1°C 54.3°F12.4°C 74% 1.0 mph SW1.6 kmh SW 7.0 mph11.3 kmh 30.03 in1016.9 mb 0.00 in0.0 mm 0.00 in/hr0.0 mm/hr 0.05 in1.3 mm
12:08 PM 62.8°F17.1°C 54.8°F12.7°C 75% 1.0 mph SW1.6 kmh SW 7.0 mph11.3 kmh 30.04 in1017.3 mb 0.00 in0.0 mm 0.00 in/hr0.0 mm/hr 0.05 in1.3 mm
12:07 PM 62.8°F17.1°C 54.4°F12.4°C 74% 1.0 mph SW1.6 kmh SW 5.0 mph8.0 kmh 30.04 in1017.3 mb 0.00 in0.0 mm 0.00 in/hr0.0 mm/hr 0.05 in1.3 mm
12:06 PM 62.8°F17.1°C 54.0°F12.2°C 73% 1.0 mph SW1.6 kmh SW 5.0 mph8.0 kmh 30.04 in1017.3 mb 0.00 in0.0 mm 0.00 in/hr0.0 mm/hr 0.05 in1.3 mm
12:05 PM 62.9°F17.2°C 53.0°F11.7°C 70% 1.0 mph SW1.6 kmh SW 5.0 mph8.0 kmh 30.04 in1017.3 mb 0.00 in0.0 mm 0.00 in/hr0.0 mm/hr 0.05 in1.3 mm
12:04 PM 63.1°F17.3°C 53.2°F11.8°C 70% 2.0 mph SW3.2 kmh SW 5.0 mph8.0 kmh 30.03 in1016.9 mb 0.00 in0.0 mm 0.00 in/hr0.0 mm/hr 0.05 in1.3 mm
12:03 PM 63.3°F17.4°C 54.5°F12.5°C 73% 2.0 mph SSW3.2 kmh SSW 5.0 mph8.0 kmh 30.03 in1016.9 mb 0.00 in0.0 mm 0.00 in/hr0.0 mm/hr 0.05 in1.3 mm
12:02 PM 63.3°F17.4°C 54.9°F12.7°C 74% 2.0 mph SSW3.2 kmh SSW 5.0 mph8.0 kmh 30.03 in1016.9 mb 0.00 in0.0 mm 0.00 in/hr0.0 mm/hr 0.05 in1.3 mm
12:01 PM 63.3°F17.4°C 54.5°F12.5°C 73% 2.0 mph SSW3.2 kmh SSW 5.0 mph8.0 kmh 30.03 in1016.9 mb 0.00 in0.0 mm 0.00 in/hr0.0 mm/hr 0.05 in1.3 mm
12:00 PM 63.2°F17.3°C 54.4°F12.4°C 73% 2.0 mph SSW3.2 kmh SSW 5.0 mph8.0 kmh 30.03 in1016.9 mb 0.00 in0.0 mm 0.00 in/hr0.0 mm/hr 0.05 in1.3 mm
11:59 AM 63.1°F17.3°C 55.4°F13.0°C 76% 2.0 mph SW3.2 kmh SW 5.0 mph8.0 kmh 30.03 in1016.9 mb 0.00 in0.0 mm 0.00 in/hr0.0 mm/hr 0.05 in1.3 mm
11:58 AM 62.9°F17.2°C 55.2°F12.9°C 76% 2.0 mph SW3.2 kmh SW 5.0 mph8.0 kmh 30.03 in1016.9 mb 0.00 in0.0 mm 0.00 in/hr0.0 mm/hr 0.05 in1.3 mm
11:57 AM 62.7°F17.1°C 53.9°F12.2°C 73% 1.0 mph SW1.6 kmh SW 5.0 mph8.0 kmh 30.03 in1016.9 mb 0.00 in0.0 mm 0.00 in/hr0.0 mm/hr 0.05 in1.3 mm
11:56 AM 62.5°F16.9°C 54.1°F12.3°C 74% 1.0 mph SW1.6 kmh SW 5.0 mph8.0 kmh 30.03 in1016.9 mb 0.00 in0.0 mm 0.00 in/hr0.0 mm/hr 0.05 in1.3 mm
11:55 AM 62.4°F16.9°C 52.9°F11.6°C 71% 1.0 mph SW1.6 kmh SW 5.0 mph8.0 kmh 30.03 in1016.9 mb 0.00 in0.0 mm 0.00 in/hr0.0 mm/hr 0.05 in1.3 mm
11:54 AM 62.4°F16.9°C 53.6°F12.0°C 73% 1.0 mph SW1.6 kmh SW 5.0 mph8.0 kmh 30.03 in1016.9 mb 0.00 in0.0 mm 0.00 in/hr0.0 mm/hr 0.05 in1.3 mm
11:53 AM 62.4°F16.9°C 54.7°F12.6°C 76% 1.0 mph SW1.6 kmh SW 5.0 mph8.0 kmh 30.03 in1016.9 mb 0.00 in0.0 mm 0.00 in/hr0.0 mm/hr 0.05 in1.3 mm
11:52 AM 62.3°F16.8°C 53.2°F11.8°C 72% Calm Calm 5.0 mph8.0 kmh 30.03 in1016.9 mb 0.00 in0.0 mm 0.00 in/hr0.0 mm/hr 0.05 in1.3 mm
11:51 AM 62.4°F16.9°C 52.5°F11.4°C 70% 1.0 mph WSW1.6 kmh WSW 5.0 mph8.0 kmh 30.03 in1016.9 mb 0.00 in0.0 mm 0.00 in/hr0.0 mm/hr 0.05 in1.3 mm
11:50 AM 62.6°F17.0°C 53.4°F11.9°C 72% Calm Calm 5.0 mph8.0 kmh 30.03 in1016.9 mb 0.00 in0.0 mm 0.00 in/hr0.0 mm/hr 0.05 in1.3 mm
11:49 AM 62.7°F17.1°C 53.2°F11.8°C 71% Calm Calm 2.0 mph3.2 kmh 30.03 in1016.9 mb 0.00 in0.0 mm 0.00 in/hr0.0 mm/hr 0.05 in1.3 mm
11:48 AM 62.7°F17.1°C 53.2°F11.8°C 71% Calm Calm 2.0 mph3.2 kmh 30.03 in1016.9 mb 0.00 in0.0 mm 0.00 in/hr0.0 mm/hr 0.05 in1.3 mm
11:47 AM 62.7°F17.1°C 52.4°F11.3°C 69% 1.0 mph W1.6 kmh W 2.0 mph3.2 kmh 30.03 in1016.9 mb 0.00 in0.0 mm 0.00 in/hr0.0 mm/hr 0.05 in1.3 mm
11:46 AM 62.7°F17.1°C 52.4°F11.3°C 69% 1.0 mph WSW1.6 kmh WSW 2.0 mph3.2 kmh 30.03 in1016.9 mb 0.00 in0.0 mm 0.00 in/hr0.0 mm/hr 0.05 in1.3 mm
11:45 AM 62.7°F17.1°C 52.8°F11.6°C 70% 1.0 mph WSW1.6 kmh WSW 2.0 mph3.2 kmh 30.03 in1016.9 mb 0.00 in0.0 mm 0.00 in/hr0.0 mm/hr 0.05 in1.3 mm
11:44 AM 62.6°F17.0°C 53.4°F11.9°C 72% 1.0 mph WSW1.6 kmh WSW 2.0 mph3.2 kmh 30.03 in1016.9 mb 0.00 in0.0 mm 0.00 in/hr0.0 mm/hr 0.05 in1.3 mm
11:43 AM 62.4°F16.9°C 52.9°F11.6°C 71% 1.0 mph WSW1.6 kmh WSW 2.0 mph3.2 kmh 30.03 in1016.9 mb 0.00 in0.0 mm 0.00 in/hr0.0 mm/hr 0.05 in1.3 mm
11:42 AM 62.3°F16.8°C 54.3°F12.4°C 75% 1.0 mph SW1.6 kmh SW 3.0 mph4.8 kmh 30.04 in1017.3 mb 0.00 in0.0 mm 0.00 in/hr0.0 mm/hr 0.05 in1.3 mm
11:41 AM 62.1°F16.7°C 53.3°F11.8°C 73% 1.0 mph WSW1.6 kmh WSW 3.0 mph4.8 kmh 30.04 in1017.3 mb 0.00 in0.0 mm 0.00 in/hr0.0 mm/hr 0.05 in1.3 mm
11:40 AM 62.0°F16.7°C 53.2°F11.8°C 73% 1.0 mph WSW1.6 kmh WSW 4.0 mph6.4 kmh 30.04 in1017.3 mb 0.00 in0.0 mm 0.00 in/hr0.0 mm/hr 0.05 in1.3 mm
11:39 AM 61.9°F16.6°C 53.1°F11.7°C 73% 1.0 mph WSW1.6 kmh WSW 4.0 mph6.4 kmh 30.04 in1017.3 mb 0.00 in0.0 mm 0.00 in/hr0.0 mm/hr 0.05 in1.3 mm
11:38 AM 61.8°F16.6°C 53.1°F11.7°C 73% 1.0 mph WSW1.6 kmh WSW 4.0 mph6.4 kmh 30.04 in1017.3 mb 0.00 in0.0 mm 0.00 in/hr0.0 mm/hr 0.05 in1.3 mm
11:37 AM 61.7°F16.5°C 52.6°F11.4°C 72% 1.0 mph WSW1.6 kmh WSW 4.0 mph6.4 kmh 30.04 in1017.3 mb 0.00 in0.0 mm 0.00 in/hr0.0 mm/hr 0.05 in1.3 mm
11:36 AM 61.7°F16.5°C 53.3°F11.8°C 74% 1.0 mph SW1.6 kmh SW 4.0 mph6.4 kmh 30.04 in1017.3 mb 0.00 in0.0 mm 0.00 in/hr0.0 mm/hr 0.05 in1.3 mm
11:35 AM 61.6°F16.4°C 53.2°F11.8°C 74% 1.0 mph SW1.6 kmh SW 4.0 mph6.4 kmh 30.04 in1017.3 mb 0.00 in0.0 mm 0.00 in/hr0.0 mm/hr 0.05 in1.3 mm
11:34 AM 61.6°F16.4°C 52.5°F11.4°C 72% 1.0 mph SW1.6 kmh SW 4.0 mph6.4 kmh 30.04 in1017.3 mb 0.00 in0.0 mm 0.00 in/hr0.0 mm/hr 0.05 in1.3 mm
11:33 AM 61.7°F16.5°C 52.2°F11.2°C 71% 1.0 mph SW1.6 kmh SW 4.0 mph6.4 kmh 30.04 in1017.3 mb 0.00 in0.0 mm 0.00 in/hr0.0 mm/hr 0.05 in1.3 mm
11:32 AM 61.9°F16.6°C 52.8°F11.6°C 72% 1.0 mph SW1.6 kmh SW 4.0 mph6.4 kmh 30.04 in1017.3 mb 0.00 in0.0 mm 0.00 in/hr0.0 mm/hr 0.05 in1.3 mm
11:31 AM 62.1°F16.7°C 53.0°F11.7°C 72% 1.0 mph SW1.6 kmh SW 4.0 mph6.4 kmh 30.04 in1017.3 mb 0.00 in0.0 mm 0.00 in/hr0.0 mm/hr 0.05 in1.3 mm
11:30 AM 62.1°F16.7°C 54.1°F12.3°C 75% 1.0 mph SW1.6 kmh SW 4.0 mph6.4 kmh 30.04 in1017.3 mb 0.00 in0.0 mm 0.00 in/hr0.0 mm/hr 0.05 in1.3 mm
11:29 AM 62.0°F16.7°C 52.5°F11.4°C 71% 1.0 mph SW1.6 kmh SW 4.0 mph6.4 kmh 30.04 in1017.3 mb 0.00 in0.0 mm 0.00 in/hr0.0 mm/hr 0.05 in1.3 mm
11:28 AM 62.0°F16.7°C 54.0°F12.2°C 75% 1.0 mph SW1.6 kmh SW 4.0 mph6.4 kmh 30.04 in1017.3 mb 0.00 in0.0 mm 0.00 in/hr0.0 mm/hr 0.05 in1.3 mm
11:27 AM 62.0°F16.7°C 53.2°F11.8°C 73% 1.0 mph SW1.6 kmh SW 4.0 mph6.4 kmh 30.04 in1017.3 mb 0.00 in0.0 mm 0.00 in/hr0.0 mm/hr 0.05 in1.3 mm
11:26 AM 61.9°F16.6°C 53.5°F11.9°C 74% 2.0 mph SW3.2 kmh SW 4.0 mph6.4 kmh 30.04 in1017.3 mb 0.00 in0.0 mm 0.00 in/hr0.0 mm/hr 0.05 in1.3 mm
11:25 AM 61.8°F16.6°C 53.1°F11.7°C 73% 2.0 mph SW3.2 kmh SW 4.0 mph6.4 kmh 30.04 in1017.3 mb 0.00 in0.0 mm 0.00 in/hr0.0 mm/hr 0.05 in1.3 mm
11:24 AM 61.8°F16.6°C 53.8°F12.1°C 75% 2.0 mph SW3.2 kmh SW 5.0 mph8.0 kmh 30.04 in1017.3 mb 0.00 in0.0 mm 0.00 in/hr0.0 mm/hr 0.05 in1.3 mm
11:23 AM 61.8°F16.6°C 53.1°F11.7°C 73% 2.0 mph SW3.2 kmh SW 5.0 mph8.0 kmh 30.04 in1017.3 mb 0.00 in0.0 mm 0.00 in/hr0.0 mm/hr 0.05 in1.3 mm
11:22 AM 61.7°F16.5°C 53.7°F12.1°C 75% 2.0 mph SW3.2 kmh SW 5.0 mph8.0 kmh 30.04 in1017.3 mb 0.00 in0.0 mm 0.00 in/hr0.0 mm/hr 0.05 in1.3 mm
11:21 AM 61.6°F16.4°C 53.6°F12.0°C 75% 2.0 mph SW3.2 kmh SW 6.0 mph9.7 kmh 30.04 in1017.3 mb 0.00 in0.0 mm 0.00 in/hr0.0 mm/hr 0.05 in1.3 mm
11:20 AM 61.5°F16.4°C 53.9°F12.2°C 76% 2.0 mph SW3.2 kmh SW 6.0 mph9.7 kmh 30.04 in1017.3 mb 0.00 in0.0 mm 0.00 in/hr0.0 mm/hr 0.05 in1.3 mm
11:19 AM 61.2°F16.2°C 52.8°F11.6°C 74% 1.0 mph SW1.6 kmh SW 6.0 mph9.7 kmh 30.04 in1017.3 mb 0.00 in0.0 mm 0.00 in/hr0.0 mm/hr 0.05 in1.3 mm
11:18 AM 61.1°F16.2°C 52.0°F11.1°C 72% 1.0 mph SW1.6 kmh SW 6.0 mph9.7 kmh 30.04 in1017.3 mb 0.00 in0.0 mm 0.00 in/hr0.0 mm/hr 0.05 in1.3 mm
11:17 AM 61.0°F16.1°C 52.3°F11.3°C 73% 1.0 mph SW1.6 kmh SW 6.0 mph9.7 kmh 30.04 in1017.3 mb 0.00 in0.0 mm 0.00 in/hr0.0 mm/hr 0.05 in1.3 mm
11:16 AM 61.0°F16.1°C 51.9°F11.1°C 72% 1.0 mph SW1.6 kmh SW 6.0 mph9.7 kmh 30.04 in1017.3 mb 0.00 in0.0 mm 0.00 in/hr0.0 mm/hr 0.05 in1.3 mm
11:15 AM 61.1°F16.2°C 52.0°F11.1°C 72% 1.0 mph SW1.6 kmh SW 6.0 mph9.7 kmh 30.04 in1017.3 mb 0.01 in0.3 mm 0.00 in/hr0.0 mm/hr 0.05 in1.3 mm
11:14 AM 61.3°F16.3°C 52.2°F11.2°C 72% 1.0 mph SW1.6 kmh SW 6.0 mph9.7 kmh 30.04 in1017.3 mb 0.01 in0.3 mm 0.00 in/hr0.0 mm/hr 0.05 in1.3 mm
11:13 AM 61.3°F16.3°C 52.2°F11.2°C 72% 1.0 mph SW1.6 kmh SW 6.0 mph9.7 kmh 30.04 in1017.3 mb 0.01 in0.3 mm 0.00 in/hr0.0 mm/hr 0.05 in1.3 mm
11:12 AM 61.4°F16.3°C 52.3°F11.3°C 72% 2.0 mph SW3.2 kmh SW 6.0 mph9.7 kmh 30.04 in1017.3 mb 0.01 in0.3 mm 0.00 in/hr0.0 mm/hr 0.05 in1.3 mm
11:11 AM 61.6°F16.4°C 51.3°F10.7°C 69% 2.0 mph SW3.2 kmh SW 4.0 mph6.4 kmh 30.04 in1017.3 mb 0.01 in0.3 mm 0.00 in/hr0.0 mm/hr 0.05 in1.3 mm
11:10 AM 61.6°F16.4°C 52.5°F11.4°C 72% 2.0 mph SW3.2 kmh SW 6.0 mph9.7 kmh 30.04 in1017.3 mb 0.01 in0.3 mm 0.00 in/hr0.0 mm/hr 0.05 in1.3 mm
11:09 AM 61.5°F16.4°C 52.4°F11.3°C 72% 2.0 mph SW3.2 kmh SW 6.0 mph9.7 kmh 30.04 in1017.3 mb 0.01 in0.3 mm 0.00 in/hr0.0 mm/hr 0.05 in1.3 mm
11:08 AM 61.4°F16.3°C 53.0°F11.7°C 74% 2.0 mph SW3.2 kmh SW 6.0 mph9.7 kmh 30.04 in1017.3 mb 0.01 in0.3 mm 0.00 in/hr0.0 mm/hr 0.05 in1.3 mm
11:07 AM 61.3°F16.3°C 52.9°F11.6°C 74% 2.0 mph SW3.2 kmh SW 6.0 mph9.7 kmh 30.04 in1017.3 mb 0.01 in0.3 mm 0.00 in/hr0.0 mm/hr 0.05 in1.3 mm
11:06 AM 61.3°F16.3°C 52.2°F11.2°C 72% 2.0 mph SW3.2 kmh SW 6.0 mph9.7 kmh 30.04 in1017.3 mb 0.01 in0.3 mm 0.00 in/hr0.0 mm/hr 0.05 in1.3 mm
11:05 AM 61.4°F16.3°C 52.7°F11.5°C 73% 1.0 mph SW1.6 kmh SW 6.0 mph9.7 kmh 30.04 in1017.3 mb 0.01 in0.3 mm 0.00 in/hr0.0 mm/hr 0.05 in1.3 mm
11:04 AM 61.4°F16.3°C 53.4°F11.9°C 75% 1.0 mph SW1.6 kmh SW 6.0 mph9.7 kmh 30.04 in1017.3 mb 0.01 in0.3 mm 0.00 in/hr0.0 mm/hr 0.05 in1.3 mm
11:03 AM 61.4°F16.3°C 53.4°F11.9°C 75% 1.0 mph SW1.6 kmh SW 6.0 mph9.7 kmh 30.04 in1017.3 mb 0.01 in0.3 mm 0.00 in/hr0.0 mm/hr 0.05 in1.3 mm
11:02 AM 61.4°F16.3°C 53.0°F11.7°C 74% 1.0 mph SW1.6 kmh SW 6.0 mph9.7 kmh 30.04 in1017.3 mb 0.01 in0.3 mm 0.00 in/hr0.0 mm/hr 0.05 in1.3 mm
11:01 AM 61.5°F16.4°C 53.9°F12.2°C 76% 1.0 mph SW1.6 kmh SW 6.0 mph9.7 kmh 30.03 in1016.9 mb 0.01 in0.3 mm 0.00 in/hr0.0 mm/hr 0.05 in1.3 mm
11:00 AM 61.7°F16.5°C 53.0°F11.7°C 73% 1.0 mph SW1.6 kmh SW 5.0 mph8.0 kmh 30.04 in1017.3 mb 0.01 in0.3 mm 0.00 in/hr0.0 mm/hr 0.05 in1.3 mm
10:59 AM 61.8°F16.6°C 54.2°F12.3°C 76% 1.0 mph SW1.6 kmh SW 4.0 mph6.4 kmh 30.04 in1017.3 mb 0.01 in0.3 mm 0.00 in/hr0.0 mm/hr 0.05 in1.3 mm
10:58 AM 61.8°F16.6°C 54.2°F12.3°C 76% 1.0 mph SW1.6 kmh SW 4.0 mph6.4 kmh 30.03 in1016.9 mb 0.01 in0.3 mm 0.00 in/hr0.0 mm/hr 0.05 in1.3 mm
10:57 AM 61.9°F16.6°C 54.6°F12.6°C 77% 1.0 mph SW1.6 kmh SW 4.0 mph6.4 kmh 30.03 in1016.9 mb 0.01 in0.3 mm 0.00 in/hr0.0 mm/hr 0.05 in1.3 mm
10:56 AM 61.8°F16.6°C 55.6°F13.1°C 80% 1.0 mph SW1.6 kmh SW 4.0 mph6.4 kmh 30.03 in1016.9 mb 0.01 in0.3 mm 0.00 in/hr0.0 mm/hr 0.05 in1.3 mm
10:55 AM 61.7°F16.5°C 54.4°F12.4°C 77% Calm Calm 4.0 mph6.4 kmh 30.03 in1016.9 mb 0.01 in0.3 mm 0.00 in/hr0.0 mm/hr 0.05 in1.3 mm
10:54 AM 61.6°F16.4°C 53.6°F12.0°C 75% Calm Calm 4.0 mph6.4 kmh 30.03 in1016.9 mb 0.01 in0.3 mm 0.00 in/hr0.0 mm/hr 0.05 in1.3 mm
10:53 AM 61.5°F16.4°C 56.0°F13.3°C 82% Calm Calm 4.0 mph6.4 kmh 30.04 in1017.3 mb 0.01 in0.3 mm 0.00 in/hr0.0 mm/hr 0.05 in1.3 mm
10:52 AM 61.4°F16.3°C 54.8°F12.7°C 79% Calm Calm 4.0 mph6.4 kmh 30.04 in1017.3 mb 0.01 in0.3 mm 0.00 in/hr0.0 mm/hr 0.05 in1.3 mm
10:51 AM 61.3°F16.3°C 53.3°F11.8°C 75% Calm Calm 4.0 mph6.4 kmh 30.04 in1017.3 mb 0.01 in0.3 mm 0.00 in/hr0.0 mm/hr 0.05 in1.3 mm
10:50 AM 61.4°F16.3°C 53.4°F11.9°C 75% Calm Calm 4.0 mph6.4 kmh 30.04 in1017.3 mb 0.01 in0.3 mm 0.00 in/hr0.0 mm/hr 0.05 in1.3 mm
10:49 AM 61.3°F16.3°C 54.0°F12.2°C 77% Calm Calm 2.0 mph3.2 kmh 30.04 in1017.3 mb 0.01 in0.3 mm 0.00 in/hr0.0 mm/hr 0.05 in1.3 mm
10:48 AM 61.2°F16.2°C 53.6°F12.0°C 76% Calm Calm 2.0 mph3.2 kmh 30.04 in1017.3 mb 0.01 in0.3 mm 0.00 in/hr0.0 mm/hr 0.05 in1.3 mm
10:47 AM 61.0°F16.1°C 54.1°F12.3°C 78% Calm Calm 2.0 mph3.2 kmh 30.04 in1017.3 mb 0.01 in0.3 mm 0.00 in/hr0.0 mm/hr 0.05 in1.3 mm
10:46 AM 60.8°F16.0°C 53.5°F11.9°C 77% Calm Calm 2.0 mph3.2 kmh 30.03 in1016.9 mb 0.01 in0.3 mm 0.00 in/hr0.0 mm/hr 0.05 in1.3 mm
10:45 AM 60.5°F15.8°C 54.0°F12.2°C 79% Calm Calm 2.0 mph3.2 kmh 30.03 in1016.9 mb 0.01 in0.3 mm 0.00 in/hr0.0 mm/hr 0.05 in1.3 mm
10:44 AM 60.3°F15.7°C 53.4°F11.9°C 78% Calm Calm 2.0 mph3.2 kmh 30.03 in1016.9 mb 0.01 in0.3 mm 0.00 in/hr0.0 mm/hr 0.05 in1.3 mm
10:43 AM 60.1°F15.6°C 53.9°F12.2°C 80% Calm Calm 2.0 mph3.2 kmh 30.03 in1016.9 mb 0.01 in0.3 mm 0.00 in/hr0.0 mm/hr 0.05 in1.3 mm
10:42 AM 60.0°F15.6°C 53.1°F11.7°C 78% Calm Calm 2.0 mph3.2 kmh 30.03 in1016.9 mb 0.01 in0.3 mm 0.00 in/hr0.0 mm/hr 0.05 in1.3 mm
10:41 AM 59.9°F15.5°C 53.0°F11.7°C 78% Calm Calm 2.0 mph3.2 kmh 30.03 in1016.9 mb 0.01 in0.3 mm 0.00 in/hr0.0 mm/hr 0.05 in1.3 mm
10:40 AM 59.9°F15.5°C 53.7°F12.1°C 80% Calm Calm 2.0 mph3.2 kmh 30.03 in1016.9 mb 0.01 in0.3 mm 0.00 in/hr0.0 mm/hr 0.05 in1.3 mm
10:39 AM 59.8°F15.4°C 54.0°F12.2°C 81% 1.0 mph NW1.6 kmh NW 2.0 mph3.2 kmh 30.03 in1016.9 mb 0.01 in0.3 mm 0.00 in/hr0.0 mm/hr 0.05 in1.3 mm
10:38 AM 59.6°F15.3°C 54.4°F12.4°C 83% 1.0 mph WSW1.6 kmh WSW 2.0 mph3.2 kmh 30.03 in1016.9 mb 0.01 in0.3 mm 0.00 in/hr0.0 mm/hr 0.05 in1.3 mm
10:37 AM 59.5°F15.3°C 53.3°F11.8°C 80% 1.0 mph WSW1.6 kmh WSW 2.0 mph3.2 kmh 30.03 in1016.9 mb 0.01 in0.3 mm 0.00 in/hr0.0 mm/hr 0.05 in1.3 mm
10:36 AM 59.4°F15.2°C 53.9°F12.2°C 82% 1.0 mph SE1.6 kmh SE 3.0 mph4.8 kmh 30.03 in1016.9 mb 0.01 in0.3 mm 0.00 in/hr0.0 mm/hr 0.05 in1.3 mm
10:35 AM 59.2°F15.1°C 52.3°F11.3°C 78% 1.0 mph E1.6 kmh E 3.0 mph4.8 kmh 30.03 in1016.9 mb 0.01 in0.3 mm 0.00 in/hr0.0 mm/hr 0.05 in1.3 mm
10:34 AM 59.1°F15.1°C 52.6°F11.4°C 79% 1.0 mph ENE1.6 kmh ENE 3.0 mph4.8 kmh 30.03 in1016.9 mb 0.01 in0.3 mm 0.00 in/hr0.0 mm/hr 0.05 in1.3 mm
10:33 AM 59.0°F15.0°C 52.5°F11.4°C 79% 1.0 mph ENE1.6 kmh ENE 3.0 mph4.8 kmh 30.03 in1016.9 mb 0.01 in0.3 mm 0.00 in/hr0.0 mm/hr 0.05 in1.3 mm
10:32 AM 58.8°F14.9°C 52.6°F11.4°C 80% 1.0 mph ENE1.6 kmh ENE 3.0 mph4.8 kmh 30.03 in1016.9 mb 0.01 in0.3 mm 0.00 in/hr0.0 mm/hr 0.05 in1.3 mm
10:31 AM 58.6°F14.8°C 52.8°F11.6°C 81% 1.0 mph ENE1.6 kmh ENE 3.0 mph4.8 kmh 30.03 in1016.9 mb 0.01 in0.3 mm 0.00 in/hr0.0 mm/hr 0.05 in1.3 mm
10:30 AM 58.4°F14.7°C 52.6°F11.4°C 81% 1.0 mph ENE1.6 kmh ENE 3.0 mph4.8 kmh 30.03 in1016.9 mb 0.01 in0.3 mm 0.00 in/hr0.0 mm/hr 0.05 in1.3 mm
10:29 AM 58.2°F14.6°C 52.1°F11.2°C 80% 1.0 mph ENE1.6 kmh ENE 3.0 mph4.8 kmh 30.04 in1017.3 mb 0.01 in0.3 mm 0.00 in/hr0.0 mm/hr 0.05 in1.3 mm
10:28 AM 58.2°F14.6°C 51.7°F10.9°C 79% 1.0 mph ENE1.6 kmh ENE 3.0 mph4.8 kmh 30.03 in1016.9 mb 0.01 in0.3 mm 0.00 in/hr0.0 mm/hr 0.05 in1.3 mm
10:27 AM 58.2°F14.6°C 51.4°F10.8°C 78% 1.0 mph ENE1.6 kmh ENE 3.0 mph4.8 kmh 30.03 in1016.9 mb 0.01 in0.3 mm 0.00 in/hr0.0 mm/hr 0.05 in1.3 mm
10:26 AM 58.2°F14.6°C 51.7°F10.9°C 79% 1.0 mph NE1.6 kmh NE 5.0 mph8.0 kmh 30.03 in1016.9 mb 0.01 in0.3 mm 0.00 in/hr0.0 mm/hr 0.05 in1.3 mm
10:25 AM 58.2°F14.6°C 52.4°F11.3°C 81% 1.0 mph NE1.6 kmh NE 5.0 mph8.0 kmh 30.03 in1016.9 mb 0.01 in0.3 mm 0.00 in/hr0.0 mm/hr 0.05 in1.3 mm
10:24 AM 58.3°F14.6°C 52.8°F11.6°C 82% 1.0 mph NE1.6 kmh NE 5.0 mph8.0 kmh 30.03 in1016.9 mb 0.01 in0.3 mm 0.00 in/hr0.0 mm/hr 0.05 in1.3 mm
10:23 AM 58.3°F14.6°C 53.5°F11.9°C 84% 1.0 mph NE1.6 kmh NE 5.0 mph8.0 kmh 30.03 in1016.9 mb 0.01 in0.3 mm 0.00 in/hr0.0 mm/hr 0.05 in1.3 mm
10:22 AM 58.3°F14.6°C 54.1°F12.3°C 86% 1.0 mph NE1.6 kmh NE 5.0 mph8.0 kmh 30.03 in1016.9 mb 0.01 in0.3 mm 0.00 in/hr0.0 mm/hr 0.05 in1.3 mm
10:21 AM 58.2°F14.6°C 54.0°F12.2°C 86% 1.0 mph ENE1.6 kmh ENE 5.0 mph8.0 kmh 30.03 in1016.9 mb 0.01 in0.3 mm 0.00 in/hr0.0 mm/hr 0.05 in1.3 mm
10:20 AM 58.0°F14.4°C 53.8°F12.1°C 86% 1.0 mph ENE1.6 kmh ENE 5.0 mph8.0 kmh 30.03 in1016.9 mb 0.01 in0.3 mm 0.00 in/hr0.0 mm/hr 0.05 in1.3 mm
10:19 AM 57.9°F14.4°C 53.4°F11.9°C 85% 1.0 mph ENE1.6 kmh ENE 5.0 mph8.0 kmh 30.03 in1016.9 mb 0.01 in0.3 mm 0.00 in/hr0.0 mm/hr 0.05 in1.3 mm
10:18 AM 57.8°F14.3°C 53.6°F12.0°C 86% 1.0 mph ENE1.6 kmh ENE 5.0 mph8.0 kmh 30.03 in1016.9 mb 0.01 in0.3 mm 0.00 in/hr0.0 mm/hr 0.05 in1.3 mm
10:17 AM 57.6°F14.2°C 54.7°F12.6°C 90% 1.0 mph ENE1.6 kmh ENE 5.0 mph8.0 kmh 30.03 in1016.9 mb 0.01 in0.3 mm 0.60 in/hr15.2 mm/hr 0.05 in1.3 mm
10:16 AM 57.4°F14.1°C 53.9°F12.2°C 88% 1.0 mph E1.6 kmh E 1.0 mph1.6 kmh 30.03 in1016.9 mb 0.00 in0.0 mm 0.00 in/hr0.0 mm/hr 0.04 in1.0 mm
10:15 AM 57.2°F14.0°C 53.4°F11.9°C 87% 1.0 mph E1.6 kmh E 2.0 mph3.2 kmh 30.03 in1016.9 mb 0.00 in0.0 mm 0.00 in/hr0.0 mm/hr 0.04 in1.0 mm
10:14 AM 57.2°F14.0°C 53.7°F12.1°C 88% 1.0 mph ENE1.6 kmh ENE 2.0 mph3.2 kmh 30.03 in1016.9 mb 0.00 in0.0 mm 0.00 in/hr0.0 mm/hr 0.04 in1.0 mm
10:13 AM 57.1°F13.9°C 54.2°F12.3°C 90% 1.0 mph ENE1.6 kmh ENE 2.0 mph3.2 kmh 30.03 in1016.9 mb 0.00 in0.0 mm 0.00 in/hr0.0 mm/hr 0.04 in1.0 mm
10:12 AM 57.0°F13.9°C 54.1°F12.3°C 90% 1.0 mph ENE1.6 kmh ENE 2.0 mph3.2 kmh 30.03 in1016.9 mb 0.00 in0.0 mm 0.00 in/hr0.0 mm/hr 0.04 in1.0 mm
10:11 AM 57.0°F13.9°C 54.1°F12.3°C 90% 1.0 mph NE1.6 kmh NE 3.0 mph4.8 kmh 30.03 in1016.9 mb 0.00 in0.0 mm 0.00 in/hr0.0 mm/hr 0.04 in1.0 mm
10:10 AM 56.8°F13.8°C 53.9°F12.2°C 90% 1.0 mph NE1.6 kmh NE 3.0 mph4.8 kmh 30.03 in1016.9 mb 0.00 in0.0 mm 0.00 in/hr0.0 mm/hr 0.04 in1.0 mm
10:09 AM 56.8°F13.8°C 54.5°F12.5°C 92% 1.0 mph NE1.6 kmh NE 3.0 mph4.8 kmh 30.03 in1016.9 mb 0.00 in0.0 mm 0.00 in/hr0.0 mm/hr 0.04 in1.0 mm
10:08 AM 56.7°F13.7°C 54.1°F12.3°C 91% 1.0 mph NE1.6 kmh NE 3.0 mph4.8 kmh 30.03 in1016.9 mb 0.00 in0.0 mm 0.00 in/hr0.0 mm/hr 0.04 in1.0 mm
10:07 AM 56.6°F13.7°C 54.0°F12.2°C 91% 1.0 mph NE1.6 kmh NE 3.0 mph4.8 kmh 30.03 in1016.9 mb 0.00 in0.0 mm 0.00 in/hr0.0 mm/hr 0.04 in1.0 mm
10:06 AM 56.6°F13.7°C 53.7°F12.1°C 90% 1.0 mph NE1.6 kmh NE 4.0 mph6.4 kmh 30.03 in1016.9 mb 0.00 in0.0 mm 0.00 in/hr0.0 mm/hr 0.04 in1.0 mm
10:05 AM 56.5°F13.6°C 53.6°F12.0°C 90% 1.0 mph NE1.6 kmh NE 4.0 mph6.4 kmh 30.03 in1016.9 mb 0.00 in0.0 mm 0.00 in/hr0.0 mm/hr 0.04 in1.0 mm
10:04 AM 56.5°F13.6°C 53.3°F11.8°C 89% 1.0 mph NE1.6 kmh NE 4.0 mph6.4 kmh 30.03 in1016.9 mb 0.00 in0.0 mm 0.00 in/hr0.0 mm/hr 0.04 in1.0 mm
10:03 AM 56.5°F13.6°C 53.3°F11.8°C 89% 1.0 mph NE1.6 kmh NE 4.0 mph6.4 kmh 30.03 in1016.9 mb 0.00 in0.0 mm 0.00 in/hr0.0 mm/hr 0.04 in1.0 mm
10:02 AM 56.5°F13.6°C 53.0°F11.7°C 88% 1.0 mph NE1.6 kmh NE 4.0 mph6.4 kmh 30.03 in1016.9 mb 0.00 in0.0 mm 0.00 in/hr0.0 mm/hr 0.04 in1.0 mm
10:01 AM 56.5°F13.6°C 53.3°F11.8°C 89% 1.0 mph NE1.6 kmh NE 4.0 mph6.4 kmh 30.03 in1016.9 mb 0.00 in0.0 mm 0.00 in/hr0.0 mm/hr 0.04 in1.0 mm
10:00 AM 56.6°F13.7°C 53.7°F12.1°C 90% 1.0 mph NE1.6 kmh NE 4.0 mph6.4 kmh 30.04 in1017.3 mb 0.00 in0.0 mm 0.00 in/hr0.0 mm/hr 0.04 in1.0 mm
09:59 AM 56.6°F13.7°C 54.0°F12.2°C 91% 1.0 mph NE1.6 kmh NE 4.0 mph6.4 kmh 30.04 in1017.3 mb 0.00 in0.0 mm 0.00 in/hr0.0 mm/hr 0.04 in1.0 mm
09:58 AM 56.5°F13.6°C 53.9°F12.2°C 91% 1.0 mph ENE1.6 kmh ENE 4.0 mph6.4 kmh 30.04 in1017.3 mb 0.00 in0.0 mm 0.00 in/hr0.0 mm/hr 0.04 in1.0 mm
09:57 AM 56.5°F13.6°C 53.9°F12.2°C 91% 1.0 mph ENE1.6 kmh ENE 4.0 mph6.4 kmh 30.04 in1017.3 mb 0.00 in0.0 mm 0.00 in/hr0.0 mm/hr 0.04 in1.0 mm
09:56 AM 56.4°F13.6°C 54.4°F12.4°C 93% 1.0 mph NE1.6 kmh NE 3.0 mph4.8 kmh 30.04 in1017.3 mb 0.00 in0.0 mm 0.00 in/hr0.0 mm/hr 0.04 in1.0 mm
09:55 AM 56.3°F13.5°C 54.3°F12.4°C 93% 1.0 mph NE1.6 kmh NE 3.0 mph4.8 kmh 30.03 in1016.9 mb 0.00 in0.0 mm 0.00 in/hr0.0 mm/hr 0.04 in1.0 mm
09:54 AM 56.1°F13.4°C 53.8°F12.1°C 92% 1.0 mph NE1.6 kmh NE 3.0 mph4.8 kmh 30.03 in1016.9 mb 0.00 in0.0 mm 0.00 in/hr0.0 mm/hr 0.04 in1.0 mm
09:53 AM 56.1°F13.4°C 53.8°F12.1°C 92% 1.0 mph NE1.6 kmh NE 3.0 mph4.8 kmh 30.03 in1016.9 mb 0.00 in0.0 mm 0.00 in/hr0.0 mm/hr 0.04 in1.0 mm
09:52 AM 56.0°F13.3°C 53.4°F11.9°C 91% 1.0 mph ENE1.6 kmh ENE 3.0 mph4.8 kmh 30.03 in1016.9 mb 0.00 in0.0 mm 0.00 in/hr0.0 mm/hr 0.04 in1.0 mm
09:51 AM 55.9°F13.3°C 53.3°F11.8°C 91% 1.0 mph NE1.6 kmh NE 3.0 mph4.8 kmh 30.03 in1016.9 mb 0.00 in0.0 mm 0.00 in/hr0.0 mm/hr 0.04 in1.0 mm
09:50 AM 55.9°F13.3°C 53.6°F12.0°C 92% Calm Calm 3.0 mph4.8 kmh 30.03 in1016.9 mb 0.00 in0.0 mm 0.00 in/hr0.0 mm/hr 0.04 in1.0 mm
09:49 AM 55.9°F13.3°C 53.3°F11.8°C 91% Calm Calm 3.0 mph4.8 kmh 30.03 in1016.9 mb 0.00 in0.0 mm 0.00 in/hr0.0 mm/hr 0.04 in1.0 mm
09:48 AM 55.9°F13.3°C 53.3°F11.8°C 91% Calm Calm 3.0 mph4.8 kmh 30.03 in1016.9 mb 0.00 in0.0 mm 0.00 in/hr0.0 mm/hr 0.04 in1.0 mm
09:47 AM 56.0°F13.3°C 53.4°F11.9°C 91% Calm Calm 3.0 mph4.8 kmh 30.03 in1016.9 mb 0.00 in0.0 mm 0.00 in/hr0.0 mm/hr 0.04 in1.0 mm
09:46 AM 56.0°F13.3°C 53.7°F12.1°C 92% Calm Calm 3.0 mph4.8 kmh 30.03 in1016.9 mb 0.00 in0.0 mm 0.00 in/hr0.0 mm/hr 0.04 in1.0 mm
09:45 AM 56.1°F13.4°C 53.8°F12.1°C 92% Calm Calm 3.0 mph4.8 kmh 30.03 in1016.9 mb 0.00 in0.0 mm 0.00 in/hr0.0 mm/hr 0.04 in1.0 mm
09:44 AM 56.1°F13.4°C 53.8°F12.1°C 92% Calm Calm 3.0 mph4.8 kmh 30.03 in1016.9 mb 0.00 in0.0 mm 0.00 in/hr0.0 mm/hr 0.04 in1.0 mm
09:43 AM 56.0°F13.3°C 53.7°F12.1°C 92% Calm Calm 3.0 mph4.8 kmh 30.03 in1016.9 mb 0.00 in0.0 mm 0.00 in/hr0.0 mm/hr 0.04 in1.0 mm
09:42 AM 56.1°F13.4°C 54.4°F12.4°C 94% Calm Calm 2.0 mph3.2 kmh 30.03 in1016.9 mb 0.00 in0.0 mm 0.00 in/hr0.0 mm/hr 0.04 in1.0 mm
09:41 AM 56.1°F13.4°C 54.4°F12.4°C 94% Calm Calm 2.0 mph3.2 kmh 30.03 in1016.9 mb 0.00 in0.0 mm 0.00 in/hr0.0 mm/hr 0.04 in1.0 mm
09:40 AM 55.9°F13.3°C 54.2°F12.3°C 94% Calm Calm 2.0 mph3.2 kmh 30.03 in1016.9 mb 0.00 in0.0 mm 0.00 in/hr0.0 mm/hr 0.04 in1.0 mm
09:39 AM 55.9°F13.3°C 54.2°F12.3°C 94% Calm Calm 2.0 mph3.2 kmh 30.03 in1016.9 mb 0.00 in0.0 mm 0.00 in/hr0.0 mm/hr 0.04 in1.0 mm
09:38 AM 55.8°F13.2°C 54.1°F12.3°C 94% 1.0 mph E1.6 kmh E 2.0 mph3.2 kmh 30.03 in1016.9 mb 0.00 in0.0 mm 0.00 in/hr0.0 mm/hr 0.04 in1.0 mm
09:37 AM 55.7°F13.2°C 54.0°F12.2°C 94% 1.0 mph E1.6 kmh E 2.0 mph3.2 kmh 30.03 in1016.9 mb 0.00 in0.0 mm 0.00 in/hr0.0 mm/hr 0.04 in1.0 mm
09:36 AM 55.7°F13.2°C 53.7°F12.1°C 93% 1.0 mph E1.6 kmh E 2.0 mph3.2 kmh 30.03 in1016.9 mb 0.00 in0.0 mm 0.00 in/hr0.0 mm/hr 0.04 in1.0 mm
09:35 AM 55.7°F13.2°C 54.0°F12.2°C 94% 1.0 mph E1.6 kmh E 2.0 mph3.2 kmh 30.03 in1016.9 mb 0.00 in0.0 mm 0.00 in/hr0.0 mm/hr 0.04 in1.0 mm
09:34 AM 55.7°F13.2°C 54.0°F12.2°C 94% 1.0 mph ENE1.6 kmh ENE 2.0 mph3.2 kmh 30.03 in1016.9 mb 0.00 in0.0 mm 0.00 in/hr0.0 mm/hr 0.04 in1.0 mm
09:33 AM 55.6°F13.1°C 53.9°F12.2°C 94% 1.0 mph ENE1.6 kmh ENE 2.0 mph3.2 kmh 30.03 in1016.9 mb 0.00 in0.0 mm 0.00 in/hr0.0 mm/hr 0.04 in1.0 mm
09:32 AM 55.6°F13.1°C 53.9°F12.2°C 94% 1.0 mph ENE1.6 kmh ENE 2.0 mph3.2 kmh 30.03 in1016.9 mb 0.00 in0.0 mm 0.00 in/hr0.0 mm/hr 0.04 in1.0 mm
09:31 AM 55.6°F13.1°C 53.9°F12.2°C 94% 1.0 mph ENE1.6 kmh ENE 2.0 mph3.2 kmh 30.03 in1016.9 mb 0.00 in0.0 mm 0.00 in/hr0.0 mm/hr 0.04 in1.0 mm
09:30 AM 55.6°F13.1°C 53.9°F12.2°C 94% 1.0 mph ENE1.6 kmh ENE 2.0 mph3.2 kmh 30.03 in1016.9 mb 0.00 in0.0 mm 0.00 in/hr0.0 mm/hr 0.04 in1.0 mm
09:29 AM 55.5°F13.1°C 54.1°F12.3°C 95% 1.0 mph ENE1.6 kmh ENE 2.0 mph3.2 kmh 30.03 in1016.9 mb 0.00 in0.0 mm 0.00 in/hr0.0 mm/hr 0.04 in1.0 mm
09:28 AM 55.5°F13.1°C 54.1°F12.3°C 95% 1.0 mph ENE1.6 kmh ENE 2.0 mph3.2 kmh 30.03 in1016.9 mb 0.00 in0.0 mm 0.00 in/hr0.0 mm/hr 0.04 in1.0 mm
09:27 AM 55.4°F13.0°C 54.0°F12.2°C 95% 1.0 mph ENE1.6 kmh ENE 2.0 mph3.2 kmh 30.03 in1016.9 mb 0.00 in0.0 mm 0.00 in/hr0.0 mm/hr 0.04 in1.0 mm
09:26 AM 55.3°F12.9°C 53.6°F12.0°C 94% 1.0 mph ENE1.6 kmh ENE 2.0 mph3.2 kmh 30.03 in1016.9 mb 0.00 in0.0 mm 0.00 in/hr0.0 mm/hr 0.04 in1.0 mm
09:25 AM 55.3°F12.9°C 53.6°F12.0°C 94% 1.0 mph ENE1.6 kmh ENE 2.0 mph3.2 kmh 30.03 in1016.9 mb 0.00 in0.0 mm 0.00 in/hr0.0 mm/hr 0.04 in1.0 mm
09:24 AM 55.3°F12.9°C 53.6°F12.0°C 94% 1.0 mph ENE1.6 kmh ENE 2.0 mph3.2 kmh 30.03 in1016.9 mb 0.00 in0.0 mm 0.00 in/hr0.0 mm/hr 0.04 in1.0 mm
09:23 AM 55.3°F12.9°C 53.6°F12.0°C 94% 1.0 mph E1.6 kmh E 2.0 mph3.2 kmh 30.03 in1016.9 mb 0.00 in0.0 mm 0.00 in/hr0.0 mm/hr 0.04 in1.0 mm
09:22 AM 55.3°F12.9°C 53.6°F12.0°C 94% 1.0 mph E1.6 kmh E 2.0 mph3.2 kmh 30.03 in1016.9 mb 0.00 in0.0 mm 0.00 in/hr0.0 mm/hr 0.04 in1.0 mm
09:21 AM 55.3°F12.9°C 53.6°F12.0°C 94% 1.0 mph E1.6 kmh E 2.0 mph3.2 kmh 30.03 in1016.9 mb 0.00 in0.0 mm 0.00 in/hr0.0 mm/hr 0.04 in1.0 mm
09:20 AM 55.3°F12.9°C 53.6°F12.0°C 94% 1.0 mph ENE1.6 kmh ENE 3.0 mph4.8 kmh 30.03 in1016.9 mb 0.00 in0.0 mm 0.00 in/hr0.0 mm/hr 0.04 in1.0 mm
09:19 AM 55.2°F12.9°C 53.5°F11.9°C 94% 1.0 mph ENE1.6 kmh ENE 3.0 mph4.8 kmh 30.03 in1016.9 mb 0.00 in0.0 mm 0.00 in/hr0.0 mm/hr 0.04 in1.0 mm
09:18 AM 55.2°F12.9°C 53.8°F12.1°C 95% 1.0 mph ENE1.6 kmh ENE 3.0 mph4.8 kmh 30.03 in1016.9 mb 0.00 in0.0 mm 0.00 in/hr0.0 mm/hr 0.04 in1.0 mm
09:17 AM 55.2°F12.9°C 53.8°F12.1°C 95% 1.0 mph ENE1.6 kmh ENE 3.0 mph4.8 kmh 30.03 in1016.9 mb 0.00 in0.0 mm 0.00 in/hr0.0 mm/hr 0.04 in1.0 mm
09:16 AM 55.1°F12.8°C 53.7°F12.1°C 95% 1.0 mph NE1.6 kmh NE 3.0 mph4.8 kmh 30.03 in1016.9 mb 0.00 in0.0 mm 0.00 in/hr0.0 mm/hr 0.04 in1.0 mm
09:15 AM 55.0°F12.8°C 53.6°F12.0°C 95% 1.0 mph NE1.6 kmh NE 3.0 mph4.8 kmh 30.03 in1016.9 mb 0.00 in0.0 mm 0.00 in/hr0.0 mm/hr 0.04 in1.0 mm
09:14 AM 54.9°F12.7°C 53.5°F11.9°C 95% 1.0 mph ENE1.6 kmh ENE 3.0 mph4.8 kmh 30.03 in1016.9 mb 0.00 in0.0 mm 0.00 in/hr0.0 mm/hr 0.04 in1.0 mm
09:13 AM 54.8°F12.7°C 53.1°F11.7°C 94% 1.0 mph ENE1.6 kmh ENE 3.0 mph4.8 kmh 30.03 in1016.9 mb 0.00 in0.0 mm 0.00 in/hr0.0 mm/hr 0.04 in1.0 mm
09:12 AM 54.7°F12.6°C 53.0°F11.7°C 94% 1.0 mph ENE1.6 kmh ENE 3.0 mph4.8 kmh 30.03 in1016.9 mb 0.00 in0.0 mm 0.00 in/hr0.0 mm/hr 0.04 in1.0 mm
09:11 AM 54.7°F12.6°C 53.0°F11.7°C 94% 1.0 mph ENE1.6 kmh ENE 3.0 mph4.8 kmh 30.03 in1016.9 mb 0.00 in0.0 mm 0.00 in/hr0.0 mm/hr 0.04 in1.0 mm
09:10 AM 54.7°F12.6°C 53.3°F11.8°C 95% 1.0 mph ENE1.6 kmh ENE 3.0 mph4.8 kmh 30.03 in1016.9 mb 0.00 in0.0 mm 0.00 in/hr0.0 mm/hr 0.04 in1.0 mm
09:09 AM 54.7°F12.6°C 53.0°F11.7°C 94% 1.0 mph ENE1.6 kmh ENE 3.0 mph4.8 kmh 30.03 in1016.9 mb 0.00 in0.0 mm 0.00 in/hr0.0 mm/hr 0.04 in1.0 mm
09:08 AM 54.7°F12.6°C 53.3°F11.8°C 95% 1.0 mph ENE1.6 kmh ENE 3.0 mph4.8 kmh 30.03 in1016.9 mb 0.01 in0.3 mm 0.00 in/hr0.0 mm/hr 0.04 in1.0 mm
09:07 AM 54.7°F12.6°C 53.3°F11.8°C 95% 1.0 mph NE1.6 kmh NE 3.0 mph4.8 kmh 30.03 in1016.9 mb 0.01 in0.3 mm 0.00 in/hr0.0 mm/hr 0.04 in1.0 mm
09:06 AM 54.7°F12.6°C 53.3°F11.8°C 95% 1.0 mph NE1.6 kmh NE 3.0 mph4.8 kmh 30.03 in1016.9 mb 0.01 in0.3 mm 0.00 in/hr0.0 mm/hr 0.04 in1.0 mm
09:05 AM 54.7°F12.6°C 53.3°F11.8°C 95% 1.0 mph NE1.6 kmh NE 3.0 mph4.8 kmh 30.03 in1016.9 mb 0.01 in0.3 mm 0.00 in/hr0.0 mm/hr 0.04 in1.0 mm
09:04 AM 54.6°F12.6°C 53.2°F11.8°C 95% 1.0 mph NE1.6 kmh NE 3.0 mph4.8 kmh 30.03 in1016.9 mb 0.01 in0.3 mm 0.00 in/hr0.0 mm/hr 0.04 in1.0 mm
09:03 AM 54.6°F12.6°C 53.2°F11.8°C 95% 1.0 mph NE1.6 kmh NE 3.0 mph4.8 kmh 30.03 in1016.9 mb 0.01 in0.3 mm 0.00 in/hr0.0 mm/hr 0.04 in1.0 mm
09:02 AM 54.6°F12.6°C 53.2°F11.8°C 95% 1.0 mph NE1.6 kmh NE 3.0 mph4.8 kmh 30.03 in1016.9 mb 0.01 in0.3 mm 0.00 in/hr0.0 mm/hr 0.04 in1.0 mm
09:01 AM 54.6°F12.6°C 53.2°F11.8°C 95% 1.0 mph NE1.6 kmh NE 3.0 mph4.8 kmh 30.03 in1016.9 mb 0.01 in0.3 mm 0.00 in/hr0.0 mm/hr 0.04 in1.0 mm
09:00 AM 54.6°F12.6°C 53.2°F11.8°C 95% 1.0 mph NE1.6 kmh NE 3.0 mph4.8 kmh 30.03 in1016.9 mb 0.01 in0.3 mm 0.00 in/hr0.0 mm/hr 0.04 in1.0 mm
08:59 AM 54.6°F12.6°C 53.2°F11.8°C 95% Calm Calm 3.0 mph4.8 kmh 30.02 in1016.6 mb 0.01 in0.3 mm 0.00 in/hr0.0 mm/hr 0.04 in1.0 mm
08:58 AM 54.6°F12.6°C 53.2°F11.8°C 95% Calm Calm 3.0 mph4.8 kmh 30.03 in1016.9 mb 0.01 in0.3 mm 0.00 in/hr0.0 mm/hr 0.04 in1.0 mm
08:57 AM 54.7°F12.6°C 53.6°F12.0°C 96% Calm Calm 3.0 mph4.8 kmh 30.02 in1016.6 mb 0.01 in0.3 mm 0.00 in/hr0.0 mm/hr 0.04 in1.0 mm
08:56 AM 54.7°F12.6°C 53.6°F12.0°C 96% Calm Calm 3.0 mph4.8 kmh 30.03 in1016.9 mb 0.01 in0.3 mm 0.00 in/hr0.0 mm/hr 0.04 in1.0 mm
08:55 AM 54.7°F12.6°C 53.6°F12.0°C 96% Calm Calm 3.0 mph4.8 kmh 30.03 in1016.9 mb 0.02 in0.5 mm 0.00 in/hr0.0 mm/hr 0.04 in1.0 mm
08:54 AM 54.7°F12.6°C 53.6°F12.0°C 96% Calm Calm 3.0 mph4.8 kmh 30.03 in1016.9 mb 0.02 in0.5 mm 0.00 in/hr0.0 mm/hr 0.04 in1.0 mm
08:53 AM 54.7°F12.6°C 53.6°F12.0°C 96% Calm Calm 3.0 mph4.8 kmh 30.03 in1016.9 mb 0.02 in0.5 mm 0.00 in/hr0.0 mm/hr 0.04 in1.0 mm
08:52 AM 54.7°F12.6°C 53.6°F12.0°C 96% Calm Calm 2.0 mph3.2 kmh 30.03 in1016.9 mb 0.02 in0.5 mm 0.00 in/hr0.0 mm/hr 0.04 in1.0 mm
08:51 AM 54.7°F12.6°C 53.6°F12.0°C 96% Calm Calm 1.0 mph1.6 kmh 30.03 in1016.9 mb 0.02 in0.5 mm 0.00 in/hr0.0 mm/hr 0.04 in1.0 mm
08:50 AM 54.8°F12.7°C 53.7°F12.1°C 96% Calm Calm 1.0 mph1.6 kmh 30.03 in1016.9 mb 0.02 in0.5 mm 0.00 in/hr0.0 mm/hr 0.04 in1.0 mm
08:49 AM 54.8°F12.7°C 53.7°F12.1°C 96% Calm Calm 1.0 mph1.6 kmh 30.02 in1016.6 mb 0.02 in0.5 mm 0.00 in/hr0.0 mm/hr 0.04 in1.0 mm
08:48 AM 54.8°F12.7°C 54.0°F12.2°C 97% Calm Calm 1.0 mph1.6 kmh 30.02 in1016.6 mb 0.02 in0.5 mm 0.00 in/hr0.0 mm/hr 0.04 in1.0 mm
08:47 AM 54.8°F12.7°C 54.0°F12.2°C 97% Calm Calm 1.0 mph1.6 kmh 30.02 in1016.6 mb 0.02 in0.5 mm 0.00 in/hr0.0 mm/hr 0.04 in1.0 mm
08:46 AM 54.9°F12.7°C 54.1°F12.3°C 97% Calm Calm 1.0 mph1.6 kmh 30.02 in1016.6 mb 0.02 in0.5 mm 0.00 in/hr0.0 mm/hr 0.04 in1.0 mm
08:45 AM 54.8°F12.7°C 54.0°F12.2°C 97% Calm Calm 1.0 mph1.6 kmh 30.02 in1016.6 mb 0.02 in0.5 mm 0.00 in/hr0.0 mm/hr 0.04 in1.0 mm
08:44 AM 54.9°F12.7°C 54.1°F12.3°C 97% Calm Calm 1.0 mph1.6 kmh 30.02 in1016.6 mb 0.02 in0.5 mm 0.00 in/hr0.0 mm/hr 0.04 in1.0 mm
08:43 AM 54.9°F12.7°C 54.1°F12.3°C 97% Calm Calm 1.0 mph1.6 kmh 30.02 in1016.6 mb 0.02 in0.5 mm 0.00 in/hr0.0 mm/hr 0.04 in1.0 mm
08:42 AM 54.9°F12.7°C 54.1°F12.3°C 97% Calm Calm 1.0 mph1.6 kmh 30.02 in1016.6 mb 0.02 in0.5 mm 0.00 in/hr0.0 mm/hr 0.04 in1.0 mm
08:41 AM 54.9°F12.7°C 54.1°F12.3°C 97% Calm Calm 1.0 mph1.6 kmh 30.02 in1016.6 mb 0.02 in0.5 mm 0.00 in/hr0.0 mm/hr 0.04 in1.0 mm
08:40 AM 54.9°F12.7°C 54.1°F12.3°C 97% Calm Calm 2.0 mph3.2 kmh 30.02 in1016.6 mb 0.02 in0.5 mm 0.00 in/hr0.0 mm/hr 0.04 in1.0 mm
08:39 AM 54.9°F12.7°C 54.1°F12.3°C 97% Calm Calm 2.0 mph3.2 kmh 30.02 in1016.6 mb 0.02 in0.5 mm 0.00 in/hr0.0 mm/hr 0.04 in1.0 mm
08:38 AM 54.9°F12.7°C 54.1°F12.3°C 97% Calm Calm 2.0 mph3.2 kmh 30.02 in1016.6 mb 0.02 in0.5 mm 0.00 in/hr0.0 mm/hr 0.04 in1.0 mm
08:37 AM 54.9°F12.7°C 54.1°F12.3°C 97% Calm Calm 2.0 mph3.2 kmh 30.02 in1016.6 mb 0.02 in0.5 mm 0.00 in/hr0.0 mm/hr 0.04 in1.0 mm
08:36 AM 54.9°F12.7°C 54.1°F12.3°C 97% Calm Calm 2.0 mph3.2 kmh 30.02 in1016.6 mb 0.02 in0.5 mm 0.00 in/hr0.0 mm/hr 0.04 in1.0 mm
08:35 AM 54.8°F12.7°C 54.0°F12.2°C 97% Calm Calm 2.0 mph3.2 kmh 30.02 in1016.6 mb 0.02 in0.5 mm 0.00 in/hr0.0 mm/hr 0.04 in1.0 mm
08:34 AM 54.8°F12.7°C 54.0°F12.2°C 97% Calm Calm 2.0 mph3.2 kmh 30.02 in1016.6 mb 0.02 in0.5 mm 0.00 in/hr0.0 mm/hr 0.04 in1.0 mm
08:33 AM 54.8°F12.7°C 54.0°F12.2°C 97% Calm Calm 2.0 mph3.2 kmh 30.02 in1016.6 mb 0.02 in0.5 mm 0.00 in/hr0.0 mm/hr 0.04 in1.0 mm
08:32 AM 54.8°F12.7°C 54.0°F12.2°C 97% Calm Calm 2.0 mph3.2 kmh 30.02 in1016.6 mb 0.02 in0.5 mm 0.00 in/hr0.0 mm/hr 0.04 in1.0 mm
08:31 AM 54.9°F12.7°C 54.1°F12.3°C 97% Calm Calm 2.0 mph3.2 kmh 30.02 in1016.6 mb 0.02 in0.5 mm 0.00 in/hr0.0 mm/hr 0.04 in1.0 mm
08:30 AM 54.9°F12.7°C 54.1°F12.3°C 97% Calm Calm 1.0 mph1.6 kmh 30.02 in1016.6 mb 0.02 in0.5 mm 0.00 in/hr0.0 mm/hr 0.04 in1.0 mm
08:29 AM 54.9°F12.7°C 54.1°F12.3°C 97% Calm Calm 1.0 mph1.6 kmh 30.02 in1016.6 mb 0.02 in0.5 mm 0.00 in/hr0.0 mm/hr 0.04 in1.0 mm
08:28 AM 54.9°F12.7°C 54.1°F12.3°C 97% Calm Calm 1.0 mph1.6 kmh 30.02 in1016.6 mb 0.03 in0.8 mm 0.00 in/hr0.0 mm/hr 0.04 in1.0 mm
08:27 AM 54.9°F12.7°C 54.1°F12.3°C 97% Calm Calm 1.0 mph1.6 kmh 30.02 in1016.6 mb 0.03 in0.8 mm 0.00 in/hr0.0 mm/hr 0.04 in1.0 mm
08:26 AM 54.9°F12.7°C 54.1°F12.3°C 97% Calm Calm 1.0 mph1.6 kmh 30.02 in1016.6 mb 0.03 in0.8 mm 0.00 in/hr0.0 mm/hr 0.04 in1.0 mm
08:25 AM 54.9°F12.7°C 54.1°F12.3°C 97% Calm Calm -- 30.02 in1016.6 mb 0.03 in0.8 mm 0.00 in/hr0.0 mm/hr 0.04 in1.0 mm
08:24 AM 54.9°F12.7°C 54.1°F12.3°C 97% Calm Calm -- 30.02 in1016.6 mb 0.03 in0.8 mm 0.00 in/hr0.0 mm/hr 0.04 in1.0 mm
08:23 AM 54.9°F12.7°C 54.1°F12.3°C 97% Calm Calm -- 30.02 in1016.6 mb 0.03 in0.8 mm 0.00 in/hr0.0 mm/hr 0.04 in1.0 mm
08:22 AM 55.0°F12.8°C 54.2°F12.3°C 97% Calm Calm -- 30.02 in1016.6 mb 0.03 in0.8 mm 0.00 in/hr0.0 mm/hr 0.04 in1.0 mm
08:21 AM 55.0°F12.8°C 54.2°F12.3°C 97% Calm Calm -- 30.02 in1016.6 mb 0.03 in0.8 mm 0.00 in/hr0.0 mm/hr 0.04 in1.0 mm
08:20 AM 55.0°F12.8°C 54.2°F12.3°C 97% Calm Calm -- 30.02 in1016.6 mb 0.03 in0.8 mm 0.00 in/hr0.0 mm/hr 0.04 in1.0 mm
08:19 AM 55.0°F12.8°C 54.2°F12.3°C 97% Calm Calm -- 30.02 in1016.6 mb 0.03 in0.8 mm 0.00 in/hr0.0 mm/hr 0.04 in1.0 mm
08:18 AM 55.0°F12.8°C 54.2°F12.3°C 97% Calm Calm 1.0 mph1.6 kmh 30.02 in1016.6 mb 0.03 in0.8 mm 0.00 in/hr0.0 mm/hr 0.04 in1.0 mm
08:17 AM 55.0°F12.8°C 54.2°F12.3°C 97% Calm Calm 1.0 mph1.6 kmh 30.02 in1016.6 mb 0.03 in0.8 mm 0.00 in/hr0.0 mm/hr 0.04 in1.0 mm
08:16 AM 55.0°F12.8°C 54.2°F12.3°C 97% Calm Calm 1.0 mph1.6 kmh 30.02 in1016.6 mb 0.03 in0.8 mm 0.00 in/hr0.0 mm/hr 0.04 in1.0 mm
08:15 AM 55.0°F12.8°C 54.2°F12.3°C 97% Calm Calm 1.0 mph1.6 kmh 30.02 in1016.6 mb 0.03 in0.8 mm 0.00 in/hr0.0 mm/hr 0.04 in1.0 mm
08:14 AM 55.0°F12.8°C 54.2°F12.3°C 97% Calm Calm 1.0 mph1.6 kmh 30.02 in1016.6 mb 0.03 in0.8 mm 0.00 in/hr0.0 mm/hr 0.04 in1.0 mm
08:13 AM 55.0°F12.8°C 54.2°F12.3°C 97% Calm Calm 1.0 mph1.6 kmh 30.02 in1016.6 mb 0.03 in0.8 mm 0.00 in/hr0.0 mm/hr 0.04 in1.0 mm
08:12 AM 55.0°F12.8°C 54.2°F12.3°C 97% Calm Calm 1.0 mph1.6 kmh 30.01 in1016.3 mb 0.03 in0.8 mm 0.00 in/hr0.0 mm/hr 0.04 in1.0 mm
08:11 AM 55.1°F12.8°C 54.3°F12.4°C 97% Calm Calm 1.0 mph1.6 kmh 30.01 in1016.3 mb 0.03 in0.8 mm 0.00 in/hr0.0 mm/hr 0.04 in1.0 mm
08:10 AM 55.0°F12.8°C 54.2°F12.3°C 97% Calm Calm 1.0 mph1.6 kmh 30.01 in1016.3 mb 0.03 in0.8 mm 0.60 in/hr15.2 mm/hr 0.04 in1.0 mm
08:09 AM 55.1°F12.8°C 54.3°F12.4°C 97% Calm Calm 1.0 mph1.6 kmh 30.01 in1016.3 mb 0.02 in0.5 mm 0.00 in/hr0.0 mm/hr 0.03 in0.8 mm
08:08 AM 55.1°F12.8°C 54.3°F12.4°C 97% Calm Calm 1.0 mph1.6 kmh 30.01 in1016.3 mb 0.02 in0.5 mm 0.00 in/hr0.0 mm/hr 0.03 in0.8 mm
08:07 AM 55.0°F12.8°C 54.2°F12.3°C 97% Calm Calm 1.0 mph1.6 kmh 30.01 in1016.3 mb 0.02 in0.5 mm 0.00 in/hr0.0 mm/hr 0.03 in0.8 mm
08:06 AM 55.0°F12.8°C 54.2°F12.3°C 97% Calm Calm 1.0 mph1.6 kmh 30.01 in1016.3 mb 0.02 in0.5 mm 0.00 in/hr0.0 mm/hr 0.03 in0.8 mm
08:05 AM 55.0°F12.8°C 54.2°F12.3°C 97% Calm Calm 2.0 mph3.2 kmh 30.01 in1016.3 mb 0.02 in0.5 mm 0.00 in/hr0.0 mm/hr 0.03 in0.8 mm
08:04 AM 55.0°F12.8°C 54.2°F12.3°C 97% Calm Calm 2.0 mph3.2 kmh 30.01 in1016.3 mb 0.02 in0.5 mm 0.00 in/hr0.0 mm/hr 0.03 in0.8 mm
08:03 AM 55.0°F12.8°C 54.2°F12.3°C 97% Calm Calm 2.0 mph3.2 kmh 30.01 in1016.3 mb 0.02 in0.5 mm 0.00 in/hr0.0 mm/hr 0.03 in0.8 mm
08:02 AM 54.9°F12.7°C 54.1°F12.3°C 97% Calm Calm 2.0 mph3.2 kmh 30.01 in1016.3 mb 0.02 in0.5 mm 0.00 in/hr0.0 mm/hr 0.03 in0.8 mm
08:01 AM 54.9°F12.7°C 54.1°F12.3°C 97% Calm Calm 2.0 mph3.2 kmh 30.01 in1016.3 mb 0.02 in0.5 mm 0.00 in/hr0.0 mm/hr 0.03 in0.8 mm
08:00 AM 54.9°F12.7°C 54.1°F12.3°C 97% Calm Calm 2.0 mph3.2 kmh 30.01 in1016.3 mb 0.02 in0.5 mm 0.00 in/hr0.0 mm/hr 0.03 in0.8 mm
07:59 AM 54.9°F12.7°C 54.1°F12.3°C 97% Calm Calm 2.0 mph3.2 kmh 30.01 in1016.3 mb 0.02 in0.5 mm 0.00 in/hr0.0 mm/hr 0.03 in0.8 mm
07:58 AM 55.0°F12.8°C 54.2°F12.3°C 97% Calm Calm 2.0 mph3.2 kmh 30.01 in1016.3 mb 0.02 in0.5 mm 0.00 in/hr0.0 mm/hr 0.03 in0.8 mm
07:57 AM 55.0°F12.8°C 54.2°F12.3°C 97% Calm Calm 2.0 mph3.2 kmh 30.01 in1016.3 mb 0.02 in0.5 mm 0.00 in/hr0.0 mm/hr 0.03 in0.8 mm
07:56 AM 55.0°F12.8°C 54.2°F12.3°C 97% Calm Calm 2.0 mph3.2 kmh 30.01 in1016.3 mb 0.02 in0.5 mm 0.60 in/hr15.2 mm/hr 0.03 in0.8 mm
07:55 AM 55.0°F12.8°C 54.2°F12.3°C 97% Calm Calm 1.0 mph1.6 kmh 30.01 in1016.3 mb 0.01 in0.3 mm 0.00 in/hr0.0 mm/hr 0.02 in0.5 mm
07:54 AM 55.0°F12.8°C 54.2°F12.3°C 97% Calm Calm 1.0 mph1.6 kmh 30.01 in1016.3 mb 0.01 in0.3 mm 0.00 in/hr0.0 mm/hr 0.02 in0.5 mm
07:53 AM 55.1°F12.8°C 54.3°F12.4°C 97% Calm Calm 2.0 mph3.2 kmh 30.01 in1016.3 mb 0.01 in0.3 mm 0.00 in/hr0.0 mm/hr 0.02 in0.5 mm
07:52 AM 55.1°F12.8°C 54.3°F12.4°C 97% Calm Calm 2.0 mph3.2 kmh 30.01 in1016.3 mb 0.01 in0.3 mm 0.00 in/hr0.0 mm/hr 0.02 in0.5 mm
07:51 AM 55.1°F12.8°C 54.3°F12.4°C 97% Calm Calm 2.0 mph3.2 kmh 30.01 in1016.3 mb 0.01 in0.3 mm 0.00 in/hr0.0 mm/hr 0.02 in0.5 mm
07:50 AM 55.1°F12.8°C 54.3°F12.4°C 97% Calm Calm 2.0 mph3.2 kmh 30.01 in1016.3 mb 0.01 in0.3 mm 0.00 in/hr0.0 mm/hr 0.02 in0.5 mm
07:49 AM 55.1°F12.8°C 54.3°F12.4°C 97% Calm Calm 2.0 mph3.2 kmh 30.01 in1016.3 mb 0.01 in0.3 mm 0.00 in/hr0.0 mm/hr 0.02 in0.5 mm
07:48 AM 55.1°F12.8°C 54.3°F12.4°C 97% Calm Calm 2.0 mph3.2 kmh 30.01 in1016.3 mb 0.01 in0.3 mm 0.00 in/hr0.0 mm/hr 0.02 in0.5 mm
07:47 AM 55.1°F12.8°C 54.3°F12.4°C 97% Calm Calm 2.0 mph3.2 kmh 30.01 in1016.3 mb 0.02 in0.5 mm 0.00 in/hr0.0 mm/hr 0.02 in0.5 mm
07:46 AM 55.0°F12.8°C 54.2°F12.3°C 97% Calm Calm 2.0 mph3.2 kmh 30.01 in1016.3 mb 0.02 in0.5 mm 0.00 in/hr0.0 mm/hr 0.02 in0.5 mm
07:45 AM 55.1°F12.8°C 54.3°F12.4°C 97% Calm Calm 2.0 mph3.2 kmh 30.01 in1016.3 mb 0.02 in0.5 mm 0.00 in/hr0.0 mm/hr 0.02 in0.5 mm
07:44 AM 55.1°F12.8°C 54.3°F12.4°C 97% Calm Calm 2.0 mph3.2 kmh 30.01 in1016.3 mb 0.02 in0.5 mm 0.00 in/hr0.0 mm/hr 0.02 in0.5 mm
07:43 AM 55.1°F12.8°C 54.3°F12.4°C 97% Calm Calm 1.0 mph1.6 kmh 30.01 in1016.3 mb 0.02 in0.5 mm 0.00 in/hr0.0 mm/hr 0.02 in0.5 mm
07:42 AM 55.2°F12.9°C 54.4°F12.4°C 97% Calm Calm 1.0 mph1.6 kmh 30.01 in1016.3 mb 0.02 in0.5 mm 0.00 in/hr0.0 mm/hr 0.02 in0.5 mm
07:41 AM 55.2°F12.9°C 55.2°F12.9°C 100% Calm Calm 1.0 mph1.6 kmh 30.01 in1016.3 mb 0.02 in0.5 mm 0.00 in/hr0.0 mm/hr 0.02 in0.5 mm
07:40 AM 55.2°F12.9°C 55.2°F12.9°C 100% Calm Calm 1.0 mph1.6 kmh 30.00 in1015.9 mb 0.02 in0.5 mm 0.00 in/hr0.0 mm/hr 0.02 in0.5 mm
07:39 AM 55.2°F12.9°C 55.2°F12.9°C 100% Calm Calm -- 30.01 in1016.3 mb 0.02 in0.5 mm 0.00 in/hr0.0 mm/hr 0.02 in0.5 mm
07:38 AM 55.2°F12.9°C 55.2°F12.9°C 100% Calm Calm -- 30.00 in1015.9 mb 0.02 in0.5 mm 0.00 in/hr0.0 mm/hr 0.02 in0.5 mm
07:37 AM 55.2°F12.9°C 54.4°F12.4°C 97% Calm Calm -- 30.00 in1015.9 mb 0.02 in0.5 mm 0.00 in/hr0.0 mm/hr 0.02 in0.5 mm
07:36 AM 55.2°F12.9°C 55.2°F12.9°C 100% Calm Calm -- 30.00 in1015.9 mb 0.02 in0.5 mm 0.00 in/hr0.0 mm/hr 0.02 in0.5 mm
07:35 AM 55.3°F12.9°C 55.3°F12.9°C 100% Calm Calm -- 30.00 in1015.9 mb 0.02 in0.5 mm 0.00 in/hr0.0 mm/hr 0.02 in0.5 mm
07:34 AM 55.3°F12.9°C 55.3°F12.9°C 100% Calm Calm -- 30.00 in1015.9 mb 0.02 in0.5 mm 0.00 in/hr0.0 mm/hr 0.02 in0.5 mm
07:33 AM 55.3°F12.9°C 55.3°F12.9°C 100% Calm Calm -- 30.00 in1015.9 mb 0.02 in0.5 mm 0.00 in/hr0.0 mm/hr 0.02 in0.5 mm
07:32 AM 55.3°F12.9°C 55.3°F12.9°C 100% Calm Calm -- 30.00 in1015.9 mb 0.02 in0.5 mm 0.00 in/hr0.0 mm/hr 0.02 in0.5 mm
07:31 AM 55.3°F12.9°C 55.3°F12.9°C 100% Calm Calm -- 30.00 in1015.9 mb 0.02 in0.5 mm 0.00 in/hr0.0 mm/hr 0.02 in0.5 mm
07:30 AM 55.2°F12.9°C 55.2°F12.9°C 100% Calm Calm -- 30.00 in1015.9 mb 0.02 in0.5 mm 0.00 in/hr0.0 mm/hr 0.02 in0.5 mm
07:29 AM 55.2°F12.9°C 55.2°F12.9°C 100% Calm Calm -- 30.00 in1015.9 mb 0.02 in0.5 mm 0.60 in/hr15.2 mm/hr 0.02 in0.5 mm
07:28 AM 55.3°F12.9°C 55.3°F12.9°C 100% Calm Calm -- 30.00 in1015.9 mb 0.01 in0.3 mm 0.00 in/hr0.0 mm/hr 0.01 in0.3 mm
07:27 AM 55.3°F12.9°C 55.3°F12.9°C 100% Calm Calm -- 30.00 in1015.9 mb 0.01 in0.3 mm 0.00 in/hr0.0 mm/hr 0.01 in0.3 mm
07:26 AM 55.3°F12.9°C 55.3°F12.9°C 100% Calm Calm -- 30.00 in1015.9 mb 0.01 in0.3 mm 0.00 in/hr0.0 mm/hr 0.01 in0.3 mm
07:25 AM 55.3°F12.9°C 55.3°F12.9°C 100% Calm Calm -- 30.00 in1015.9 mb 0.01 in0.3 mm 0.00 in/hr0.0 mm/hr 0.01 in0.3 mm
07:24 AM 55.2°F12.9°C 55.2°F12.9°C 100% Calm Calm -- 30.00 in1015.9 mb 0.01 in0.3 mm 0.00 in/hr0.0 mm/hr 0.01 in0.3 mm
07:23 AM 55.2°F12.9°C 55.2°F12.9°C 100% Calm Calm -- 30.00 in1015.9 mb 0.01 in0.3 mm 0.00 in/hr0.0 mm/hr 0.01 in0.3 mm
07:22 AM 55.2°F12.9°C 55.2°F12.9°C 100% Calm Calm -- 30.00 in1015.9 mb 0.01 in0.3 mm 0.00 in/hr0.0 mm/hr 0.01 in0.3 mm
07:21 AM 55.1°F12.8°C 55.1°F12.8°C 100% Calm Calm -- 30.00 in1015.9 mb 0.01 in0.3 mm 0.00 in/hr0.0 mm/hr 0.01 in0.3 mm
07:20 AM 55.1°F12.8°C 55.1°F12.8°C 100% Calm Calm -- 30.00 in1015.9 mb 0.01 in0.3 mm 0.00 in/hr0.0 mm/hr 0.01 in0.3 mm
07:19 AM 55.1°F12.8°C 55.1°F12.8°C 100% Calm Calm -- 30.00 in1015.9 mb 0.01 in0.3 mm 0.00 in/hr0.0 mm/hr 0.01 in0.3 mm
07:18 AM 55.1°F12.8°C 55.1°F12.8°C 100% Calm Calm -- 30.00 in1015.9 mb 0.01 in0.3 mm 0.00 in/hr0.0 mm/hr 0.01 in0.3 mm
07:17 AM 55.1°F12.8°C 55.1°F12.8°C 100% Calm Calm -- 30.00 in1015.9 mb 0.01 in0.3 mm 0.00 in/hr0.0 mm/hr 0.01 in0.3 mm
07:16 AM 55.1°F12.8°C 55.1°F12.8°C 100% Calm Calm 1.0 mph1.6 kmh 30.00 in1015.9 mb 0.01 in0.3 mm 0.00 in/hr0.0 mm/hr 0.01 in0.3 mm
07:15 AM 55.0°F12.8°C 55.0°F12.8°C 100% Calm Calm 1.0 mph1.6 kmh 29.99 in1015.6 mb 0.01 in0.3 mm 0.00 in/hr0.0 mm/hr 0.01 in0.3 mm
07:14 AM 55.0°F12.8°C 55.0°F12.8°C 100% Calm Calm 1.0 mph1.6 kmh 30.00 in1015.9 mb 0.01 in0.3 mm 0.00 in/hr0.0 mm/hr 0.01 in0.3 mm
07:13 AM 55.1°F12.8°C 54.3°F12.4°C 97% Calm Calm 1.0 mph1.6 kmh 30.00 in1015.9 mb 0.01 in0.3 mm 0.00 in/hr0.0 mm/hr 0.01 in0.3 mm
07:12 AM 55.1°F12.8°C 54.3°F12.4°C 97% Calm Calm 1.0 mph1.6 kmh 29.99 in1015.6 mb 0.01 in0.3 mm 0.00 in/hr0.0 mm/hr 0.01 in0.3 mm
07:11 AM 55.1°F12.8°C 54.3°F12.4°C 97% Calm Calm 1.0 mph1.6 kmh 29.99 in1015.6 mb 0.01 in0.3 mm 0.00 in/hr0.0 mm/hr 0.01 in0.3 mm
07:10 AM 55.1°F12.8°C 55.1°F12.8°C 100% Calm Calm 1.0 mph1.6 kmh 29.99 in1015.6 mb 0.01 in0.3 mm 0.00 in/hr0.0 mm/hr 0.01 in0.3 mm
07:09 AM 55.1°F12.8°C 55.1°F12.8°C 100% Calm Calm 1.0 mph1.6 kmh 29.99 in1015.6 mb 0.01 in0.3 mm 0.00 in/hr0.0 mm/hr 0.01 in0.3 mm
07:08 AM 55.1°F12.8°C 55.1°F12.8°C 100% Calm Calm 1.0 mph1.6 kmh 29.99 in1015.6 mb 0.01 in0.3 mm 0.00 in/hr0.0 mm/hr 0.01 in0.3 mm
07:07 AM 55.2°F12.9°C 55.2°F12.9°C 100% Calm Calm 1.0 mph1.6 kmh 29.99 in1015.6 mb 0.01 in0.3 mm 0.00 in/hr0.0 mm/hr 0.01 in0.3 mm
07:06 AM 55.2°F12.9°C 55.2°F12.9°C 100% Calm Calm 1.0 mph1.6 kmh 29.98 in1015.2 mb 0.01 in0.3 mm 0.00 in/hr0.0 mm/hr 0.01 in0.3 mm
07:05 AM 55.2°F12.9°C 55.2°F12.9°C 100% Calm Calm 1.0 mph1.6 kmh 29.98 in1015.2 mb 0.01 in0.3 mm 0.00 in/hr0.0 mm/hr 0.01 in0.3 mm
07:04 AM 55.2°F12.9°C 55.2°F12.9°C 100% Calm Calm 1.0 mph1.6 kmh 29.98 in1015.2 mb 0.01 in0.3 mm 0.00 in/hr0.0 mm/hr 0.01 in0.3 mm
07:03 AM 55.2°F12.9°C 55.2°F12.9°C 100% Calm Calm 1.0 mph1.6 kmh 29.98 in1015.2 mb 0.01 in0.3 mm 0.00 in/hr0.0 mm/hr 0.01 in0.3 mm
07:02 AM 55.3°F12.9°C 55.3°F12.9°C 100% Calm Calm -- 29.99 in1015.6 mb 0.01 in0.3 mm 0.00 in/hr0.0 mm/hr 0.01 in0.3 mm
07:01 AM 55.3°F12.9°C 55.3°F12.9°C 100% Calm Calm -- 29.98 in1015.2 mb 0.01 in0.3 mm 0.00 in/hr0.0 mm/hr 0.01 in0.3 mm
07:00 AM 55.3°F12.9°C 55.3°F12.9°C 100% Calm Calm -- 29.98 in1015.2 mb 0.01 in0.3 mm 0.00 in/hr0.0 mm/hr 0.01 in0.3 mm
06:59 AM 55.3°F12.9°C 55.3°F12.9°C 100% Calm Calm -- 29.98 in1015.2 mb 0.01 in0.3 mm 0.00 in/hr0.0 mm/hr 0.01 in0.3 mm
06:58 AM 55.3°F12.9°C 55.3°F12.9°C 100% Calm Calm -- 29.98 in1015.2 mb 0.01 in0.3 mm 0.00 in/hr0.0 mm/hr 0.01 in0.3 mm
06:57 AM 55.3°F12.9°C 55.3°F12.9°C 100% Calm Calm -- 29.98 in1015.2 mb 0.01 in0.3 mm 0.00 in/hr0.0 mm/hr 0.01 in0.3 mm
06:56 AM 55.2°F12.9°C 55.2°F12.9°C 100% Calm Calm -- 29.98 in1015.2 mb 0.01 in0.3 mm 0.00 in/hr0.0 mm/hr 0.01 in0.3 mm
06:55 AM 55.2°F12.9°C 55.2°F12.9°C 100% Calm Calm -- 29.98 in1015.2 mb 0.01 in0.3 mm 0.00 in/hr0.0 mm/hr 0.01 in0.3 mm
06:54 AM 55.2°F12.9°C 55.2°F12.9°C 100% Calm Calm 1.0 mph1.6 kmh 29.98 in1015.2 mb 0.01 in0.3 mm 0.00 in/hr0.0 mm/hr 0.01 in0.3 mm
06:53 AM 55.2°F12.9°C 55.2°F12.9°C 100% Calm Calm 1.0 mph1.6 kmh 29.98 in1015.2 mb 0.01 in0.3 mm 0.00 in/hr0.0 mm/hr 0.01 in0.3 mm
06:52 AM 55.2°F12.9°C 55.2°F12.9°C 100% Calm Calm 1.0 mph1.6 kmh 29.98 in1015.2 mb 0.01 in0.3 mm 0.00 in/hr0.0 mm/hr 0.01 in0.3 mm
06:51 AM 55.2°F12.9°C 55.2°F12.9°C 100% Calm Calm 1.0 mph1.6 kmh 29.98 in1015.2 mb 0.01 in0.3 mm 0.00 in/hr0.0 mm/hr 0.01 in0.3 mm
06:50 AM 55.1°F12.8°C 55.1°F12.8°C 100% Calm Calm 1.0 mph1.6 kmh 29.98 in1015.2 mb 0.01 in0.3 mm 0.00 in/hr0.0 mm/hr 0.01 in0.3 mm
06:49 AM 55.1°F12.8°C 55.1°F12.8°C 100% Calm Calm 1.0 mph1.6 kmh 29.98 in1015.2 mb 0.01 in0.3 mm 0.00 in/hr0.0 mm/hr 0.01 in0.3 mm
06:48 AM 55.1°F12.8°C 55.1°F12.8°C 100% Calm Calm 1.0 mph1.6 kmh 29.98 in1015.2 mb 0.01 in0.3 mm 0.60 in/hr15.2 mm/hr 0.01 in0.3 mm
06:47 AM 55.2°F12.9°C 55.2°F12.9°C 100% Calm Calm 1.0 mph1.6 kmh 29.98 in1015.2 mb 0.00 in0.0 mm 0.00 in/hr0.0 mm/hr 0.00 in0.0 mm
06:46 AM 55.2°F12.9°C 55.2°F12.9°C 100% Calm Calm 1.0 mph1.6 kmh 29.98 in1015.2 mb 0.00 in0.0 mm 0.00 in/hr0.0 mm/hr 0.00 in0.0 mm
06:45 AM 55.2°F12.9°C 55.2°F12.9°C 100% Calm Calm 1.0 mph1.6 kmh 29.98 in1015.2 mb 0.00 in0.0 mm 0.00 in/hr0.0 mm/hr 0.00 in0.0 mm
06:44 AM 55.2°F12.9°C 55.2°F12.9°C 100% Calm Calm 1.0 mph1.6 kmh 29.98 in1015.2 mb 0.00 in0.0 mm 0.00 in/hr0.0 mm/hr 0.00 in0.0 mm
06:43 AM 55.2°F12.9°C 55.2°F12.9°C 100% Calm Calm -- 29.98 in1015.2 mb 0.00 in0.0 mm 0.00 in/hr0.0 mm/hr 0.00 in0.0 mm
06:42 AM 55.2°F12.9°C 55.2°F12.9°C 100% Calm Calm 1.0 mph1.6 kmh 29.98 in1015.2 mb 0.00 in0.0 mm 0.00 in/hr0.0 mm/hr 0.00 in0.0 mm
06:41 AM 55.1°F12.8°C 55.1°F12.8°C 100% Calm Calm 1.0 mph1.6 kmh 29.98 in1015.2 mb 0.00 in0.0 mm 0.00 in/hr0.0 mm/hr 0.00 in0.0 mm
06:40 AM 55.1°F12.8°C 55.1°F12.8°C 100% Calm Calm 1.0 mph1.6 kmh 29.98 in1015.2 mb 0.00 in0.0 mm 0.00 in/hr0.0 mm/hr 0.00 in0.0 mm
06:39 AM 55.1°F12.8°C 55.1°F12.8°C 100% Calm Calm 1.0 mph1.6 kmh 29.98 in1015.2 mb 0.00 in0.0 mm 0.00 in/hr0.0 mm/hr 0.00 in0.0 mm
06:38 AM 55.1°F12.8°C 55.1°F12.8°C 100% Calm Calm 1.0 mph1.6 kmh 29.98 in1015.2 mb 0.00 in0.0 mm 0.00 in/hr0.0 mm/hr 0.00 in0.0 mm
06:37 AM 55.1°F12.8°C 55.1°F12.8°C 100% Calm Calm 1.0 mph1.6 kmh 29.98 in1015.2 mb 0.00 in0.0 mm 0.00 in/hr0.0 mm/hr 0.00 in0.0 mm
06:36 AM 55.1°F12.8°C 55.1°F12.8°C 100% Calm Calm 1.0 mph1.6 kmh 29.97 in1014.9 mb 0.00 in0.0 mm 0.00 in/hr0.0 mm/hr 0.00 in0.0 mm
06:35 AM 55.1°F12.8°C 55.1°F12.8°C 100% Calm Calm 1.0 mph1.6 kmh 29.97 in1014.9 mb 0.00 in0.0 mm 0.00 in/hr0.0 mm/hr 0.00 in0.0 mm
06:34 AM 55.1°F12.8°C 55.1°F12.8°C 100% Calm Calm 1.0 mph1.6 kmh 29.97 in1014.9 mb 0.00 in0.0 mm 0.00 in/hr0.0 mm/hr 0.00 in0.0 mm
06:33 AM 55.1°F12.8°C 55.1°F12.8°C 100% Calm Calm 1.0 mph1.6 kmh 29.97 in1014.9 mb 0.00 in0.0 mm 0.00 in/hr0.0 mm/hr 0.00 in0.0 mm
06:32 AM 55.1°F12.8°C 55.1°F12.8°C 100% Calm Calm 1.0 mph1.6 kmh 29.97 in1014.9 mb 0.00 in0.0 mm 0.00 in/hr0.0 mm/hr 0.00 in0.0 mm
06:31 AM 55.1°F12.8°C 55.1°F12.8°C 100% Calm Calm 1.0 mph1.6 kmh 29.97 in1014.9 mb 0.00 in0.0 mm 0.00 in/hr0.0 mm/hr 0.00 in0.0 mm
06:30 AM 55.2°F12.9°C 55.2°F12.9°C 100% Calm Calm 1.0 mph1.6 kmh 29.97 in1014.9 mb 0.00 in0.0 mm 0.00 in/hr0.0 mm/hr 0.00 in0.0 mm
06:29 AM 55.2°F12.9°C 55.2°F12.9°C 100% Calm Calm 1.0 mph1.6 kmh 29.97 in1014.9 mb 0.00 in0.0 mm 0.00 in/hr0.0 mm/hr 0.00 in0.0 mm
06:28 AM 55.2°F12.9°C 55.2°F12.9°C 100% Calm Calm 1.0 mph1.6 kmh 29.97 in1014.9 mb 0.00 in0.0 mm 0.00 in/hr0.0 mm/hr 0.00 in0.0 mm
06:27 AM 55.2°F12.9°C 55.2°F12.9°C 100% Calm Calm 1.0 mph1.6 kmh 29.97 in1014.9 mb 0.00 in0.0 mm 0.00 in/hr0.0 mm/hr 0.00 in0.0 mm
06:26 AM 55.2°F12.9°C 55.2°F12.9°C 100% Calm Calm 1.0 mph1.6 kmh 29.97 in1014.9 mb 0.00 in0.0 mm 0.00 in/hr0.0 mm/hr 0.00 in0.0 mm
06:25 AM 55.2°F12.9°C 55.2°F12.9°C 100% Calm Calm 1.0 mph1.6 kmh 29.97 in1014.9 mb 0.00 in0.0 mm 0.00 in/hr0.0 mm/hr 0.00 in0.0 mm
06:24 AM 55.1°F12.8°C 55.1°F12.8°C 100% Calm Calm 1.0 mph1.6 kmh 29.97 in1014.9 mb 0.00 in0.0 mm 0.00 in/hr0.0 mm/hr 0.00 in0.0 mm
06:23 AM 55.1°F12.8°C 55.1°F12.8°C 100% Calm Calm 1.0 mph1.6 kmh 29.97 in1014.9 mb 0.00 in0.0 mm 0.00 in/hr0.0 mm/hr 0.00 in0.0 mm
06:22 AM 55.1°F12.8°C 55.1°F12.8°C 100% Calm Calm 1.0 mph1.6 kmh 29.97 in1014.9 mb 0.00 in0.0 mm 0.00 in/hr0.0 mm/hr 0.00 in0.0 mm
06:21 AM 55.1°F12.8°C 55.1°F12.8°C 100% Calm Calm 1.0 mph1.6 kmh 29.96 in1014.6 mb 0.00 in0.0 mm 0.00 in/hr0.0 mm/hr 0.00 in0.0 mm
06:20 AM 55.2°F12.9°C 55.2°F12.9°C 100% Calm Calm 1.0 mph1.6 kmh 29.96 in1014.6 mb 0.00 in0.0 mm 0.00 in/hr0.0 mm/hr 0.00 in0.0 mm
06:19 AM 55.2°F12.9°C 55.2°F12.9°C 100% Calm Calm 1.0 mph1.6 kmh 29.96 in1014.6 mb 0.00 in0.0 mm 0.00 in/hr0.0 mm/hr 0.00 in0.0 mm
06:18 AM 55.2°F12.9°C 55.2°F12.9°C 100% Calm Calm 1.0 mph1.6 kmh 29.96 in1014.6 mb 0.00 in0.0 mm 0.00 in/hr0.0 mm/hr 0.00 in0.0 mm
06:17 AM 55.2°F12.9°C 55.2°F12.9°C 100% Calm Calm 1.0 mph1.6 kmh 29.96 in1014.6 mb 0.00 in0.0 mm 0.00 in/hr0.0 mm/hr 0.00 in0.0 mm
06:16 AM 55.2°F12.9°C 55.2°F12.9°C 100% Calm Calm 1.0 mph1.6 kmh 29.97 in1014.9 mb 0.00 in0.0 mm 0.00 in/hr0.0 mm/hr 0.00 in0.0 mm
06:15 AM 55.2°F12.9°C 55.2°F12.9°C 100% Calm Calm 1.0 mph1.6 kmh 29.97 in1014.9 mb 0.00 in0.0 mm 0.00 in/hr0.0 mm/hr 0.00 in0.0 mm
06:14 AM 55.2°F12.9°C 55.2°F12.9°C 100% Calm Calm 1.0 mph1.6 kmh 29.97 in1014.9 mb 0.00 in0.0 mm 0.00 in/hr0.0 mm/hr 0.00 in0.0 mm
06:13 AM 55.2°F12.9°C 55.2°F12.9°C 100% Calm Calm 1.0 mph1.6 kmh 29.96 in1014.6 mb 0.00 in0.0 mm 0.00 in/hr0.0 mm/hr 0.00 in0.0 mm
06:12 AM 55.2°F12.9°C 55.2°F12.9°C 100% Calm Calm 1.0 mph1.6 kmh 29.96 in1014.6 mb 0.00 in0.0 mm 0.00 in/hr0.0 mm/hr 0.00 in0.0 mm
06:11 AM 55.2°F12.9°C 55.2°F12.9°C 100% Calm Calm 1.0 mph1.6 kmh 29.96 in1014.6 mb 0.00 in0.0 mm 0.00 in/hr0.0 mm/hr 0.00 in0.0 mm
06:10 AM 55.2°F12.9°C 55.2°F12.9°C 100% Calm Calm 1.0 mph1.6 kmh 29.96 in1014.6 mb 0.00 in0.0 mm 0.00 in/hr0.0 mm/hr 0.00 in0.0 mm
06:09 AM 55.2°F12.9°C 55.2°F12.9°C 100% Calm Calm 1.0 mph1.6 kmh 29.96 in1014.6 mb 0.00 in0.0 mm 0.00 in/hr0.0 mm/hr 0.00 in0.0 mm
06:08 AM 55.2°F12.9°C 55.2°F12.9°C 100% Calm Calm 1.0 mph1.6 kmh 29.96 in1014.6 mb 0.00 in0.0 mm 0.00 in/hr0.0 mm/hr 0.00 in0.0 mm
06:07 AM 55.2°F12.9°C 55.2°F12.9°C 100% Calm Calm 1.0 mph1.6 kmh 29.96 in1014.6 mb 0.00 in0.0 mm 0.00 in/hr0.0 mm/hr 0.00 in0.0 mm
06:06 AM 55.2°F12.9°C 55.2°F12.9°C 100% Calm Calm 1.0 mph1.6 kmh 29.96 in1014.6 mb 0.00 in0.0 mm 0.00 in/hr0.0 mm/hr 0.00 in0.0 mm
06:05 AM 55.2°F12.9°C 55.2°F12.9°C 100% Calm Calm 1.0 mph1.6 kmh 29.96 in1014.6 mb 0.00 in0.0 mm 0.00 in/hr0.0 mm/hr 0.00 in0.0 mm
06:04 AM 55.2°F12.9°C 55.2°F12.9°C 100% Calm Calm 1.0 mph1.6 kmh 29.96 in1014.6 mb 0.00 in0.0 mm 0.00 in/hr0.0 mm/hr 0.00 in0.0 mm
06:03 AM 55.2°F12.9°C 55.2°F12.9°C 100% Calm Calm 1.0 mph1.6 kmh 29.96 in1014.6 mb 0.00 in0.0 mm 0.00 in/hr0.0 mm/hr 0.00 in0.0 mm
06:02 AM 55.2°F12.9°C 55.2°F12.9°C 100% Calm Calm 1.0 mph1.6 kmh 29.96 in1014.6 mb 0.00 in0.0 mm 0.00 in/hr0.0 mm/hr 0.00 in0.0 mm
06:01 AM 55.2°F12.9°C 55.2°F12.9°C 100% Calm Calm 1.0 mph1.6 kmh 29.96 in1014.6 mb 0.00 in0.0 mm 0.00 in/hr0.0 mm/hr 0.00 in0.0 mm
06:00 AM 55.2°F12.9°C 55.2°F12.9°C 100% Calm Calm 1.0 mph1.6 kmh 29.96 in1014.6 mb 0.00 in0.0 mm 0.00 in/hr0.0 mm/hr 0.00 in0.0 mm
05:59 AM 55.2°F12.9°C 55.2°F12.9°C 100% Calm Calm 1.0 mph1.6 kmh 29.96 in1014.6 mb 0.00 in0.0 mm 0.00 in/hr0.0 mm/hr 0.00 in0.0 mm
05:58 AM 55.2°F12.9°C 55.2°F12.9°C 100% Calm Calm 1.0 mph1.6 kmh 29.96 in1014.6 mb 0.00 in0.0 mm 0.00 in/hr0.0 mm/hr 0.00 in0.0 mm
05:57 AM 55.2°F12.9°C 55.2°F12.9°C 100% Calm Calm 1.0 mph1.6 kmh 29.96 in1014.6 mb 0.00 in0.0 mm 0.00 in/hr0.0 mm/hr 0.00 in0.0 mm
05:56 AM 55.2°F12.9°C 55.2°F12.9°C 100% Calm Calm 1.0 mph1.6 kmh 29.96 in1014.6 mb 0.00 in0.0 mm 0.00 in/hr0.0 mm/hr 0.00 in0.0 mm
05:55 AM 55.2°F12.9°C 55.2°F12.9°C 100% Calm Calm 1.0 mph1.6 kmh 29.96 in1014.6 mb 0.00 in0.0 mm 0.00 in/hr0.0 mm/hr 0.00 in0.0 mm
05:54 AM 55.2°F12.9°C 55.2°F12.9°C 100% Calm Calm 1.0 mph1.6 kmh 29.96 in1014.6 mb 0.00 in0.0 mm 0.00 in/hr0.0 mm/hr 0.00 in0.0 mm
05:53 AM 55.2°F12.9°C 55.2°F12.9°C 100% Calm Calm 1.0 mph1.6 kmh 29.96 in1014.6 mb 0.00 in0.0 mm 0.00 in/hr0.0 mm/hr 0.00 in0.0 mm
05:52 AM 55.2°F12.9°C 55.2°F12.9°C 100% Calm Calm 1.0 mph1.6 kmh 29.96 in1014.6 mb 0.00 in0.0 mm 0.00 in/hr0.0 mm/hr 0.00 in0.0 mm
05:51 AM 55.2°F12.9°C 55.2°F12.9°C 100% Calm Calm 1.0 mph1.6 kmh 29.96 in1014.6 mb 0.00 in0.0 mm 0.00 in/hr0.0 mm/hr 0.00 in0.0 mm
05:50 AM 55.2°F12.9°C 55.2°F12.9°C 100% Calm Calm 1.0 mph1.6 kmh 29.96 in1014.6 mb 0.00 in0.0 mm 0.00 in/hr0.0 mm/hr 0.00 in0.0 mm
05:49 AM 55.2°F12.9°C 55.2°F12.9°C 100% Calm Calm 1.0 mph1.6 kmh 29.96 in1014.6 mb 0.00 in0.0 mm 0.00 in/hr0.0 mm/hr 0.00 in0.0 mm
05:48 AM 55.2°F12.9°C 55.2°F12.9°C 100% Calm Calm 1.0 mph1.6 kmh 29.96 in1014.6 mb 0.00 in0.0 mm 0.00 in/hr0.0 mm/hr 0.00 in0.0 mm
05:47 AM 55.2°F12.9°C 55.2°F12.9°C 100% Calm Calm 1.0 mph1.6 kmh 29.96 in1014.6 mb 0.00 in0.0 mm 0.00 in/hr0.0 mm/hr 0.00 in0.0 mm
05:46 AM 55.2°F12.9°C 55.2°F12.9°C 100% Calm Calm 1.0 mph1.6 kmh 29.96 in1014.6 mb 0.00 in0.0 mm 0.00 in/hr0.0 mm/hr 0.00 in0.0 mm
05:45 AM 55.1°F12.8°C 55.1°F12.8°C 100% Calm Calm 1.0 mph1.6 kmh 29.96 in1014.6 mb 0.00 in0.0 mm 0.00 in/hr0.0 mm/hr 0.00 in0.0 mm
05:44 AM 55.1°F12.8°C 55.1°F12.8°C 100% Calm Calm 1.0 mph1.6 kmh 29.96 in1014.6 mb 0.00 in0.0 mm 0.00 in/hr0.0 mm/hr 0.00 in0.0 mm
05:43 AM 55.1°F12.8°C 55.1°F12.8°C 100% Calm Calm 1.0 mph1.6 kmh 29.96 in1014.6 mb 0.00 in0.0 mm 0.00 in/hr0.0 mm/hr 0.00 in0.0 mm
05:42 AM 55.1°F12.8°C 55.1°F12.8°C 100% Calm Calm -- 29.96 in1014.6 mb 0.00 in0.0 mm 0.00 in/hr0.0 mm/hr 0.00 in0.0 mm
05:41 AM 55.1°F12.8°C 55.1°F12.8°C 100% Calm Calm -- 29.96 in1014.6 mb 0.00 in0.0 mm 0.00 in/hr0.0 mm/hr 0.00 in0.0 mm
05:40 AM 55.1°F12.8°C 55.1°F12.8°C 100% Calm Calm -- 29.96 in1014.6 mb 0.00 in0.0 mm 0.00 in/hr0.0 mm/hr 0.00 in0.0 mm
05:39 AM 55.1°F12.8°C 55.1°F12.8°C 100% Calm Calm -- 29.96 in1014.6 mb 0.00 in0.0 mm 0.00 in/hr0.0 mm/hr 0.00 in0.0 mm
05:38 AM 55.1°F12.8°C 55.1°F12.8°C 100% Calm Calm -- 29.96 in1014.6 mb 0.00 in0.0 mm 0.00 in/hr0.0 mm/hr 0.00 in0.0 mm
05:37 AM 55.1°F12.8°C 55.1°F12.8°C 100% Calm Calm -- 29.96 in1014.6 mb 0.00 in0.0 mm 0.00 in/hr0.0 mm/hr 0.00 in0.0 mm
05:36 AM 55.1°F12.8°C 55.1°F12.8°C 100% Calm Calm -- 29.96 in1014.6 mb 0.00 in0.0 mm 0.00 in/hr0.0 mm/hr 0.00 in0.0 mm
05:35 AM 55.1°F12.8°C 55.1°F12.8°C 100% Calm Calm -- 29.96 in1014.6 mb 0.00 in0.0 mm 0.00 in/hr0.0 mm/hr 0.00 in0.0 mm
05:34 AM 55.1°F12.8°C 55.1°F12.8°C 100% Calm Calm 1.0 mph1.6 kmh 29.96 in1014.6 mb 0.00 in0.0 mm 0.00 in/hr0.0 mm/hr 0.00 in0.0 mm
05:33 AM 55.1°F12.8°C 55.1°F12.8°C 100% Calm Calm 1.0 mph1.6 kmh 29.96 in1014.6 mb 0.00 in0.0 mm 0.00 in/hr0.0 mm/hr 0.00 in0.0 mm
05:32 AM 55.1°F12.8°C 55.1°F12.8°C 100% Calm Calm 1.0 mph1.6 kmh 29.96 in1014.6 mb 0.00 in0.0 mm 0.00 in/hr0.0 mm/hr 0.00 in0.0 mm
05:31 AM 55.1°F12.8°C 55.1°F12.8°C 100% Calm Calm 1.0 mph1.6 kmh 29.96 in1014.6 mb 0.00 in0.0 mm 0.00 in/hr0.0 mm/hr 0.00 in0.0 mm
05:30 AM 55.1°F12.8°C 55.1°F12.8°C 100% Calm Calm 1.0 mph1.6 kmh 29.96 in1014.6 mb 0.00 in0.0 mm 0.00 in/hr0.0 mm/hr 0.00 in0.0 mm
05:29 AM 55.1°F12.8°C 55.1°F12.8°C 100% Calm Calm 1.0 mph1.6 kmh 29.96 in1014.6 mb 0.00 in0.0 mm 0.00 in/hr0.0 mm/hr 0.00 in0.0 mm
05:28 AM 55.1°F12.8°C 55.1°F12.8°C 100% Calm Calm 1.0 mph1.6 kmh 29.96 in1014.6 mb 0.00 in0.0 mm 0.00 in/hr0.0 mm/hr 0.00 in0.0 mm
05:27 AM 55.1°F12.8°C 55.1°F12.8°C 100% Calm Calm 1.0 mph1.6 kmh 29.96 in1014.6 mb 0.00 in0.0 mm 0.00 in/hr0.0 mm/hr 0.00 in0.0 mm
05:26 AM 55.1°F12.8°C 55.1°F12.8°C 100% Calm Calm 1.0 mph1.6 kmh 29.96 in1014.6 mb 0.00 in0.0 mm 0.00 in/hr0.0 mm/hr 0.00 in0.0 mm
05:25 AM 55.1°F12.8°C 55.1°F12.8°C 100% Calm Calm 1.0 mph1.6 kmh 29.96 in1014.6 mb 0.00 in0.0 mm 0.00 in/hr0.0 mm/hr 0.00 in0.0 mm
05:24 AM 55.1°F12.8°C 55.1°F12.8°C 100% Calm Calm 1.0 mph1.6 kmh 29.96 in1014.6 mb 0.00 in0.0 mm 0.00 in/hr0.0 mm/hr 0.00 in0.0 mm
05:23 AM 55.1°F12.8°C 55.1°F12.8°C 100% Calm Calm 1.0 mph1.6 kmh 29.96 in1014.6 mb 0.00 in0.0 mm 0.00 in/hr0.0 mm/hr 0.00 in0.0 mm
05:22 AM 55.1°F12.8°C 55.1°F12.8°C 100% Calm Calm 1.0 mph1.6 kmh 29.96 in1014.6 mb 0.00 in0.0 mm 0.00 in/hr0.0 mm/hr 0.00 in0.0 mm
05:21 AM 55.1°F12.8°C 55.1°F12.8°C 100% Calm Calm 1.0 mph1.6 kmh 29.96 in1014.6 mb 0.00 in0.0 mm 0.00 in/hr0.0 mm/hr 0.00 in0.0 mm
05:20 AM 55.1°F12.8°C 55.1°F12.8°C 100% Calm Calm 1.0 mph1.6 kmh 29.96 in1014.6 mb 0.00 in0.0 mm 0.00 in/hr0.0 mm/hr 0.00 in0.0 mm
05:19 AM 55.1°F12.8°C 55.1°F12.8°C 100% Calm Calm 1.0 mph1.6 kmh 29.96 in1014.6 mb 0.00 in0.0 mm 0.00 in/hr0.0 mm/hr 0.00 in0.0 mm
05:18 AM 55.1°F12.8°C 55.1°F12.8°C 100% Calm Calm -- 29.96 in1014.6 mb 0.00 in0.0 mm 0.00 in/hr0.0 mm/hr 0.00 in0.0 mm
05:17 AM 55.0°F12.8°C 55.0°F12.8°C 100% Calm Calm -- 29.96 in1014.6 mb 0.00 in0.0 mm 0.00 in/hr0.0 mm/hr 0.00 in0.0 mm
05:16 AM 55.0°F12.8°C 55.0°F12.8°C 100% Calm Calm -- 29.96 in1014.6 mb 0.00 in0.0 mm 0.00 in/hr0.0 mm/hr 0.00 in0.0 mm
05:15 AM 55.0°F12.8°C 55.0°F12.8°C 100% Calm Calm -- 29.96 in1014.6 mb 0.00 in0.0 mm 0.00 in/hr0.0 mm/hr 0.00 in0.0 mm
05:14 AM 55.0°F12.8°C 55.0°F12.8°C 100% Calm Calm -- 29.96 in1014.6 mb 0.00 in0.0 mm 0.00 in/hr0.0 mm/hr 0.00 in0.0 mm
05:13 AM 54.9°F12.7°C 54.9°F12.7°C 100% Calm Calm -- 29.96 in1014.6 mb 0.00 in0.0 mm 0.00 in/hr0.0 mm/hr 0.00 in0.0 mm
05:12 AM 54.9°F12.7°C 54.9°F12.7°C 100% Calm Calm -- 29.96 in1014.6 mb 0.00 in0.0 mm 0.00 in/hr0.0 mm/hr 0.00 in0.0 mm
05:11 AM 54.9°F12.7°C 54.9°F12.7°C 100% Calm Calm -- 29.96 in1014.6 mb 0.00 in0.0 mm 0.00 in/hr0.0 mm/hr 0.00 in0.0 mm
05:10 AM 54.9°F12.7°C 54.9°F12.7°C 100% Calm Calm -- 29.96 in1014.6 mb 0.00 in0.0 mm 0.00 in/hr0.0 mm/hr 0.00 in0.0 mm
05:09 AM 54.9°F12.7°C 54.9°F12.7°C 100% Calm Calm -- 29.96 in1014.6 mb 0.00 in0.0 mm 0.00 in/hr0.0 mm/hr 0.00 in0.0 mm
05:08 AM 54.9°F12.7°C 54.9°F12.7°C 100% Calm Calm -- 29.96 in1014.6 mb 0.00 in0.0 mm 0.00 in/hr0.0 mm/hr 0.00 in0.0 mm
05:07 AM 54.9°F12.7°C 54.9°F12.7°C 100% Calm Calm -- 29.96 in1014.6 mb 0.00 in0.0 mm 0.00 in/hr0.0 mm/hr 0.00 in0.0 mm
05:06 AM 54.9°F12.7°C 54.9°F12.7°C 100% Calm Calm -- 29.96 in1014.6 mb 0.00 in0.0 mm 0.00 in/hr0.0 mm/hr 0.00 in0.0 mm
05:05 AM 54.9°F12.7°C 54.9°F12.7°C 100% Calm Calm -- 29.96 in1014.6 mb 0.00 in0.0 mm 0.00 in/hr0.0 mm/hr 0.00 in0.0 mm
05:04 AM 54.9°F12.7°C 54.9°F12.7°C 100% Calm Calm -- 29.96 in1014.6 mb 0.00 in0.0 mm 0.00 in/hr0.0 mm/hr 0.00 in0.0 mm
05:03 AM 54.9°F12.7°C 54.9°F12.7°C 100% Calm Calm -- 29.96 in1014.6 mb 0.00 in0.0 mm 0.00 in/hr0.0 mm/hr 0.00 in0.0 mm
05:02 AM 55.0°F12.8°C 55.0°F12.8°C 100% Calm Calm -- 29.96 in1014.6 mb 0.00 in0.0 mm 0.00 in/hr0.0 mm/hr 0.00 in0.0 mm
05:01 AM 55.0°F12.8°C 55.0°F12.8°C 100% Calm Calm -- 29.96 in1014.6 mb 0.00 in0.0 mm 0.00 in/hr0.0 mm/hr 0.00 in0.0 mm
05:00 AM 55.0°F12.8°C 55.0°F12.8°C 100% Calm Calm -- 29.96 in1014.6 mb 0.00 in0.0 mm 0.00 in/hr0.0 mm/hr 0.00 in0.0 mm
04:59 AM 55.1°F12.8°C 55.1°F12.8°C 100% Calm Calm -- 29.96 in1014.6 mb 0.00 in0.0 mm 0.00 in/hr0.0 mm/hr 0.00 in0.0 mm
04:58 AM 55.1°F12.8°C 55.1°F12.8°C 100% Calm Calm -- 29.96 in1014.6 mb 0.00 in0.0 mm 0.00 in/hr0.0 mm/hr 0.00 in0.0 mm
04:57 AM 55.2°F12.9°C 55.2°F12.9°C 100% Calm Calm -- 29.96 in1014.6 mb 0.00 in0.0 mm 0.00 in/hr0.0 mm/hr 0.00 in0.0 mm
04:56 AM 55.2°F12.9°C 55.2°F12.9°C 100% Calm Calm -- 29.96 in1014.6 mb 0.00 in0.0 mm 0.00 in/hr0.0 mm/hr 0.00 in0.0 mm
04:55 AM 55.2°F12.9°C 55.2°F12.9°C 100% Calm Calm -- 29.96 in1014.6 mb 0.00 in0.0 mm 0.00 in/hr0.0 mm/hr 0.00 in0.0 mm
04:54 AM 55.3°F12.9°C 55.3°F12.9°C 100% Calm Calm -- 29.96 in1014.6 mb 0.00 in0.0 mm 0.00 in/hr0.0 mm/hr 0.00 in0.0 mm
04:53 AM 55.3°F12.9°C 55.3°F12.9°C 100% Calm Calm -- 29.96 in1014.6 mb 0.00 in0.0 mm 0.00 in/hr0.0 mm/hr 0.00 in0.0 mm
04:52 AM 55.3°F12.9°C 55.3°F12.9°C 100% Calm Calm -- 29.96 in1014.6 mb 0.00 in0.0 mm 0.00 in/hr0.0 mm/hr 0.00 in0.0 mm
04:51 AM 55.3°F12.9°C 55.3°F12.9°C 100% Calm Calm -- 29.96 in1014.6 mb 0.00 in0.0 mm 0.00 in/hr0.0 mm/hr 0.00 in0.0 mm
04:50 AM 55.3°F12.9°C 55.3°F12.9°C 100% Calm Calm -- 29.95 in1014.2 mb 0.00 in0.0 mm 0.00 in/hr0.0 mm/hr 0.00 in0.0 mm
04:49 AM 55.4°F13.0°C 55.4°F13.0°C 100% Calm Calm -- 29.95 in1014.2 mb 0.00 in0.0 mm 0.00 in/hr0.0 mm/hr 0.00 in0.0 mm
04:48 AM 55.4°F13.0°C 55.4°F13.0°C 100% Calm Calm -- 29.96 in1014.6 mb 0.00 in0.0 mm 0.00 in/hr0.0 mm/hr 0.00 in0.0 mm
04:47 AM 55.5°F13.1°C 55.5°F13.1°C 100% Calm Calm -- 29.95 in1014.2 mb 0.00 in0.0 mm 0.00 in/hr0.0 mm/hr 0.00 in0.0 mm
04:46 AM 55.5°F13.1°C 55.5°F13.1°C 100% Calm Calm -- 29.95 in1014.2 mb 0.00 in0.0 mm 0.00 in/hr0.0 mm/hr 0.00 in0.0 mm
04:45 AM 55.5°F13.1°C 55.5°F13.1°C 100% Calm Calm -- 29.96 in1014.6 mb 0.00 in0.0 mm 0.00 in/hr0.0 mm/hr 0.00 in0.0 mm
04:44 AM 55.5°F13.1°C 55.5°F13.1°C 100% Calm Calm -- 29.95 in1014.2 mb 0.00 in0.0 mm 0.00 in/hr0.0 mm/hr 0.00 in0.0 mm
04:43 AM 55.5°F13.1°C 55.5°F13.1°C 100% Calm Calm -- 29.96 in1014.6 mb 0.00 in0.0 mm 0.00 in/hr0.0 mm/hr 0.00 in0.0 mm
04:42 AM 55.5°F13.1°C 55.5°F13.1°C 100% Calm Calm -- 29.95 in1014.2 mb 0.00 in0.0 mm 0.00 in/hr0.0 mm/hr 0.00 in0.0 mm
04:41 AM 55.6°F13.1°C 55.6°F13.1°C 100% Calm Calm -- 29.95 in1014.2 mb 0.00 in0.0 mm 0.00 in/hr0.0 mm/hr 0.00 in0.0 mm
04:40 AM 55.6°F13.1°C 55.6°F13.1°C 100% Calm Calm -- 29.95 in1014.2 mb 0.00 in0.0 mm 0.00 in/hr0.0 mm/hr 0.00 in0.0 mm
04:39 AM 55.6°F13.1°C 55.6°F13.1°C 100% Calm Calm -- 29.95 in1014.2 mb 0.00 in0.0 mm 0.00 in/hr0.0 mm/hr 0.00 in0.0 mm
04:38 AM 55.6°F13.1°C 55.6°F13.1°C 100% Calm Calm -- 29.96 in1014.6 mb 0.00 in0.0 mm 0.00 in/hr0.0 mm/hr 0.00 in0.0 mm
04:37 AM 55.6°F13.1°C 55.6°F13.1°C 100% Calm Calm -- 29.95 in1014.2 mb 0.00 in0.0 mm 0.00 in/hr0.0 mm/hr 0.00 in0.0 mm
04:36 AM 55.6°F13.1°C 55.6°F13.1°C 100% Calm Calm -- 29.96 in1014.6 mb 0.00 in0.0 mm 0.00 in/hr0.0 mm/hr 0.00 in0.0 mm
04:35 AM 55.6°F13.1°C 55.6°F13.1°C 100% Calm Calm -- 29.95 in1014.2 mb 0.00 in0.0 mm 0.00 in/hr0.0 mm/hr 0.00 in0.0 mm
04:34 AM 55.6°F13.1°C 55.6°F13.1°C 100% Calm Calm -- 29.95 in1014.2 mb 0.00 in0.0 mm 0.00 in/hr0.0 mm/hr 0.00 in0.0 mm
04:33 AM 55.6°F13.1°C 55.6°F13.1°C 100% Calm Calm -- 29.95 in1014.2 mb 0.00 in0.0 mm 0.00 in/hr0.0 mm/hr 0.00 in0.0 mm
04:32 AM 55.6°F13.1°C 55.6°F13.1°C 100% Calm Calm -- 29.95 in1014.2 mb 0.00 in0.0 mm 0.00 in/hr0.0 mm/hr 0.00 in0.0 mm
04:31 AM 55.6°F13.1°C 55.6°F13.1°C 100% Calm Calm -- 29.95 in1014.2 mb 0.00 in0.0 mm 0.00 in/hr0.0 mm/hr 0.00 in0.0 mm
04:30 AM 55.6°F13.1°C 55.6°F13.1°C 100% Calm Calm -- 29.95 in1014.2 mb 0.00 in0.0 mm 0.00 in/hr0.0 mm/hr 0.00 in0.0 mm
04:29 AM 55.7°F13.2°C 55.7°F13.2°C 100% Calm Calm -- 29.95 in1014.2 mb 0.00 in0.0 mm 0.00 in/hr0.0 mm/hr 0.00 in0.0 mm
04:28 AM 55.7°F13.2°C 55.7°F13.2°C 100% Calm Calm -- 29.95 in1014.2 mb 0.00 in0.0 mm 0.00 in/hr0.0 mm/hr 0.00 in0.0 mm
04:27 AM 55.7°F13.2°C 55.7°F13.2°C 100% Calm Calm -- 29.95 in1014.2 mb 0.00 in0.0 mm 0.00 in/hr0.0 mm/hr 0.00 in0.0 mm
04:26 AM 55.7°F13.2°C 55.7°F13.2°C 100% Calm Calm -- 29.95 in1014.2 mb 0.00 in0.0 mm 0.00 in/hr0.0 mm/hr 0.00 in0.0 mm
04:25 AM 55.8°F13.2°C 55.8°F13.2°C 100% Calm Calm -- 29.95 in1014.2 mb 0.00 in0.0 mm 0.00 in/hr0.0 mm/hr 0.00 in0.0 mm
04:24 AM 55.8°F13.2°C 55.8°F13.2°C 100% Calm Calm -- 29.95 in1014.2 mb 0.00 in0.0 mm 0.00 in/hr0.0 mm/hr 0.00 in0.0 mm
04:23 AM 55.8°F13.2°C 55.8°F13.2°C 100% Calm Calm -- 29.95 in1014.2 mb 0.00 in0.0 mm 0.00 in/hr0.0 mm/hr 0.00 in0.0 mm
04:22 AM 55.9°F13.3°C 55.9°F13.3°C 100% Calm Calm -- 29.95 in1014.2 mb 0.00 in0.0 mm 0.00 in/hr0.0 mm/hr 0.00 in0.0 mm
04:21 AM 55.9°F13.3°C 55.9°F13.3°C 100% Calm Calm -- 29.95 in1014.2 mb 0.00 in0.0 mm 0.00 in/hr0.0 mm/hr 0.00 in0.0 mm
04:20 AM 55.9°F13.3°C 55.9°F13.3°C 100% Calm Calm -- 29.95 in1014.2 mb 0.00 in0.0 mm 0.00 in/hr0.0 mm/hr 0.00 in0.0 mm
04:19 AM 56.0°F13.3°C 56.0°F13.3°C 100% Calm Calm -- 29.95 in1014.2 mb 0.00 in0.0 mm 0.00 in/hr0.0 mm/hr 0.00 in0.0 mm
04:18 AM 56.1°F13.4°C 56.1°F13.4°C 100% Calm Calm -- 29.95 in1014.2 mb 0.00 in0.0 mm 0.00 in/hr0.0 mm/hr 0.00 in0.0 mm
04:17 AM 56.1°F13.4°C 56.1°F13.4°C 100% Calm Calm -- 29.95 in1014.2 mb 0.00 in0.0 mm 0.00 in/hr0.0 mm/hr 0.00 in0.0 mm
04:16 AM 56.1°F13.4°C 56.1°F13.4°C 100% Calm Calm -- 29.95 in1014.2 mb 0.00 in0.0 mm 0.00 in/hr0.0 mm/hr 0.00 in0.0 mm
04:15 AM 56.2°F13.4°C 56.2°F13.4°C 100% Calm Calm -- 29.95 in1014.2 mb 0.00 in0.0 mm 0.00 in/hr0.0 mm/hr 0.00 in0.0 mm
04:14 AM 56.2°F13.4°C 56.2°F13.4°C 100% Calm Calm -- 29.95 in1014.2 mb 0.00 in0.0 mm 0.00 in/hr0.0 mm/hr 0.00 in0.0 mm
04:13 AM 56.3°F13.5°C 56.3°F13.5°C 100% Calm Calm -- 29.95 in1014.2 mb 0.00 in0.0 mm 0.00 in/hr0.0 mm/hr 0.00 in0.0 mm
04:12 AM 56.3°F13.5°C 56.3°F13.5°C 100% Calm Calm -- 29.95 in1014.2 mb 0.00 in0.0 mm 0.00 in/hr0.0 mm/hr 0.00 in0.0 mm
04:11 AM 56.3°F13.5°C 56.3°F13.5°C 100% Calm Calm -- 29.95 in1014.2 mb 0.00 in0.0 mm 0.00 in/hr0.0 mm/hr 0.00 in0.0 mm
04:10 AM 56.4°F13.6°C 56.4°F13.6°C 100% Calm Calm -- 29.95 in1014.2 mb 0.00 in0.0 mm 0.00 in/hr0.0 mm/hr 0.00 in0.0 mm
04:09 AM 56.4°F13.6°C 56.4°F13.6°C 100% Calm Calm -- 29.95 in1014.2 mb 0.00 in0.0 mm 0.00 in/hr0.0 mm/hr 0.00 in0.0 mm
04:08 AM 56.5°F13.6°C 56.5°F13.6°C 100% Calm Calm -- 29.95 in1014.2 mb 0.00 in0.0 mm 0.00 in/hr0.0 mm/hr 0.00 in0.0 mm
04:07 AM 56.5°F13.6°C 56.5°F13.6°C 100% Calm Calm -- 29.95 in1014.2 mb 0.00 in0.0 mm 0.00 in/hr0.0 mm/hr 0.00 in0.0 mm
04:06 AM 56.5°F13.6°C 56.5°F13.6°C 100% Calm Calm -- 29.95 in1014.2 mb 0.00 in0.0 mm 0.00 in/hr0.0 mm/hr 0.00 in0.0 mm
04:05 AM 56.6°F13.7°C 56.6°F13.7°C 100% Calm Calm -- 29.95 in1014.2 mb 0.00 in0.0 mm 0.00 in/hr0.0 mm/hr 0.00 in0.0 mm
04:04 AM 56.6°F13.7°C 56.6°F13.7°C 100% Calm Calm -- 29.95 in1014.2 mb 0.00 in0.0 mm 0.00 in/hr0.0 mm/hr 0.00 in0.0 mm
04:03 AM 56.7°F13.7°C 56.7°F13.7°C 100% Calm Calm -- 29.95 in1014.2 mb 0.00 in0.0 mm 0.00 in/hr0.0 mm/hr 0.00 in0.0 mm
04:02 AM 56.7°F13.7°C 56.7°F13.7°C 100% Calm Calm -- 29.95 in1014.2 mb 0.00 in0.0 mm 0.00 in/hr0.0 mm/hr 0.00 in0.0 mm
04:01 AM 56.8°F13.8°C 56.8°F13.8°C 100% Calm Calm -- 29.95 in1014.2 mb 0.00 in0.0 mm 0.00 in/hr0.0 mm/hr 0.00 in0.0 mm
04:00 AM 56.8°F13.8°C 56.8°F13.8°C 100% Calm Calm -- 29.95 in1014.2 mb 0.00 in0.0 mm 0.00 in/hr0.0 mm/hr 0.00 in0.0 mm
03:59 AM 56.8°F13.8°C 56.8°F13.8°C 100% Calm Calm -- 29.95 in1014.2 mb 0.00 in0.0 mm 0.00 in/hr0.0 mm/hr 0.00 in0.0 mm
03:58 AM 56.8°F13.8°C 56.8°F13.8°C 100% Calm Calm -- 29.95 in1014.2 mb 0.00 in0.0 mm 0.00 in/hr0.0 mm/hr 0.00 in0.0 mm
03:57 AM 56.8°F13.8°C 56.8°F13.8°C 100% Calm Calm -- 29.95 in1014.2 mb 0.00 in0.0 mm 0.00 in/hr0.0 mm/hr 0.00 in0.0 mm
03:56 AM 56.8°F13.8°C 56.8°F13.8°C 100% Calm Calm -- 29.95 in1014.2 mb 0.00 in0.0 mm 0.00 in/hr0.0 mm/hr 0.00 in0.0 mm
03:55 AM 56.8°F13.8°C 56.8°F13.8°C 100% Calm Calm -- 29.95 in1014.2 mb 0.00 in0.0 mm 0.00 in/hr0.0 mm/hr 0.00 in0.0 mm
03:54 AM 56.9°F13.8°C 56.9°F13.8°C 100% Calm Calm -- 29.95 in1014.2 mb 0.00 in0.0 mm 0.00 in/hr0.0 mm/hr 0.00 in0.0 mm
03:53 AM 56.9°F13.8°C 56.9°F13.8°C 100% Calm Calm -- 29.95 in1014.2 mb 0.00 in0.0 mm 0.00 in/hr0.0 mm/hr 0.00 in0.0 mm
03:52 AM 56.9°F13.8°C 56.9°F13.8°C 100% Calm Calm -- 29.95 in1014.2 mb 0.00 in0.0 mm 0.00 in/hr0.0 mm/hr 0.00 in0.0 mm
03:51 AM 56.9°F13.8°C 56.9°F13.8°C 100% Calm Calm -- 29.95 in1014.2 mb 0.00 in0.0 mm 0.00 in/hr0.0 mm/hr 0.00 in0.0 mm
03:50 AM 57.0°F13.9°C 57.0°F13.9°C 100% Calm Calm -- 29.95 in1014.2 mb 0.00 in0.0 mm 0.00 in/hr0.0 mm/hr 0.00 in0.0 mm
03:49 AM 57.0°F13.9°C 57.0°F13.9°C 100% Calm Calm -- 29.95 in1014.2 mb 0.00 in0.0 mm 0.00 in/hr0.0 mm/hr 0.00 in0.0 mm
03:48 AM 57.0°F13.9°C 57.0°F13.9°C 100% Calm Calm -- 29.95 in1014.2 mb 0.00 in0.0 mm 0.00 in/hr0.0 mm/hr 0.00 in0.0 mm
03:47 AM 57.0°F13.9°C 57.0°F13.9°C 100% Calm Calm -- 29.95 in1014.2 mb 0.00 in0.0 mm 0.00 in/hr0.0 mm/hr 0.00 in0.0 mm
03:46 AM 57.0°F13.9°C 57.0°F13.9°C 100% Calm Calm -- 29.95 in1014.2 mb 0.00 in0.0 mm 0.00 in/hr0.0 mm/hr 0.00 in0.0 mm
03:45 AM 57.0°F13.9°C 57.0°F13.9°C 100% Calm Calm 1.0 mph1.6 kmh 29.95 in1014.2 mb 0.00 in0.0 mm 0.00 in/hr0.0 mm/hr 0.00 in0.0 mm
03:44 AM 57.0°F13.9°C 57.0°F13.9°C 100% Calm Calm 1.0 mph1.6 kmh 29.95 in1014.2 mb 0.00 in0.0 mm 0.00 in/hr0.0 mm/hr 0.00 in0.0 mm
03:43 AM 57.0°F13.9°C 57.0°F13.9°C 100% Calm Calm 1.0 mph1.6 kmh 29.95 in1014.2 mb 0.00 in0.0 mm 0.00 in/hr0.0 mm/hr 0.00 in0.0 mm
03:42 AM 57.0°F13.9°C 57.0°F13.9°C 100% Calm Calm 1.0 mph1.6 kmh 29.95 in1014.2 mb 0.00 in0.0 mm 0.00 in/hr0.0 mm/hr 0.00 in0.0 mm
03:41 AM 57.0°F13.9°C 57.0°F13.9°C 100% Calm Calm 1.0 mph1.6 kmh 29.95 in1014.2 mb 0.00 in0.0 mm 0.00 in/hr0.0 mm/hr 0.00 in0.0 mm
03:40 AM 57.0°F13.9°C 57.0°F13.9°C 100% Calm Calm 1.0 mph1.6 kmh 29.95 in1014.2 mb 0.00 in0.0 mm 0.00 in/hr0.0 mm/hr 0.00 in0.0 mm
03:39 AM 56.9°F13.8°C 56.9°F13.8°C 100% Calm Calm 1.0 mph1.6 kmh 29.95 in1014.2 mb 0.00 in0.0 mm 0.00 in/hr0.0 mm/hr 0.00 in0.0 mm
03:38 AM 56.9°F13.8°C 56.9°F13.8°C 100% Calm Calm 1.0 mph1.6 kmh 29.95 in1014.2 mb 0.00 in0.0 mm 0.00 in/hr0.0 mm/hr 0.00 in0.0 mm
03:37 AM 56.9°F13.8°C 56.9°F13.8°C 100% Calm Calm 1.0 mph1.6 kmh 29.95 in1014.2 mb 0.00 in0.0 mm 0.00 in/hr0.0 mm/hr 0.00 in0.0 mm
03:36 AM 56.9°F13.8°C 56.9°F13.8°C 100% Calm Calm 1.0 mph1.6 kmh 29.95 in1014.2 mb 0.00 in0.0 mm 0.00 in/hr0.0 mm/hr 0.00 in0.0 mm
03:35 AM 56.9°F13.8°C 56.9°F13.8°C 100% Calm Calm 1.0 mph1.6 kmh 29.95 in1014.2 mb 0.00 in0.0 mm 0.00 in/hr0.0 mm/hr 0.00 in0.0 mm
03:34 AM 56.9°F13.8°C 56.9°F13.8°C 100% Calm Calm 1.0 mph1.6 kmh 29.95 in1014.2 mb 0.00 in0.0 mm 0.00 in/hr0.0 mm/hr 0.00 in0.0 mm
03:33 AM 56.9°F13.8°C 56.9°F13.8°C 100% Calm Calm 1.0 mph1.6 kmh 29.95 in1014.2 mb 0.00 in0.0 mm 0.00 in/hr0.0 mm/hr 0.00 in0.0 mm
03:32 AM 56.9°F13.8°C 56.9°F13.8°C 100% Calm Calm 1.0 mph1.6 kmh 29.95 in1014.2 mb 0.00 in0.0 mm 0.00 in/hr0.0 mm/hr 0.00 in0.0 mm
03:31 AM 56.9°F13.8°C 56.9°F13.8°C 100% Calm Calm -- 29.95 in1014.2 mb 0.00 in0.0 mm 0.00 in/hr0.0 mm/hr 0.00 in0.0 mm
03:30 AM 57.0°F13.9°C 57.0°F13.9°C 100% Calm Calm -- 29.95 in1014.2 mb 0.00 in0.0 mm 0.00 in/hr0.0 mm/hr 0.00 in0.0 mm
03:29 AM 56.9°F13.8°C 56.9°F13.8°C 100% Calm Calm -- 29.95 in1014.2 mb 0.00 in0.0 mm 0.00 in/hr0.0 mm/hr 0.00 in0.0 mm
03:28 AM 57.0°F13.9°C 57.0°F13.9°C 100% Calm Calm -- 29.95 in1014.2 mb 0.00 in0.0 mm 0.00 in/hr0.0 mm/hr 0.00 in0.0 mm
03:27 AM 57.0°F13.9°C 57.0°F13.9°C 100% Calm Calm -- 29.95 in1014.2 mb 0.00 in0.0 mm 0.00 in/hr0.0 mm/hr 0.00 in0.0 mm
03:26 AM 57.1°F13.9°C 57.1°F13.9°C 100% Calm Calm -- 29.95 in1014.2 mb 0.00 in0.0 mm 0.00 in/hr0.0 mm/hr 0.00 in0.0 mm
03:25 AM 57.1°F13.9°C 57.1°F13.9°C 100% Calm Calm -- 29.95 in1014.2 mb 0.00 in0.0 mm 0.00 in/hr0.0 mm/hr 0.00 in0.0 mm
03:24 AM 57.1°F13.9°C 57.1°F13.9°C 100% Calm Calm -- 29.95 in1014.2 mb 0.00 in0.0 mm 0.00 in/hr0.0 mm/hr 0.00 in0.0 mm
03:23 AM 57.1°F13.9°C 57.1°F13.9°C 100% Calm Calm -- 29.95 in1014.2 mb 0.00 in0.0 mm 0.00 in/hr0.0 mm/hr 0.00 in0.0 mm
03:22 AM 57.1°F13.9°C 57.1°F13.9°C 100% Calm Calm -- 29.95 in1014.2 mb 0.00 in0.0 mm 0.00 in/hr0.0 mm/hr 0.00 in0.0 mm
03:21 AM 57.1°F13.9°C 57.1°F13.9°C 100% Calm Calm -- 29.95 in1014.2 mb 0.00 in0.0 mm 0.00 in/hr0.0 mm/hr 0.00 in0.0 mm
03:20 AM 57.0°F13.9°C 57.0°F13.9°C 100% Calm Calm -- 29.95 in1014.2 mb 0.00 in0.0 mm 0.00 in/hr0.0 mm/hr 0.00 in0.0 mm
03:19 AM 57.0°F13.9°C 57.0°F13.9°C 100% Calm Calm -- 29.95 in1014.2 mb 0.00 in0.0 mm 0.00 in/hr0.0 mm/hr 0.00 in0.0 mm
03:18 AM 57.0°F13.9°C 57.0°F13.9°C 100% Calm Calm -- 29.95 in1014.2 mb 0.00 in0.0 mm 0.00 in/hr0.0 mm/hr 0.00 in0.0 mm
03:17 AM 57.0°F13.9°C 57.0°F13.9°C 100% Calm Calm -- 29.95 in1014.2 mb 0.00 in0.0 mm 0.00 in/hr0.0 mm/hr 0.00 in0.0 mm
03:16 AM 57.0°F13.9°C 57.0°F13.9°C 100% Calm Calm -- 29.95 in1014.2 mb 0.00 in0.0 mm 0.00 in/hr0.0 mm/hr 0.00 in0.0 mm
03:15 AM 57.0°F13.9°C 57.0°F13.9°C 100% Calm Calm -- 29.95 in1014.2 mb 0.00 in0.0 mm 0.00 in/hr0.0 mm/hr 0.00 in0.0 mm
03:14 AM 57.0°F13.9°C 57.0°F13.9°C 100% Calm Calm -- 29.95 in1014.2 mb 0.00 in0.0 mm 0.00 in/hr0.0 mm/hr 0.00 in0.0 mm
03:13 AM 57.1°F13.9°C 57.1°F13.9°C 100% Calm Calm -- 29.95 in1014.2 mb 0.00 in0.0 mm 0.00 in/hr0.0 mm/hr 0.00 in0.0 mm
03:12 AM 57.1°F13.9°C 57.1°F13.9°C 100% Calm Calm -- 29.95 in1014.2 mb 0.00 in0.0 mm 0.00 in/hr0.0 mm/hr 0.00 in0.0 mm
03:11 AM 57.1°F13.9°C 57.1°F13.9°C 100% Calm Calm -- 29.95 in1014.2 mb 0.00 in0.0 mm 0.00 in/hr0.0 mm/hr 0.00 in0.0 mm
03:10 AM 57.1°F13.9°C 57.1°F13.9°C 100% Calm Calm -- 29.95 in1014.2 mb 0.00 in0.0 mm 0.00 in/hr0.0 mm/hr 0.00 in0.0 mm
03:09 AM 57.1°F13.9°C 57.1°F13.9°C 100% Calm Calm -- 29.95 in1014.2 mb 0.00 in0.0 mm 0.00 in/hr0.0 mm/hr 0.00 in0.0 mm
03:08 AM 57.2°F14.0°C 57.2°F14.0°C 100% Calm Calm -- 29.96 in1014.6 mb 0.00 in0.0 mm 0.00 in/hr0.0 mm/hr 0.00 in0.0 mm
03:07 AM 57.2°F14.0°C 57.2°F14.0°C 100% Calm Calm -- 29.96 in1014.6 mb 0.00 in0.0 mm 0.00 in/hr0.0 mm/hr 0.00 in0.0 mm
03:06 AM 57.2°F14.0°C 57.2°F14.0°C 100% Calm Calm -- 29.95 in1014.2 mb 0.00 in0.0 mm 0.00 in/hr0.0 mm/hr 0.00 in0.0 mm
03:05 AM 57.3°F14.1°C 57.3°F14.1°C 100% Calm Calm -- 29.96 in1014.6 mb 0.00 in0.0 mm 0.00 in/hr0.0 mm/hr 0.00 in0.0 mm
03:04 AM 57.3°F14.1°C 57.3°F14.1°C 100% Calm Calm -- 29.96 in1014.6 mb 0.00 in0.0 mm 0.00 in/hr0.0 mm/hr 0.00 in0.0 mm
03:03 AM 57.3°F14.1°C 57.3°F14.1°C 100% Calm Calm -- 29.96 in1014.6 mb 0.00 in0.0 mm 0.00 in/hr0.0 mm/hr 0.00 in0.0 mm
03:02 AM 57.3°F14.1°C 57.3°F14.1°C 100% Calm Calm -- 29.95 in1014.2 mb 0.00 in0.0 mm 0.00 in/hr0.0 mm/hr 0.00 in0.0 mm
03:01 AM 57.3°F14.1°C 57.3°F14.1°C 100% Calm Calm 1.0 mph1.6 kmh 29.96 in1014.6 mb 0.00 in0.0 mm 0.00 in/hr0.0 mm/hr 0.00 in0.0 mm
03:00 AM 57.4°F14.1°C 57.4°F14.1°C 100% Calm Calm 1.0 mph1.6 kmh 29.96 in1014.6 mb 0.00 in0.0 mm 0.00 in/hr0.0 mm/hr 0.00 in0.0 mm
02:59 AM 57.4°F14.1°C 57.4°F14.1°C 100% Calm Calm 1.0 mph1.6 kmh 29.96 in1014.6 mb 0.00 in0.0 mm 0.00 in/hr0.0 mm/hr 0.00 in